<?xml version="1.0" encoding="UTF-8" standalone="no" ?><gpx xmlns="http://www.topografix.com/GPX/1/1" xmlns:gpxx="http://www.garmin.com/xmlschemas/GpxExtensions/v3" xmlns:wptx1="http://www.garmin.com/xmlschemas/WaypointExtension/v1" xmlns:gpxtpx="http://www.garmin.com/xmlschemas/TrackPointExtension/v1" creator="GuideVTT.com" version="1.1" xmlns:xsi="http://www.w3.org/2001/XMLSchema-instance" xsi:schemaLocation="http://www.topografix.com/GPX/1/1 http://www.topografix.com/GPX/1/1/gpx.xsd http://www.garmin.com/xmlschemas/GpxExtensions/v3 http://www8.garmin.com/xmlschemas/GpxExtensionsv3.xsd http://www.garmin.com/xmlschemas/WaypointExtension/v1 http://www8.garmin.com/xmlschemas/WaypointExtensionv1.xsd http://www.garmin.com/xmlschemas/TrackPointExtension/v1 http://www.garmin.com/xmlschemas/TrackPointExtensionv1.xsd">
<metadata><link href="http://www.garmin.com"><text>Garmin International</text></link><time>2013-06-22T15:13:50Z</time></metadata>
<trk><name>activity_4156863006.gpx</name><extensions><gpxx:TrackExtension><gpxx:DisplayColor>Cyan</gpxx:DisplayColor></gpxx:TrackExtension></extensions><trkseg>
<trkpt lat="47.21896695904433727264404296875" lon="7.203032076358795166015625"><ele></ele><time>2019-11-18T13:17:44Z</time></trkpt>
<trkpt lat="47.2190624289214611053466796875" lon="7.20331060700118541717529296875"><ele></ele><time>2019-11-18T13:17:47Z</time></trkpt>
<trkpt lat="47.21915270201861858367919921875" lon="7.203347571194171905517578125"><ele></ele><time>2019-11-18T13:17:50Z</time></trkpt>
<trkpt lat="47.21926535479724407196044921875" lon="7.20329635776579380035400390625"><ele></ele><time>2019-11-18T13:17:53Z</time></trkpt>
<trkpt lat="47.2197728790342807769775390625" lon="7.20273678191006183624267578125"><ele></ele><time>2019-11-18T13:17:56Z</time></trkpt>
<trkpt lat="47.21989366225898265838623046875" lon="7.202601246535778045654296875"><ele></ele><time>2019-11-18T13:17:59Z</time></trkpt>
<trkpt lat="47.219950743019580841064453125" lon="7.20257752574980258941650390625"><ele></ele><time>2019-11-18T13:18:2Z</time></trkpt>
<trkpt lat="47.220056354999542236328125" lon="7.2026138193905353546142578125"><ele></ele><time>2019-11-18T13:18:5Z</time></trkpt>
<trkpt lat="47.22012416459619998931884765625" lon="7.2027289867401123046875"><ele></ele><time>2019-11-18T13:18:8Z</time></trkpt>
<trkpt lat="47.220442593097686767578125" lon="7.20343801192939281463623046875"><ele></ele><time>2019-11-18T13:18:11Z</time></trkpt>
<trkpt lat="47.2205845825374126434326171875" lon="7.20378401689231395721435546875"><ele></ele><time>2019-11-18T13:18:14Z</time></trkpt>
<trkpt lat="47.22059573046863079071044921875" lon="7.20381502993404865264892578125"><ele></ele><time>2019-11-18T13:18:17Z</time></trkpt>
<trkpt lat="47.2206107340753078460693359375" lon="7.203839085996150970458984375"><ele></ele><time>2019-11-18T13:18:20Z</time></trkpt>
<trkpt lat="47.22065507434308528900146484375" lon="7.2039083205163478851318359375"><ele></ele><time>2019-11-18T13:18:23Z</time></trkpt>
<trkpt lat="47.220732271671295166015625" lon="7.20394360832870006561279296875"><ele></ele><time>2019-11-18T13:18:26Z</time></trkpt>
<trkpt lat="47.2208414040505886077880859375" lon="7.20391108654439449310302734375"><ele></ele><time>2019-11-18T13:18:29Z</time></trkpt>
<trkpt lat="47.22090250812470912933349609375" lon="7.2038747929036617279052734375"><ele></ele><time>2019-11-18T13:18:32Z</time></trkpt>
<trkpt lat="47.22102169878780841827392578125" lon="7.20378644764423370361328125"><ele></ele><time>2019-11-18T13:18:35Z</time></trkpt>
<trkpt lat="47.22124926745891571044921875" lon="7.20353926531970500946044921875"><ele></ele><time>2019-11-18T13:18:38Z</time></trkpt>
<trkpt lat="47.22130735404789447784423828125" lon="7.20339576713740825653076171875"><ele></ele><time>2019-11-18T13:18:41Z</time></trkpt>
<trkpt lat="47.22133903764188289642333984375" lon="7.203327119350433349609375"><ele></ele><time>2019-11-18T13:18:44Z</time></trkpt>
<trkpt lat="47.221369631588459014892578125" lon="7.20326081849634647369384765625"><ele></ele><time>2019-11-18T13:18:47Z</time></trkpt>
<trkpt lat="47.22139284946024417877197265625" lon="7.20319292508065700531005859375"><ele></ele><time>2019-11-18T13:18:50Z</time></trkpt>
<trkpt lat="47.22140190191566944122314453125" lon="7.2031204216182231903076171875"><ele></ele><time>2019-11-18T13:18:53Z</time></trkpt>
<trkpt lat="47.22139016725122928619384765625" lon="7.20305018126964569091796875"><ele></ele><time>2019-11-18T13:18:56Z</time></trkpt>
<trkpt lat="47.2213585674762725830078125" lon="7.20298455096781253814697265625"><ele></ele><time>2019-11-18T13:18:59Z</time></trkpt>
<trkpt lat="47.221318669617176055908203125" lon="7.2029222734272480010986328125"><ele></ele><time>2019-11-18T13:19:2Z</time></trkpt>
<trkpt lat="47.221171818673610687255859375" lon="7.20268514938652515411376953125"><ele></ele><time>2019-11-18T13:19:5Z</time></trkpt>
<trkpt lat="47.221124209463596343994140625" lon="7.20254332758486270904541015625"><ele></ele><time>2019-11-18T13:19:8Z</time></trkpt>
<trkpt lat="47.22110568545758724212646484375" lon="7.2024746797978878021240234375"><ele></ele><time>2019-11-18T13:19:11Z</time></trkpt>
<trkpt lat="47.22106494940817356109619140625" lon="7.20233763568103313446044921875"><ele></ele><time>2019-11-18T13:19:14Z</time></trkpt>
<trkpt lat="47.22105153836309909820556640625" lon="7.2022708319127559661865234375"><ele></ele><time>2019-11-18T13:19:17Z</time></trkpt>
<trkpt lat="47.22107098437845706939697265625" lon="7.20214367844164371490478515625"><ele></ele><time>2019-11-18T13:19:20Z</time></trkpt>
<trkpt lat="47.22114474512636661529541015625" lon="7.2020606137812137603759765625"><ele></ele><time>2019-11-18T13:19:23Z</time></trkpt>
<trkpt lat="47.22121967934072017669677734375" lon="7.201989702880382537841796875"><ele></ele><time>2019-11-18T13:19:26Z</time></trkpt>
<trkpt lat="47.221307270228862762451171875" lon="7.20186020247638225555419921875"><ele></ele><time>2019-11-18T13:19:29Z</time></trkpt>
<trkpt lat="47.22128505818545818328857421875" lon="7.2017042152583599090576171875"><ele></ele><time>2019-11-18T13:19:32Z</time></trkpt>
<trkpt lat="47.2211803682148456573486328125" lon="7.2015328891575336456298828125"><ele></ele><time>2019-11-18T13:19:35Z</time></trkpt>
<trkpt lat="47.22095883451402187347412109375" lon="7.201109267771244049072265625"><ele></ele><time>2019-11-18T13:19:38Z</time></trkpt>
<trkpt lat="47.22083411179482936859130859375" lon="7.200938276946544647216796875"><ele></ele><time>2019-11-18T13:19:41Z</time></trkpt>
<trkpt lat="47.220672257244586944580078125" lon="7.20074457116425037384033203125"><ele></ele><time>2019-11-18T13:19:44Z</time></trkpt>
<trkpt lat="47.220591120421886444091796875" lon="7.2006534598767757415771484375"><ele></ele><time>2019-11-18T13:19:47Z</time></trkpt>
<trkpt lat="47.22031426616013050079345703125" lon="7.200352214276790618896484375"><ele></ele><time>2019-11-18T13:19:50Z</time></trkpt>
<trkpt lat="47.22020278684794902801513671875" lon="7.2001884318888187408447265625"><ele></ele><time>2019-11-18T13:19:53Z</time></trkpt>
<trkpt lat="47.2200196422636508941650390625" lon="7.19938695430755615234375"><ele></ele><time>2019-11-18T13:19:56Z</time></trkpt>
<trkpt lat="47.22014931030571460723876953125" lon="7.19857248477637767791748046875"><ele></ele><time>2019-11-18T13:19:59Z</time></trkpt>
<trkpt lat="47.2201488912105560302734375" lon="7.198505513370037078857421875"><ele></ele><time>2019-11-18T13:20:2Z</time></trkpt>
<trkpt lat="47.220131456851959228515625" lon="7.198386490345001220703125"><ele></ele><time>2019-11-18T13:20:5Z</time></trkpt>
<trkpt lat="47.2198136150836944580078125" lon="7.19775793142616748809814453125"><ele></ele><time>2019-11-18T13:20:8Z</time></trkpt>
<trkpt lat="47.2197537682950496673583984375" lon="7.19766221009194850921630859375"><ele></ele><time>2019-11-18T13:20:11Z</time></trkpt>
<trkpt lat="47.2197457216680049896240234375" lon="7.1975390799343585968017578125"><ele></ele><time>2019-11-18T13:20:14Z</time></trkpt>
<trkpt lat="47.2195400297641754150390625" lon="7.19706214964389801025390625"><ele></ele><time>2019-11-18T13:20:17Z</time></trkpt>
<trkpt lat="47.21946484409272670745849609375" lon="7.19694488681852817535400390625"><ele></ele><time>2019-11-18T13:20:20Z</time></trkpt>
<trkpt lat="47.21911364234983921051025390625" lon="7.19636167399585247039794921875"><ele></ele><time>2019-11-18T13:20:23Z</time></trkpt>
<trkpt lat="47.2190962918102741241455078125" lon="7.1963332593441009521484375"><ele></ele><time>2019-11-18T13:20:26Z</time></trkpt>
<trkpt lat="47.21906100399792194366455078125" lon="7.19628254882991313934326171875"><ele></ele><time>2019-11-18T13:20:29Z</time></trkpt>
<trkpt lat="47.219045162200927734375" lon="7.1962554752826690673828125"><ele></ele><time>2019-11-18T13:20:32Z</time></trkpt>
<trkpt lat="47.21903082914650440216064453125" lon="7.19622722826898097991943359375"><ele></ele><time>2019-11-18T13:20:35Z</time></trkpt>
<trkpt lat="47.21899881027638912200927734375" lon="7.1961745060980319976806640625"><ele></ele><time>2019-11-18T13:20:38Z</time></trkpt>
<trkpt lat="47.21898414194583892822265625" lon="7.19614843837916851043701171875"><ele></ele><time>2019-11-18T13:20:41Z</time></trkpt>
<trkpt lat="47.21897131763398647308349609375" lon="7.19611926935613155364990234375"><ele></ele><time>2019-11-18T13:20:44Z</time></trkpt>
<trkpt lat="47.2189454175531864166259765625" lon="7.19606160186231136322021484375"><ele></ele><time>2019-11-18T13:20:47Z</time></trkpt>
<trkpt lat="47.21891800872981548309326171875" lon="7.19596655108034610748291015625"><ele></ele><time>2019-11-18T13:20:50Z</time></trkpt>
<trkpt lat="47.21904591657221317291259765625" lon="7.19538333825767040252685546875"><ele></ele><time>2019-11-18T13:20:53Z</time></trkpt>
<trkpt lat="47.21921388991177082061767578125" lon="7.19509206712245941162109375"><ele></ele><time>2019-11-18T13:20:56Z</time></trkpt>
<trkpt lat="47.21922813914716243743896484375" lon="7.1950717829167842864990234375"><ele></ele><time>2019-11-18T13:20:59Z</time></trkpt>
<trkpt lat="47.21924121491611003875732421875" lon="7.1950506605207920074462890625"><ele></ele><time>2019-11-18T13:21:2Z</time></trkpt>
<trkpt lat="47.219253368675708770751953125" lon="7.19503046013414859771728515625"><ele></ele><time>2019-11-18T13:21:5Z</time></trkpt>
<trkpt lat="47.219423353672027587890625" lon="7.19468839466571807861328125"><ele></ele><time>2019-11-18T13:21:8Z</time></trkpt>
<trkpt lat="47.2194865532219409942626953125" lon="7.1945668570697307586669921875"><ele></ele><time>2019-11-18T13:21:11Z</time></trkpt>
<trkpt lat="47.21953726373612880706787109375" lon="7.1944049187004566192626953125"><ele></ele><time>2019-11-18T13:21:14Z</time></trkpt>
<trkpt lat="47.219595015048980712890625" lon="7.1942791901528835296630859375"><ele></ele><time>2019-11-18T13:21:17Z</time></trkpt>
<trkpt lat="47.21970808692276477813720703125" lon="7.1939595043659210205078125"><ele></ele><time>2019-11-18T13:21:20Z</time></trkpt>
<trkpt lat="47.2197983600199222564697265625" lon="7.19366605393588542938232421875"><ele></ele><time>2019-11-18T13:21:23Z</time></trkpt>
<trkpt lat="47.219929955899715423583984375" lon="7.19330345280468463897705078125"><ele></ele><time>2019-11-18T13:21:26Z</time></trkpt>
<trkpt lat="47.2199854440987110137939453125" lon="7.193195410072803497314453125"><ele></ele><time>2019-11-18T13:21:29Z</time></trkpt>
<trkpt lat="47.2200013697147369384765625" lon="7.19317152164876461029052734375"><ele></ele><time>2019-11-18T13:21:32Z</time></trkpt>
<trkpt lat="47.22003531642258167266845703125" lon="7.19312894158065319061279296875"><ele></ele><time>2019-11-18T13:21:35Z</time></trkpt>
<trkpt lat="47.22005275078117847442626953125" lon="7.19311184249818325042724609375"><ele></ele><time>2019-11-18T13:21:38Z</time></trkpt>
<trkpt lat="47.220070771872997283935546875" lon="7.1930973418056964874267578125"><ele></ele><time>2019-11-18T13:21:41Z</time></trkpt>
<trkpt lat="47.22009315155446529388427734375" lon="7.19309239648282527923583984375"><ele></ele><time>2019-11-18T13:21:44Z</time></trkpt>
<trkpt lat="47.22011192701756954193115234375" lon="7.1930829249322414398193359375"><ele></ele><time>2019-11-18T13:21:47Z</time></trkpt>
<trkpt lat="47.22012810409069061279296875" lon="7.19307177700102329254150390625"><ele></ele><time>2019-11-18T13:21:50Z</time></trkpt>
<trkpt lat="47.2201450355350971221923828125" lon="7.19306297600269317626953125"><ele></ele><time>2019-11-18T13:21:53Z</time></trkpt>
<trkpt lat="47.2202352248132228851318359375" lon="7.19295375980436801910400390625"><ele></ele><time>2019-11-18T13:21:56Z</time></trkpt>
<trkpt lat="47.22026028670370578765869140625" lon="7.19290212728083133697509765625"><ele></ele><time>2019-11-18T13:21:59Z</time></trkpt>
<trkpt lat="47.220271937549114227294921875" lon="7.19287815503776073455810546875"><ele></ele><time>2019-11-18T13:22:2Z</time></trkpt>
<trkpt lat="47.22024100832641124725341796875" lon="7.1920807845890522003173828125"><ele></ele><time>2019-11-18T13:22:5Z</time></trkpt>
<trkpt lat="47.22012550570070743560791015625" lon="7.1912962384521961212158203125"><ele></ele><time>2019-11-18T13:22:8Z</time></trkpt>
<trkpt lat="47.21996583044528961181640625" lon="7.19053071923553943634033203125"><ele></ele><time>2019-11-18T13:22:11Z</time></trkpt>
<trkpt lat="47.2198590449988842010498046875" lon="7.189760506153106689453125"><ele></ele><time>2019-11-18T13:22:14Z</time></trkpt>
<trkpt lat="47.21986432559788227081298828125" lon="7.1889409236609935760498046875"><ele></ele><time>2019-11-18T13:22:17Z</time></trkpt>
<trkpt lat="47.2198892198503017425537109375" lon="7.1886961720883846282958984375"><ele></ele><time>2019-11-18T13:22:20Z</time></trkpt>
<trkpt lat="47.21991495229303836822509765625" lon="7.18855611048638820648193359375"><ele></ele><time>2019-11-18T13:22:23Z</time></trkpt>
<trkpt lat="47.21994931809604167938232421875" lon="7.18830264173448085784912109375"><ele></ele><time>2019-11-18T13:22:26Z</time></trkpt>
<trkpt lat="47.2201071493327617645263671875" lon="7.18766896985471248626708984375"><ele></ele><time>2019-11-18T13:22:29Z</time></trkpt>
<trkpt lat="47.22033689729869365692138671875" lon="7.1869225613772869110107421875"><ele></ele><time>2019-11-18T13:22:32Z</time></trkpt>
<trkpt lat="47.2205329500138759613037109375" lon="7.186481840908527374267578125"><ele></ele><time>2019-11-18T13:22:35Z</time></trkpt>
<trkpt lat="47.22085003741085529327392578125" lon="7.1858310699462890625"><ele></ele><time>2019-11-18T13:22:38Z</time></trkpt>
<trkpt lat="47.22108372487127780914306640625" lon="7.185079045593738555908203125"><ele></ele><time>2019-11-18T13:22:41Z</time></trkpt>
<trkpt lat="47.22133769653737545013427734375" lon="7.1843372471630573272705078125"><ele></ele><time>2019-11-18T13:22:44Z</time></trkpt>
<trkpt lat="47.22148421220481395721435546875" lon="7.183783538639545440673828125"><ele></ele><time>2019-11-18T13:22:47Z</time></trkpt>
<trkpt lat="47.22156082279980182647705078125" lon="7.1834849752485752105712890625"><ele></ele><time>2019-11-18T13:22:50Z</time></trkpt>
<trkpt lat="47.22173784859478473663330078125" lon="7.1829264052212238311767578125"><ele></ele><time>2019-11-18T13:22:53Z</time></trkpt>
<trkpt lat="47.22199483774602413177490234375" lon="7.18219022266566753387451171875"><ele></ele><time>2019-11-18T13:22:56Z</time></trkpt>
<trkpt lat="47.2221429459750652313232421875" lon="7.18181907199323177337646484375"><ele></ele><time>2019-11-18T13:22:59Z</time></trkpt>
<trkpt lat="47.22218812443315982818603515625" lon="7.18163886107504367828369140625"><ele></ele><time>2019-11-18T13:23:2Z</time></trkpt>
<trkpt lat="47.2224073112010955810546875" lon="7.1809372119605541229248046875"><ele></ele><time>2019-11-18T13:23:5Z</time></trkpt>
<trkpt lat="47.22263236530125141143798828125" lon="7.180195748805999755859375"><ele></ele><time>2019-11-18T13:23:8Z</time></trkpt>
<trkpt lat="47.22285901196300983428955078125" lon="7.17946610413491725921630859375"><ele></ele><time>2019-11-18T13:23:11Z</time></trkpt>
<trkpt lat="47.22315254621207714080810546875" lon="7.17875204980373382568359375"><ele></ele><time>2019-11-18T13:23:14Z</time></trkpt>
<trkpt lat="47.22342814318835735321044921875" lon="7.17807135544717311859130859375"><ele></ele><time>2019-11-18T13:23:17Z</time></trkpt>
<trkpt lat="47.22370206378400325775146484375" lon="7.177359648048877716064453125"><ele></ele><time>2019-11-18T13:23:20Z</time></trkpt>
<trkpt lat="47.22395695745944976806640625" lon="7.17663503251969814300537109375"><ele></ele><time>2019-11-18T13:23:23Z</time></trkpt>
<trkpt lat="47.22402594052255153656005859375" lon="7.176430933177471160888671875"><ele></ele><time>2019-11-18T13:23:26Z</time></trkpt>
<trkpt lat="47.2241388447582721710205078125" lon="7.17611552216112613677978515625"><ele></ele><time>2019-11-18T13:23:29Z</time></trkpt>
<trkpt lat="47.224288545548915863037109375" lon="7.17569743283092975616455078125"><ele></ele><time>2019-11-18T13:23:32Z</time></trkpt>
<trkpt lat="47.2245405055582523345947265625" lon="7.1749786846339702606201171875"><ele></ele><time>2019-11-18T13:23:35Z</time></trkpt>
<trkpt lat="47.2247998416423797607421875" lon="7.17426630668342113494873046875"><ele></ele><time>2019-11-18T13:23:38Z</time></trkpt>
<trkpt lat="47.22511642612516880035400390625" lon="7.17361788265407085418701171875"><ele></ele><time>2019-11-18T13:23:41Z</time></trkpt>
<trkpt lat="47.22548020072281360626220703125" lon="7.17303450219333171844482421875"><ele></ele><time>2019-11-18T13:23:44Z</time></trkpt>
<trkpt lat="47.2256294824182987213134765625" lon="7.17280022799968719482421875"><ele></ele><time>2019-11-18T13:23:47Z</time></trkpt>
<trkpt lat="47.22582201473414897918701171875" lon="7.1725033409893512725830078125"><ele></ele><time>2019-11-18T13:23:50Z</time></trkpt>
<trkpt lat="47.2259563766419887542724609375" lon="7.17222749255597591400146484375"><ele></ele><time>2019-11-18T13:23:53Z</time></trkpt>
<trkpt lat="47.2260391898453235626220703125" lon="7.1718098223209381103515625"><ele></ele><time>2019-11-18T13:23:56Z</time></trkpt>
<trkpt lat="47.226186878979206085205078125" lon="7.17103592120110988616943359375"><ele></ele><time>2019-11-18T13:23:59Z</time></trkpt>
<trkpt lat="47.22626826725900173187255859375" lon="7.17027853243052959442138671875"><ele></ele><time>2019-11-18T13:24:2Z</time></trkpt>
<trkpt lat="47.226172126829624176025390625" lon="7.16946381144225597381591796875"><ele></ele><time>2019-11-18T13:24:5Z</time></trkpt>
<trkpt lat="47.2263127751648426055908203125" lon="7.1686620824038982391357421875"><ele></ele><time>2019-11-18T13:24:8Z</time></trkpt>
<trkpt lat="47.22643934190273284912109375" lon="7.1681244671344757080078125"><ele></ele><time>2019-11-18T13:24:11Z</time></trkpt>
<trkpt lat="47.22664193250238895416259765625" lon="7.16737889684736728668212890625"><ele></ele><time>2019-11-18T13:24:14Z</time></trkpt>
<trkpt lat="47.2268544137477874755859375" lon="7.1666407026350498199462890625"><ele></ele><time>2019-11-18T13:24:17Z</time></trkpt>
<trkpt lat="47.227065302431583404541015625" lon="7.16587333939969539642333984375"><ele></ele><time>2019-11-18T13:24:20Z</time></trkpt>
<trkpt lat="47.227177955210208892822265625" lon="7.1650652401149272918701171875"><ele></ele><time>2019-11-18T13:24:23Z</time></trkpt>
<trkpt lat="47.2272129915654659271240234375" lon="7.16444514691829681396484375"><ele></ele><time>2019-11-18T13:24:26Z</time></trkpt>
<trkpt lat="47.2274248860776424407958984375" lon="7.163779623806476593017578125"><ele></ele><time>2019-11-18T13:24:29Z</time></trkpt>
<trkpt lat="47.227605096995830535888671875" lon="7.1633593551814556121826171875"><ele></ele><time>2019-11-18T13:24:32Z</time></trkpt>
<trkpt lat="47.227633930742740631103515625" lon="7.16328735463321208953857421875"><ele></ele><time>2019-11-18T13:24:35Z</time></trkpt>
<trkpt lat="47.2276622615754604339599609375" lon="7.1632081456482410430908203125"><ele></ele><time>2019-11-18T13:24:38Z</time></trkpt>
<trkpt lat="47.22786015830934047698974609375" lon="7.16264404356479644775390625"><ele></ele><time>2019-11-18T13:24:41Z</time></trkpt>
<trkpt lat="47.22811178304255008697509765625" lon="7.161926887929439544677734375"><ele></ele><time>2019-11-18T13:24:44Z</time></trkpt>
<trkpt lat="47.2283188998699188232421875" lon="7.16133671812713146209716796875"><ele></ele><time>2019-11-18T13:24:47Z</time></trkpt>
<trkpt lat="47.228571362793445587158203125" lon="7.160628028213977813720703125"><ele></ele><time>2019-11-18T13:24:50Z</time></trkpt>
<trkpt lat="47.2286407649517059326171875" lon="7.16043633408844470977783203125"><ele></ele><time>2019-11-18T13:24:53Z</time></trkpt>
<trkpt lat="47.22867605276405811309814453125" lon="7.16033399105072021484375"><ele></ele><time>2019-11-18T13:24:56Z</time></trkpt>
<trkpt lat="47.2287961654365062713623046875" lon="7.1600069291889667510986328125"><ele></ele><time>2019-11-18T13:24:59Z</time></trkpt>
<trkpt lat="47.22880236804485321044921875" lon="7.159978933632373809814453125"><ele></ele><time>2019-11-18T13:25:2Z</time></trkpt>
<trkpt lat="47.22882919013500213623046875" lon="7.15987172909080982208251953125"><ele></ele><time>2019-11-18T13:25:5Z</time></trkpt>
<trkpt lat="47.2288350574672222137451171875" lon="7.159844152629375457763671875"><ele></ele><time>2019-11-18T13:25:8Z</time></trkpt>
<trkpt lat="47.2288451157510280609130859375" lon="7.15979059226810932159423828125"><ele></ele><time>2019-11-18T13:25:11Z</time></trkpt>
<trkpt lat="47.2288451157510280609130859375" lon="7.15979059226810932159423828125"><ele></ele><time>2019-11-18T13:25:14Z</time></trkpt>
<trkpt lat="47.22890253178775310516357421875" lon="7.159579955041408538818359375"><ele></ele><time>2019-11-18T13:25:17Z</time></trkpt>
<trkpt lat="47.22911828197538852691650390625" lon="7.15882885269820690155029296875"><ele></ele><time>2019-11-18T13:25:20Z</time></trkpt>
<trkpt lat="47.22924920730292797088623046875" lon="7.158367931842803955078125"><ele></ele><time>2019-11-18T13:25:23Z</time></trkpt>
<trkpt lat="47.2294110618531703948974609375" lon="7.15780491940677165985107421875"><ele></ele><time>2019-11-18T13:25:26Z</time></trkpt>
<trkpt lat="47.2295875847339630126953125" lon="7.15719035826623439788818359375"><ele></ele><time>2019-11-18T13:25:29Z</time></trkpt>
<trkpt lat="47.2296568192541599273681640625" lon="7.15694812126457691192626953125"><ele></ele><time>2019-11-18T13:25:32Z</time></trkpt>
<trkpt lat="47.2296772710978984832763671875" lon="7.1568779647350311279296875"><ele></ele><time>2019-11-18T13:25:35Z</time></trkpt>
<trkpt lat="47.229824960231781005859375" lon="7.15637345798313617706298828125"><ele></ele><time>2019-11-18T13:25:38Z</time></trkpt>
<trkpt lat="47.23004079423844814300537109375" lon="7.15561707504093647003173828125"><ele></ele><time>2019-11-18T13:25:41Z</time></trkpt>
<trkpt lat="47.230078093707561492919921875" lon="7.1553921885788440704345703125"><ele></ele><time>2019-11-18T13:25:44Z</time></trkpt>
<trkpt lat="47.230075411498546600341796875" lon="7.15469623915851116180419921875"><ele></ele><time>2019-11-18T13:25:47Z</time></trkpt>
<trkpt lat="47.2301723062992095947265625" lon="7.1541064046323299407958984375"><ele></ele><time>2019-11-18T13:25:50Z</time></trkpt>
<trkpt lat="47.2302308119833469390869140625" lon="7.15367364697158336639404296875"><ele></ele><time>2019-11-18T13:25:53Z</time></trkpt>
<trkpt lat="47.230233661830425262451171875" lon="7.15345907025039196014404296875"><ele></ele><time>2019-11-18T13:25:56Z</time></trkpt>
<trkpt lat="47.23024698905646800994873046875" lon="7.1532457508146762847900390625"><ele></ele><time>2019-11-18T13:25:59Z</time></trkpt>
<trkpt lat="47.2302448935806751251220703125" lon="7.15322270058095455169677734375"><ele></ele><time>2019-11-18T13:26:2Z</time></trkpt>
<trkpt lat="47.23024162463843822479248046875" lon="7.1531988121569156646728515625"><ele></ele><time>2019-11-18T13:26:5Z</time></trkpt>
<trkpt lat="47.23024095408618450164794921875" lon="7.15312982909381389617919921875"><ele></ele><time>2019-11-18T13:26:8Z</time></trkpt>
<trkpt lat="47.23024162463843822479248046875" lon="7.15297711081802845001220703125"><ele></ele><time>2019-11-18T13:26:11Z</time></trkpt>
<trkpt lat="47.2302435524761676788330078125" lon="7.15287283994257450103759765625"><ele></ele><time>2019-11-18T13:26:14Z</time></trkpt>
<trkpt lat="47.23025537095963954925537109375" lon="7.15275700204074382781982421875"><ele></ele><time>2019-11-18T13:26:17Z</time></trkpt>
<trkpt lat="47.230262495577335357666015625" lon="7.1523369848728179931640625"><ele></ele><time>2019-11-18T13:26:20Z</time></trkpt>
<trkpt lat="47.23026693798601627349853515625" lon="7.15162494219839572906494140625"><ele></ele><time>2019-11-18T13:26:23Z</time></trkpt>
<trkpt lat="47.23027716390788555145263671875" lon="7.151142060756683349609375"><ele></ele><time>2019-11-18T13:26:26Z</time></trkpt>
<trkpt lat="47.23028789274394512176513671875" lon="7.15087207965552806854248046875"><ele></ele><time>2019-11-18T13:26:29Z</time></trkpt>
<trkpt lat="47.2303149662911891937255859375" lon="7.15044661425054073333740234375"><ele></ele><time>2019-11-18T13:26:32Z</time></trkpt>
<trkpt lat="47.230334244668483734130859375" lon="7.150227762758731842041015625"><ele></ele><time>2019-11-18T13:26:35Z</time></trkpt>
<trkpt lat="47.230359055101871490478515625" lon="7.14979081414639949798583984375"><ele></ele><time>2019-11-18T13:26:38Z</time></trkpt>
<trkpt lat="47.23037305288016796112060546875" lon="7.14955645613372325897216796875"><ele></ele><time>2019-11-18T13:26:41Z</time></trkpt>
<trkpt lat="47.230399958789348602294921875" lon="7.1491932682693004608154296875"><ele></ele><time>2019-11-18T13:26:44Z</time></trkpt>
<trkpt lat="47.23039668984711170196533203125" lon="7.14907399378716945648193359375"><ele></ele><time>2019-11-18T13:26:47Z</time></trkpt>
<trkpt lat="47.23034371621906757354736328125" lon="7.148735783994197845458984375"><ele></ele><time>2019-11-18T13:26:50Z</time></trkpt>
<trkpt lat="47.2302951849997043609619140625" lon="7.148407883942127227783203125"><ele></ele><time>2019-11-18T13:26:53Z</time></trkpt>
<trkpt lat="47.230294682085514068603515625" lon="7.1482984162867069244384765625"><ele></ele><time>2019-11-18T13:26:56Z</time></trkpt>
<trkpt lat="47.23028940148651599884033203125" lon="7.14819238521158695220947265625"><ele></ele><time>2019-11-18T13:26:59Z</time></trkpt>
<trkpt lat="47.23028034903109073638916015625" lon="7.14808492921292781829833984375"><ele></ele><time>2019-11-18T13:27:2Z</time></trkpt>
<trkpt lat="47.23026408813893795013427734375" lon="7.14797713793814182281494140625"><ele></ele><time>2019-11-18T13:27:5Z</time></trkpt>
<trkpt lat="47.23010332323610782623291015625" lon="7.1471601538360118865966796875"><ele></ele><time>2019-11-18T13:27:8Z</time></trkpt>
<trkpt lat="47.23004263825714588165283203125" lon="7.14674122631549835205078125"><ele></ele><time>2019-11-18T13:27:11Z</time></trkpt>
<trkpt lat="47.22997315227985382080078125" lon="7.14592005126178264617919921875"><ele></ele><time>2019-11-18T13:27:14Z</time></trkpt>
<trkpt lat="47.2299260459840297698974609375" lon="7.145630456507205963134765625"><ele></ele><time>2019-11-18T13:27:17Z</time></trkpt>
<trkpt lat="47.2297329269349575042724609375" lon="7.14487583376467227935791015625"><ele></ele><time>2019-11-18T13:27:20Z</time></trkpt>
<trkpt lat="47.22958046011626720428466796875" lon="7.1443029306828975677490234375"><ele></ele><time>2019-11-18T13:27:23Z</time></trkpt>
<trkpt lat="47.22942656837403774261474609375" lon="7.143740169703960418701171875"><ele></ele><time>2019-11-18T13:27:26Z</time></trkpt>
<trkpt lat="47.2293362952768802642822265625" lon="7.1434640698134899139404296875"><ele></ele><time>2019-11-18T13:27:29Z</time></trkpt>
<trkpt lat="47.229062207043170928955078125" lon="7.1428645960986614227294921875"><ele></ele><time>2019-11-18T13:27:32Z</time></trkpt>
<trkpt lat="47.2289842553436756134033203125" lon="7.14272386394441127777099609375"><ele></ele><time>2019-11-18T13:27:35Z</time></trkpt>
<trkpt lat="47.2289088182151317596435546875" lon="7.142585813999176025390625"><ele></ele><time>2019-11-18T13:27:38Z</time></trkpt>
<trkpt lat="47.2288365662097930908203125" lon="7.14245413430035114288330078125"><ele></ele><time>2019-11-18T13:27:41Z</time></trkpt>
<trkpt lat="47.2287626378238201141357421875" lon="7.142329327762126922607421875"><ele></ele><time>2019-11-18T13:27:44Z</time></trkpt>
<trkpt lat="47.22872500307857990264892578125" lon="7.142270989716053009033203125"><ele></ele><time>2019-11-18T13:27:47Z</time></trkpt>
<trkpt lat="47.22860832698643207550048828125" lon="7.14211198501288890838623046875"><ele></ele><time>2019-11-18T13:27:50Z</time></trkpt>
<trkpt lat="47.228505648672580718994140625" lon="7.1419461071491241455078125"><ele></ele><time>2019-11-18T13:27:53Z</time></trkpt>
<trkpt lat="47.22842409275472164154052734375" lon="7.141784168779850006103515625"><ele></ele><time>2019-11-18T13:27:56Z</time></trkpt>
<trkpt lat="47.2283334843814373016357421875" lon="7.1415705978870391845703125"><ele></ele><time>2019-11-18T13:27:59Z</time></trkpt>
<trkpt lat="47.228253185749053955078125" lon="7.1413521654903888702392578125"><ele></ele><time>2019-11-18T13:28:2Z</time></trkpt>
<trkpt lat="47.22802662290632724761962890625" lon="7.1408371813595294952392578125"><ele></ele><time>2019-11-18T13:28:5Z</time></trkpt>
<trkpt lat="47.22771531902253627777099609375" lon="7.14014207012951374053955078125"><ele></ele><time>2019-11-18T13:28:8Z</time></trkpt>
<trkpt lat="47.2275437414646148681640625" lon="7.13937881402671337127685546875"><ele></ele><time>2019-11-18T13:28:11Z</time></trkpt>
<trkpt lat="47.2271975688636302947998046875" lon="7.13876257650554180145263671875"><ele></ele><time>2019-11-18T13:28:14Z</time></trkpt>
<trkpt lat="47.2269563376903533935546875" lon="7.138077355921268463134765625"><ele></ele><time>2019-11-18T13:28:17Z</time></trkpt>
<trkpt lat="47.22688257694244384765625" lon="7.13781542144715785980224609375"><ele></ele><time>2019-11-18T13:28:20Z</time></trkpt>
<trkpt lat="47.2265974245965480804443359375" lon="7.137125842273235321044921875"><ele></ele><time>2019-11-18T13:28:23Z</time></trkpt>
<trkpt lat="47.2262695245444774627685546875" lon="7.13646928779780864715576171875"><ele></ele><time>2019-11-18T13:28:26Z</time></trkpt>
<trkpt lat="47.2262160480022430419921875" lon="7.13636484928429126739501953125"><ele></ele><time>2019-11-18T13:28:29Z</time></trkpt>
<trkpt lat="47.22579603083431720733642578125" lon="7.13587869890034198760986328125"><ele></ele><time>2019-11-18T13:28:32Z</time></trkpt>
<trkpt lat="47.2254789434373378753662109375" lon="7.13584651239216327667236328125"><ele></ele><time>2019-11-18T13:28:35Z</time></trkpt>
<trkpt lat="47.2252854891121387481689453125" lon="7.13512147776782512664794921875"><ele></ele><time>2019-11-18T13:28:38Z</time></trkpt>
<trkpt lat="47.22496437840163707733154296875" lon="7.1347163803875446319580078125"><ele></ele><time>2019-11-18T13:28:41Z</time></trkpt>
<trkpt lat="47.22447252832353115081787109375" lon="7.1344868838787078857421875"><ele></ele><time>2019-11-18T13:28:44Z</time></trkpt>
<trkpt lat="47.22422459162771701812744140625" lon="7.1341450698673725128173828125"><ele></ele><time>2019-11-18T13:28:47Z</time></trkpt>
<trkpt lat="47.2239943407475948333740234375" lon="7.1338617615401744842529296875"><ele></ele><time>2019-11-18T13:28:50Z</time></trkpt>
<trkpt lat="47.22388143651187419891357421875" lon="7.133563198149204254150390625"><ele></ele><time>2019-11-18T13:28:53Z</time></trkpt>
<trkpt lat="47.223849333822727203369140625" lon="7.13346219621598720550537109375"><ele></ele><time>2019-11-18T13:28:56Z</time></trkpt>
<trkpt lat="47.22384237684309482574462890625" lon="7.13340436108410358428955078125"><ele></ele><time>2019-11-18T13:28:59Z</time></trkpt>
<trkpt lat="47.22384338267147541046142578125" lon="7.133343927562236785888671875"><ele></ele><time>2019-11-18T13:29:2Z</time></trkpt>
<trkpt lat="47.22377733327448368072509765625" lon="7.13294100947678089141845703125"><ele></ele><time>2019-11-18T13:29:5Z</time></trkpt>
<trkpt lat="47.22367800772190093994140625" lon="7.13261939585208892822265625"><ele></ele><time>2019-11-18T13:29:8Z</time></trkpt>
<trkpt lat="47.22362159751355648040771484375" lon="7.1324331499636173248291015625"><ele></ele><time>2019-11-18T13:29:11Z</time></trkpt>
<trkpt lat="47.22350995056331157684326171875" lon="7.1320192515850067138671875"><ele></ele><time>2019-11-18T13:29:14Z</time></trkpt>
<trkpt lat="47.223429568111896514892578125" lon="7.13167098350822925567626953125"><ele></ele><time>2019-11-18T13:29:17Z</time></trkpt>
<trkpt lat="47.2233184240758419036865234375" lon="7.1312942169606685638427734375"><ele></ele><time>2019-11-18T13:29:20Z</time></trkpt>
<trkpt lat="47.22330593504011631011962890625" lon="7.13102457113564014434814453125"><ele></ele><time>2019-11-18T13:29:23Z</time></trkpt>
<trkpt lat="47.2233459167182445526123046875" lon="7.13066632859408855438232421875"><ele></ele><time>2019-11-18T13:29:26Z</time></trkpt>
<trkpt lat="47.2233338467776775360107421875" lon="7.1304496563971042633056640625"><ele></ele><time>2019-11-18T13:29:29Z</time></trkpt>
<trkpt lat="47.22330342046916484832763671875" lon="7.13004271499812602996826171875"><ele></ele><time>2019-11-18T13:29:32Z</time></trkpt>
<trkpt lat="47.22322178073227405548095703125" lon="7.12915590964257717132568359375"><ele></ele><time>2019-11-18T13:29:35Z</time></trkpt>
<trkpt lat="47.22308515571057796478271484375" lon="7.12827564217150211334228515625"><ele></ele><time>2019-11-18T13:29:38Z</time></trkpt>
<trkpt lat="47.22309303469955921173095703125" lon="7.12801915593445301055908203125"><ele></ele><time>2019-11-18T13:29:41Z</time></trkpt>
<trkpt lat="47.2231769375503063201904296875" lon="7.12748506106436252593994140625"><ele></ele><time>2019-11-18T13:29:44Z</time></trkpt>
<trkpt lat="47.223261259496212005615234375" lon="7.12722522206604480743408203125"><ele></ele><time>2019-11-18T13:29:47Z</time></trkpt>
<trkpt lat="47.2233499400317668914794921875" lon="7.1269818954169750213623046875"><ele></ele><time>2019-11-18T13:29:50Z</time></trkpt>
<trkpt lat="47.2233995608985424041748046875" lon="7.126716189086437225341796875"><ele></ele><time>2019-11-18T13:29:53Z</time></trkpt>
<trkpt lat="47.223382294178009033203125" lon="7.1264478005468845367431640625"><ele></ele><time>2019-11-18T13:29:56Z</time></trkpt>
<trkpt lat="47.2232520394027233123779296875" lon="7.12558907456696033477783203125"><ele></ele><time>2019-11-18T13:29:59Z</time></trkpt>
<trkpt lat="47.22317232750356197357177734375" lon="7.1247519738972187042236328125"><ele></ele><time>2019-11-18T13:30:2Z</time></trkpt>
<trkpt lat="47.22313544712960720062255859375" lon="7.1242990158498287200927734375"><ele></ele><time>2019-11-18T13:30:5Z</time></trkpt>
<trkpt lat="47.22301005385816097259521484375" lon="7.12358311749994754791259765625"><ele></ele><time>2019-11-18T13:30:8Z</time></trkpt>
<trkpt lat="47.222836799919605255126953125" lon="7.1230568177998065948486328125"><ele></ele><time>2019-11-18T13:30:11Z</time></trkpt>
<trkpt lat="47.2228185273706912994384765625" lon="7.122776694595813751220703125"><ele></ele><time>2019-11-18T13:30:14Z</time></trkpt>
<trkpt lat="47.222832776606082916259765625" lon="7.122415602207183837890625"><ele></ele><time>2019-11-18T13:30:17Z</time></trkpt>
<trkpt lat="47.2228423319756984710693359375" lon="7.122244276106357574462890625"><ele></ele><time>2019-11-18T13:30:20Z</time></trkpt>
<trkpt lat="47.22286320291459560394287109375" lon="7.1218233369290828704833984375"><ele></ele><time>2019-11-18T13:30:23Z</time></trkpt>
<trkpt lat="47.22289622761309146881103515625" lon="7.120966874063014984130859375"><ele></ele><time>2019-11-18T13:30:26Z</time></trkpt>
<trkpt lat="47.222906537353992462158203125" lon="7.1207806281745433807373046875"><ele></ele><time>2019-11-18T13:30:29Z</time></trkpt>
<trkpt lat="47.22294182516634464263916015625" lon="7.120379470288753509521484375"><ele></ele><time>2019-11-18T13:30:32Z</time></trkpt>
<trkpt lat="47.22301072441041469573974609375" lon="7.119815535843372344970703125"><ele></ele><time>2019-11-18T13:30:35Z</time></trkpt>
<trkpt lat="47.2231105528771877288818359375" lon="7.119228132069110870361328125"><ele></ele><time>2019-11-18T13:30:38Z</time></trkpt>
<trkpt lat="47.223166711628437042236328125" lon="7.1189976297318935394287109375"><ele></ele><time>2019-11-18T13:30:41Z</time></trkpt>
<trkpt lat="47.22322848625481128692626953125" lon="7.11878078989684581756591796875"><ele></ele><time>2019-11-18T13:30:44Z</time></trkpt>
<trkpt lat="47.2232426516711711883544921875" lon="7.11853955872356891632080078125"><ele></ele><time>2019-11-18T13:30:47Z</time></trkpt>
<trkpt lat="47.22323535941541194915771484375" lon="7.1182930469512939453125"><ele></ele><time>2019-11-18T13:30:50Z</time></trkpt>
<trkpt lat="47.223255224525928497314453125" lon="7.11805097758769989013671875"><ele></ele><time>2019-11-18T13:30:53Z</time></trkpt>
<trkpt lat="47.22330627031624317169189453125" lon="7.11772668175399303436279296875"><ele></ele><time>2019-11-18T13:30:56Z</time></trkpt>
<trkpt lat="47.223366200923919677734375" lon="7.1175670064985752105712890625"><ele></ele><time>2019-11-18T13:30:59Z</time></trkpt>
<trkpt lat="47.2234689630568027496337890625" lon="7.1174691058695316314697265625"><ele></ele><time>2019-11-18T13:31:2Z</time></trkpt>
<trkpt lat="47.2238602302968502044677734375" lon="7.117282189428806304931640625"><ele></ele><time>2019-11-18T13:31:5Z</time></trkpt>
<trkpt lat="47.2238484956324100494384765625" lon="7.116950266063213348388671875"><ele></ele><time>2019-11-18T13:31:8Z</time></trkpt>
<trkpt lat="47.223818488419055938720703125" lon="7.116770558059215545654296875"><ele></ele><time>2019-11-18T13:31:11Z</time></trkpt>
<trkpt lat="47.22397648729383945465087890625" lon="7.11653687059879302978515625"><ele></ele><time>2019-11-18T13:31:14Z</time></trkpt>
<trkpt lat="47.22401353530585765838623046875" lon="7.11652572266757488250732421875"><ele></ele><time>2019-11-18T13:31:17Z</time></trkpt>
<trkpt lat="47.22412099130451679229736328125" lon="7.116496302187442779541015625"><ele></ele><time>2019-11-18T13:31:20Z</time></trkpt>
<trkpt lat="47.2243356518447399139404296875" lon="7.11644995026290416717529296875"><ele></ele><time>2019-11-18T13:31:23Z</time></trkpt>
<trkpt lat="47.22447931766510009765625" lon="7.11640016175806522369384765625"><ele></ele><time>2019-11-18T13:31:26Z</time></trkpt>
<trkpt lat="47.22455601207911968231201171875" lon="7.11621508933603763580322265625"><ele></ele><time>2019-11-18T13:31:29Z</time></trkpt>
<trkpt lat="47.22454679198563098907470703125" lon="7.116182148456573486328125"><ele></ele><time>2019-11-18T13:31:32Z</time></trkpt>
<trkpt lat="47.22452818416059017181396484375" lon="7.11611031554639339447021484375"><ele></ele><time>2019-11-18T13:31:35Z</time></trkpt>
<trkpt lat="47.22450152970850467681884765625" lon="7.116064466536045074462890625"><ele></ele><time>2019-11-18T13:31:38Z</time></trkpt>
<trkpt lat="47.22447537817060947418212890625" lon="7.115961872041225433349609375"><ele></ele><time>2019-11-18T13:31:41Z</time></trkpt>
<trkpt lat="47.2244680859148502349853515625" lon="7.11590043269097805023193359375"><ele></ele><time>2019-11-18T13:31:44Z</time></trkpt>
<trkpt lat="47.2244523279368877410888671875" lon="7.11585961282253265380859375"><ele></ele><time>2019-11-18T13:31:47Z</time></trkpt>
<trkpt lat="47.22443573176860809326171875" lon="7.11582432501018047332763671875"><ele></ele><time>2019-11-18T13:31:50Z</time></trkpt>
<trkpt lat="47.22440077923238277435302734375" lon="7.11571284569799900054931640625"><ele></ele><time>2019-11-18T13:31:53Z</time></trkpt>
<trkpt lat="47.22439927048981189727783203125" lon="7.1156710200011730194091796875"><ele></ele><time>2019-11-18T13:31:56Z</time></trkpt>
<trkpt lat="47.22440161742269992828369140625" lon="7.11565484292805194854736328125"><ele></ele><time>2019-11-18T13:31:59Z</time></trkpt>
<trkpt lat="47.2244003601372241973876953125" lon="7.11563430726528167724609375"><ele></ele><time>2019-11-18T13:32:2Z</time></trkpt>
<trkpt lat="47.22439524717628955841064453125" lon="7.1155932359397411346435546875"><ele></ele><time>2019-11-18T13:32:5Z</time></trkpt>
<trkpt lat="47.22439642064273357391357421875" lon="7.115540094673633575439453125"><ele></ele><time>2019-11-18T13:32:8Z</time></trkpt>
<trkpt lat="47.22444453276693820953369140625" lon="7.1153082512319087982177734375"><ele></ele><time>2019-11-18T13:32:11Z</time></trkpt>
<trkpt lat="47.22444620914757251739501953125" lon="7.11528486572206020355224609375"><ele></ele><time>2019-11-18T13:32:14Z</time></trkpt>
<trkpt lat="47.2244503162801265716552734375" lon="7.115237005054950714111328125"><ele></ele><time>2019-11-18T13:32:17Z</time></trkpt>
<trkpt lat="47.22449314780533313751220703125" lon="7.11490801535546779632568359375"><ele></ele><time>2019-11-18T13:32:20Z</time></trkpt>
<trkpt lat="47.2245555929839611053466796875" lon="7.11447165347635746002197265625"><ele></ele><time>2019-11-18T13:32:23Z</time></trkpt>
<trkpt lat="47.2246072255074977874755859375" lon="7.11418968625366687774658203125"><ele></ele><time>2019-11-18T13:32:26Z</time></trkpt>
<trkpt lat="47.22466229461133480072021484375" lon="7.1138635464012622833251953125"><ele></ele><time>2019-11-18T13:32:29Z</time></trkpt>
<trkpt lat="47.22482557408511638641357421875" lon="7.11354243569076061248779296875"><ele></ele><time>2019-11-18T13:32:32Z</time></trkpt>
<trkpt lat="47.22507988102734088897705078125" lon="7.1132271923124790191650390625"><ele></ele><time>2019-11-18T13:32:35Z</time></trkpt>
<trkpt lat="47.22535849548876285552978515625" lon="7.11274045519530773162841796875"><ele></ele><time>2019-11-18T13:32:38Z</time></trkpt>
<trkpt lat="47.22584648989140987396240234375" lon="7.11237919516861438751220703125"><ele></ele><time>2019-11-18T13:32:41Z</time></trkpt>
<trkpt lat="47.22606693394482135772705078125" lon="7.11211130954325199127197265625"><ele></ele><time>2019-11-18T13:32:44Z</time></trkpt>
<trkpt lat="47.22611957229673862457275390625" lon="7.11205733008682727813720703125"><ele></ele><time>2019-11-18T13:32:47Z</time></trkpt>
<trkpt lat="47.22627145238220691680908203125" lon="7.1119219623506069183349609375"><ele></ele><time>2019-11-18T13:32:50Z</time></trkpt>
<trkpt lat="47.22630523145198822021484375" lon="7.11189388297498226165771484375"><ele></ele><time>2019-11-18T13:32:53Z</time></trkpt>
<trkpt lat="47.226365245878696441650390625" lon="7.11185951717197895050048828125"><ele></ele><time>2019-11-18T13:32:56Z</time></trkpt>
<trkpt lat="47.22640505991876125335693359375" lon="7.1118609420955181121826171875"><ele></ele><time>2019-11-18T13:32:59Z</time></trkpt>
<trkpt lat="47.22642601467669010162353515625" lon="7.11190377362072467803955078125"><ele></ele><time>2019-11-18T13:33:2Z</time></trkpt>
<trkpt lat="47.2263764776289463043212890625" lon="7.11236427538096904754638671875"><ele></ele><time>2019-11-18T13:33:5Z</time></trkpt>
<trkpt lat="47.22632576711475849151611328125" lon="7.11261749267578125"><ele></ele><time>2019-11-18T13:33:8Z</time></trkpt>
<trkpt lat="47.2262581251561641693115234375" lon="7.11287255398929119110107421875"><ele></ele><time>2019-11-18T13:33:11Z</time></trkpt>
<trkpt lat="47.2261746414005756378173828125" lon="7.11320422589778900146484375"><ele></ele><time>2019-11-18T13:33:14Z</time></trkpt>
<trkpt lat="47.22620842047035694122314453125" lon="7.1132788248360157012939453125"><ele></ele><time>2019-11-18T13:33:17Z</time></trkpt>
<trkpt lat="47.22632241435348987579345703125" lon="7.11335149593651294708251953125"><ele></ele><time>2019-11-18T13:33:20Z</time></trkpt>
<trkpt lat="47.22634990699589252471923828125" lon="7.11335116066038608551025390625"><ele></ele><time>2019-11-18T13:33:23Z</time></trkpt>
<trkpt lat="47.22637630999088287353515625" lon="7.11334705352783203125"><ele></ele><time>2019-11-18T13:33:26Z</time></trkpt>
<trkpt lat="47.22648301161825656890869140625" lon="7.11332903243601322174072265625"><ele></ele><time>2019-11-18T13:33:29Z</time></trkpt>
<trkpt lat="47.22653581760823726654052734375" lon="7.11331042461097240447998046875"><ele></ele><time>2019-11-18T13:33:32Z</time></trkpt>
<trkpt lat="47.22655358724296092987060546875" lon="7.11330187506973743438720703125"><ele></ele><time>2019-11-18T13:33:35Z</time></trkpt>
<trkpt lat="47.2270959801971912384033203125" lon="7.11327471770346164703369140625"><ele></ele><time>2019-11-18T13:33:38Z</time></trkpt>
<trkpt lat="47.22719865851104259490966796875" lon="7.11332869715988636016845703125"><ele></ele><time>2019-11-18T13:33:41Z</time></trkpt>
<trkpt lat="47.22754483111202716827392578125" lon="7.11321637965738773345947265625"><ele></ele><time>2019-11-18T13:33:44Z</time></trkpt>
<trkpt lat="47.22774918191134929656982421875" lon="7.11305879987776279449462890625"><ele></ele><time>2019-11-18T13:33:47Z</time></trkpt>
<trkpt lat="47.227781452238559722900390625" lon="7.11301982402801513671875"><ele></ele><time>2019-11-18T13:33:50Z</time></trkpt>
<trkpt lat="47.22779209725558757781982421875" lon="7.11300917901098728179931640625"><ele></ele><time>2019-11-18T13:33:53Z</time></trkpt>
<trkpt lat="47.22780316136777400970458984375" lon="7.1129968576133251190185546875"><ele></ele><time>2019-11-18T13:33:56Z</time></trkpt>
<trkpt lat="47.228217311203479766845703125" lon="7.11258354596793651580810546875"><ele></ele><time>2019-11-18T13:33:59Z</time></trkpt>
<trkpt lat="47.22826332785189151763916015625" lon="7.1123755909502506256103515625"><ele></ele><time>2019-11-18T13:34:2Z</time></trkpt>
<trkpt lat="47.2282868809998035430908203125" lon="7.1122057735919952392578125"><ele></ele><time>2019-11-18T13:34:5Z</time></trkpt>
<trkpt lat="47.2282939217984676361083984375" lon="7.1121653728187084197998046875"><ele></ele><time>2019-11-18T13:34:8Z</time></trkpt>
<trkpt lat="47.228313200175762176513671875" lon="7.11190377362072467803955078125"><ele></ele><time>2019-11-18T13:34:11Z</time></trkpt>
<trkpt lat="47.2283194027841091156005859375" lon="7.11182464845478534698486328125"><ele></ele><time>2019-11-18T13:34:14Z</time></trkpt>
<trkpt lat="47.22833859734237194061279296875" lon="7.11160135455429553985595703125"><ele></ele><time>2019-11-18T13:34:17Z</time></trkpt>
<trkpt lat="47.228382267057895660400390625" lon="7.1112750470638275146484375"><ele></ele><time>2019-11-18T13:34:20Z</time></trkpt>
<trkpt lat="47.228427194058895111083984375" lon="7.1104883216321468353271484375"><ele></ele><time>2019-11-18T13:34:23Z</time></trkpt>
<trkpt lat="47.2283991985023021697998046875" lon="7.110265530645847320556640625"><ele></ele><time>2019-11-18T13:34:26Z</time></trkpt>
<trkpt lat="47.2283774055540561676025390625" lon="7.1101641096174716949462890625"><ele></ele><time>2019-11-18T13:34:29Z</time></trkpt>
<trkpt lat="47.22836407832801342010498046875" lon="7.11009076796472072601318359375"><ele></ele><time>2019-11-18T13:34:32Z</time></trkpt>
<trkpt lat="47.2282697819173336029052734375" lon="7.10949875414371490478515625"><ele></ele><time>2019-11-18T13:34:35Z</time></trkpt>
<trkpt lat="47.2281705401837825775146484375" lon="7.10889316163957118988037109375"><ele></ele><time>2019-11-18T13:34:38Z</time></trkpt>
<trkpt lat="47.22812167368829250335693359375" lon="7.10849971510469913482666015625"><ele></ele><time>2019-11-18T13:34:41Z</time></trkpt>
<trkpt lat="47.228007428348064422607421875" lon="7.10766009986400604248046875"><ele></ele><time>2019-11-18T13:34:44Z</time></trkpt>
<trkpt lat="47.227870635688304901123046875" lon="7.106823585927486419677734375"><ele></ele><time>2019-11-18T13:34:47Z</time></trkpt>
<trkpt lat="47.22781087271869182586669921875" lon="7.1064811013638973236083984375"><ele></ele><time>2019-11-18T13:34:50Z</time></trkpt>
<trkpt lat="47.227770723402500152587890625" lon="7.1062071807682514190673828125"><ele></ele><time>2019-11-18T13:34:53Z</time></trkpt>
<trkpt lat="47.22770542837679386138916015625" lon="7.1056623570621013641357421875"><ele></ele><time>2019-11-18T13:34:56Z</time></trkpt>
<trkpt lat="47.227626554667949676513671875" lon="7.1052372269332408905029296875"><ele></ele><time>2019-11-18T13:34:59Z</time></trkpt>
<trkpt lat="47.2276304103434085845947265625" lon="7.1051936410367488861083984375"><ele></ele><time>2019-11-18T13:35:2Z</time></trkpt>
<trkpt lat="47.22764541395008563995361328125" lon="7.10516321472823619842529296875"><ele></ele><time>2019-11-18T13:35:5Z</time></trkpt>
<trkpt lat="47.22766955383121967315673828125" lon="7.105152569711208343505859375"><ele></ele><time>2019-11-18T13:35:8Z</time></trkpt>
<trkpt lat="47.22768866457045078277587890625" lon="7.10515902377665042877197265625"><ele></ele><time>2019-11-18T13:35:11Z</time></trkpt>
<trkpt lat="47.2277014888823032379150390625" lon="7.105174697935581207275390625"><ele></ele><time>2019-11-18T13:35:14Z</time></trkpt>
<trkpt lat="47.22772973589599132537841796875" lon="7.10525541566312313079833984375"><ele></ele><time>2019-11-18T13:35:17Z</time></trkpt>
<trkpt lat="47.22774834372103214263916015625" lon="7.1053156815469264984130859375"><ele></ele><time>2019-11-18T13:35:20Z</time></trkpt>
<trkpt lat="47.22775773145258426666259765625" lon="7.10535666905343532562255859375"><ele></ele><time>2019-11-18T13:35:23Z</time></trkpt>
<trkpt lat="47.22780995070934295654296875" lon="7.10552246309816837310791015625"><ele></ele><time>2019-11-18T13:35:26Z</time></trkpt>
<trkpt lat="47.227849178016185760498046875" lon="7.10567736066877841949462890625"><ele></ele><time>2019-11-18T13:35:29Z</time></trkpt>
<trkpt lat="47.22791899926960468292236328125" lon="7.10596024990081787109375"><ele></ele><time>2019-11-18T13:35:32Z</time></trkpt>
<trkpt lat="47.2279997169971466064453125" lon="7.1063171513378620147705078125"><ele></ele><time>2019-11-18T13:35:35Z</time></trkpt>
<trkpt lat="47.22805629484355449676513671875" lon="7.10650004446506500244140625"><ele></ele><time>2019-11-18T13:35:38Z</time></trkpt>
<trkpt lat="47.22806115634739398956298828125" lon="7.1065223403275012969970703125"><ele></ele><time>2019-11-18T13:35:41Z</time></trkpt>
<trkpt lat="47.22808546386659145355224609375" lon="7.106601297855377197265625"><ele></ele><time>2019-11-18T13:35:44Z</time></trkpt>
<trkpt lat="47.22816911526024341583251953125" lon="7.10680179297924041748046875"><ele></ele><time>2019-11-18T13:35:47Z</time></trkpt>
<trkpt lat="47.22830976359546184539794921875" lon="7.1073695831000804901123046875"><ele></ele><time>2019-11-18T13:35:50Z</time></trkpt>
<trkpt lat="47.22836491651833057403564453125" lon="7.10762682370841503143310546875"><ele></ele><time>2019-11-18T13:35:53Z</time></trkpt>
<trkpt lat="47.22854060120880603790283203125" lon="7.10828044451773166656494140625"><ele></ele><time>2019-11-18T13:35:56Z</time></trkpt>
<trkpt lat="47.22866683267056941986083984375" lon="7.10866726934909820556640625"><ele></ele><time>2019-11-18T13:35:59Z</time></trkpt>
<trkpt lat="47.22890906967222690582275390625" lon="7.1093866042792797088623046875"><ele></ele><time>2019-11-18T13:36:2Z</time></trkpt>
<trkpt lat="47.22904033027589321136474609375" lon="7.10975431837141513824462890625"><ele></ele><time>2019-11-18T13:36:5Z</time></trkpt>
<trkpt lat="47.22932430915534496307373046875" lon="7.1103786863386631011962890625"><ele></ele><time>2019-11-18T13:36:8Z</time></trkpt>
<trkpt lat="47.229631505906581878662109375" lon="7.11104177869856357574462890625"><ele></ele><time>2019-11-18T13:36:11Z</time></trkpt>
<trkpt lat="47.23000206984579563140869140625" lon="7.11162381805479526519775390625"><ele></ele><time>2019-11-18T13:36:14Z</time></trkpt>
<trkpt lat="47.23038076423108577728271484375" lon="7.1122009120881557464599609375"><ele></ele><time>2019-11-18T13:36:17Z</time></trkpt>
<trkpt lat="47.23056457936763763427734375" lon="7.112482376396656036376953125"><ele></ele><time>2019-11-18T13:36:20Z</time></trkpt>
<trkpt lat="47.23075593821704387664794921875" lon="7.11282863281667232513427734375"><ele></ele><time>2019-11-18T13:36:23Z</time></trkpt>
<trkpt lat="47.2308993525803089141845703125" lon="7.11312199942767620086669921875"><ele></ele><time>2019-11-18T13:36:26Z</time></trkpt>
<trkpt lat="47.23111770115792751312255859375" lon="7.11349884979426860809326171875"><ele></ele><time>2019-11-18T13:36:29Z</time></trkpt>
<trkpt lat="47.231131531298160552978515625" lon="7.1135200560092926025390625"><ele></ele><time>2019-11-18T13:36:32Z</time></trkpt>
<trkpt lat="47.23114435561001300811767578125" lon="7.11354159750044345855712890625"><ele></ele><time>2019-11-18T13:36:35Z</time></trkpt>
<trkpt lat="47.231179811060428619384765625" lon="7.11360991001129150390625"><ele></ele><time>2019-11-18T13:36:38Z</time></trkpt>
<trkpt lat="47.2312983311712741851806640625" lon="7.1138323657214641571044921875"><ele></ele><time>2019-11-18T13:36:41Z</time></trkpt>
<trkpt lat="47.2316433303058147430419921875" lon="7.114460505545139312744140625"><ele></ele><time>2019-11-18T13:36:44Z</time></trkpt>
<trkpt lat="47.23198883235454559326171875" lon="7.11509208194911479949951171875"><ele></ele><time>2019-11-18T13:36:47Z</time></trkpt>
<trkpt lat="47.23205613903701305389404296875" lon="7.11520456708967685699462890625"><ele></ele><time>2019-11-18T13:36:50Z</time></trkpt>
<trkpt lat="47.23230558447539806365966796875" lon="7.11590562947094440460205078125"><ele></ele><time>2019-11-18T13:36:53Z</time></trkpt>
<trkpt lat="47.2323806025087833404541015625" lon="7.1160654723644256591796875"><ele></ele><time>2019-11-18T13:36:56Z</time></trkpt>
<trkpt lat="47.23241798579692840576171875" lon="7.11615826003253459930419921875"><ele></ele><time>2019-11-18T13:36:59Z</time></trkpt>
<trkpt lat="47.23274563439190387725830078125" lon="7.1167720668017864227294921875"><ele></ele><time>2019-11-18T13:37:2Z</time></trkpt>
<trkpt lat="47.2330032102763652801513671875" lon="7.11716190911829471588134765625"><ele></ele><time>2019-11-18T13:37:5Z</time></trkpt>
<trkpt lat="47.23305098712444305419921875" lon="7.11723558604717254638671875"><ele></ele><time>2019-11-18T13:37:8Z</time></trkpt>
<trkpt lat="47.23312432877719402313232421875" lon="7.11733658798038959503173828125"><ele></ele><time>2019-11-18T13:37:11Z</time></trkpt>
<trkpt lat="47.23319574259221553802490234375" lon="7.1174332313239574432373046875"><ele></ele><time>2019-11-18T13:37:14Z</time></trkpt>
<trkpt lat="47.2332251630723476409912109375" lon="7.11747229099273681640625"><ele></ele><time>2019-11-18T13:37:17Z</time></trkpt>
<trkpt lat="47.23326145671308040618896484375" lon="7.11752652190625667572021484375"><ele></ele><time>2019-11-18T13:37:20Z</time></trkpt>
<trkpt lat="47.233317531645298004150390625" lon="7.11760975420475006103515625"><ele></ele><time>2019-11-18T13:37:23Z</time></trkpt>
<trkpt lat="47.23360377363860607147216796875" lon="7.118285000324249267578125"><ele></ele><time>2019-11-18T13:37:26Z</time></trkpt>
<trkpt lat="47.23372698761522769927978515625" lon="7.11875296197831630706787109375"><ele></ele><time>2019-11-18T13:37:29Z</time></trkpt>
<trkpt lat="47.2339222021400928497314453125" lon="7.11949459277093410491943359375"><ele></ele><time>2019-11-18T13:37:32Z</time></trkpt>
<trkpt lat="47.234016917645931243896484375" lon="7.1198297850787639617919921875"><ele></ele><time>2019-11-18T13:37:35Z</time></trkpt>
<trkpt lat="47.23420995287597179412841796875" lon="7.1203065477311611175537109375"><ele></ele><time>2019-11-18T13:37:38Z</time></trkpt>
<trkpt lat="47.23437599837779998779296875" lon="7.1210790239274501800537109375"><ele></ele><time>2019-11-18T13:37:41Z</time></trkpt>
<trkpt lat="47.23440156318247318267822265625" lon="7.1212848834693431854248046875"><ele></ele><time>2019-11-18T13:37:44Z</time></trkpt>
<trkpt lat="47.234450094401836395263671875" lon="7.12152443826198577880859375"><ele></ele><time>2019-11-18T13:37:47Z</time></trkpt>
<trkpt lat="47.23453600890934467315673828125" lon="7.121768854558467864990234375"><ele></ele><time>2019-11-18T13:37:50Z</time></trkpt>
<trkpt lat="47.23454573191702365875244140625" lon="7.12181990034878253936767578125"><ele></ele><time>2019-11-18T13:37:53Z</time></trkpt>
<trkpt lat="47.23454573191702365875244140625" lon="7.12181990034878253936767578125"><ele></ele><time>2019-11-18T13:37:56Z</time></trkpt>
<trkpt lat="47.234752513468265533447265625" lon="7.1225599385797977447509765625"><ele></ele><time>2019-11-18T13:37:59Z</time></trkpt>
<trkpt lat="47.234950996935367584228515625" lon="7.12332512252032756805419921875"><ele></ele><time>2019-11-18T13:38:2Z</time></trkpt>
<trkpt lat="47.23500430583953857421875" lon="7.1235059201717376708984375"><ele></ele><time>2019-11-18T13:38:5Z</time></trkpt>
<trkpt lat="47.23502115346491336822509765625" lon="7.12356551550328731536865234375"><ele></ele><time>2019-11-18T13:38:8Z</time></trkpt>
<trkpt lat="47.23506339825689792633056640625" lon="7.12374488823115825653076171875"><ele></ele><time>2019-11-18T13:38:11Z</time></trkpt>
<trkpt lat="47.23526917397975921630859375" lon="7.12448819540441036224365234375"><ele></ele><time>2019-11-18T13:38:14Z</time></trkpt>
<trkpt lat="47.23548567853868007659912109375" lon="7.1251948736608028411865234375"><ele></ele><time>2019-11-18T13:38:17Z</time></trkpt>
<trkpt lat="47.2355073876678943634033203125" lon="7.125281877815723419189453125"><ele></ele><time>2019-11-18T13:38:20Z</time></trkpt>
<trkpt lat="47.23571014590561389923095703125" lon="7.1260260231792926788330078125"><ele></ele><time>2019-11-18T13:38:23Z</time></trkpt>
<trkpt lat="47.2358309291303157806396484375" lon="7.1264434419572353363037109375"><ele></ele><time>2019-11-18T13:38:26Z</time></trkpt>
<trkpt lat="47.2360289096832275390625" lon="7.127168141305446624755859375"><ele></ele><time>2019-11-18T13:38:29Z</time></trkpt>
<trkpt lat="47.2362590767443180084228515625" lon="7.1279002167284488677978515625"><ele></ele><time>2019-11-18T13:38:32Z</time></trkpt>
<trkpt lat="47.2363120503723621368408203125" lon="7.12802686728537082672119140625"><ele></ele><time>2019-11-18T13:38:35Z</time></trkpt>
<trkpt lat="47.2364994697272777557373046875" lon="7.1285845153033733367919921875"><ele></ele><time>2019-11-18T13:38:38Z</time></trkpt>
<trkpt lat="47.23652654327452182769775390625" lon="7.12865366600453853607177734375"><ele></ele><time>2019-11-18T13:38:41Z</time></trkpt>
<trkpt lat="47.23660533316433429718017578125" lon="7.12890495546162128448486328125"><ele></ele><time>2019-11-18T13:38:44Z</time></trkpt>
<trkpt lat="47.236696444451808929443359375" lon="7.1291385591030120849609375"><ele></ele><time>2019-11-18T13:38:47Z</time></trkpt>
<trkpt lat="47.2367264516651630401611328125" lon="7.12923386134207248687744140625"><ele></ele><time>2019-11-18T13:38:50Z</time></trkpt>
<trkpt lat="47.2368572093546390533447265625" lon="7.12958757765591144561767578125"><ele></ele><time>2019-11-18T13:38:53Z</time></trkpt>
<trkpt lat="47.237053848803043365478515625" lon="7.13018420152366161346435546875"><ele></ele><time>2019-11-18T13:38:56Z</time></trkpt>
<trkpt lat="47.23713775165379047393798828125" lon="7.1304442919790744781494140625"><ele></ele><time>2019-11-18T13:38:59Z</time></trkpt>
<trkpt lat="47.23725937306880950927734375" lon="7.1307973377406597137451171875"><ele></ele><time>2019-11-18T13:39:2Z</time></trkpt>
<trkpt lat="47.237278483808040618896484375" lon="7.13085324503481388092041015625"><ele></ele><time>2019-11-18T13:39:5Z</time></trkpt>
<trkpt lat="47.23733321763575077056884765625" lon="7.13099054060876369476318359375"><ele></ele><time>2019-11-18T13:39:8Z</time></trkpt>
<trkpt lat="47.2373547591269016265869140625" lon="7.13105860166251659393310546875"><ele></ele><time>2019-11-18T13:39:11Z</time></trkpt>
<trkpt lat="47.23741552792489528656005859375" lon="7.13123671710491180419921875"><ele></ele><time>2019-11-18T13:39:14Z</time></trkpt>
<trkpt lat="47.2374338842928409576416015625" lon="7.13132699020206928253173828125"><ele></ele><time>2019-11-18T13:39:17Z</time></trkpt>
<trkpt lat="47.23744251765310764312744140625" lon="7.1313569135963916778564453125"><ele></ele><time>2019-11-18T13:39:20Z</time></trkpt>
<trkpt lat="47.23749029450118541717529296875" lon="7.13150904513895511627197265625"><ele></ele><time>2019-11-18T13:39:23Z</time></trkpt>
<trkpt lat="47.2374985925853252410888671875" lon="7.1315409801900386810302734375"><ele></ele><time>2019-11-18T13:39:26Z</time></trkpt>
<trkpt lat="47.237508483231067657470703125" lon="7.13157333433628082275390625"><ele></ele><time>2019-11-18T13:39:29Z</time></trkpt>
<trkpt lat="47.23753890953958034515380859375" lon="7.13167391717433929443359375"><ele></ele><time>2019-11-18T13:39:32Z</time></trkpt>
<trkpt lat="47.23757646046578884124755859375" lon="7.13177542202174663543701171875"><ele></ele><time>2019-11-18T13:39:35Z</time></trkpt>
<trkpt lat="47.23785541020333766937255859375" lon="7.13245485909283161163330078125"><ele></ele><time>2019-11-18T13:39:38Z</time></trkpt>
<trkpt lat="47.237952388823032379150390625" lon="7.1327717788517475128173828125"><ele></ele><time>2019-11-18T13:39:41Z</time></trkpt>
<trkpt lat="47.2381496988236904144287109375" lon="7.13325097225606441497802734375"><ele></ele><time>2019-11-18T13:39:44Z</time></trkpt>
<trkpt lat="47.2384423948824405670166015625" lon="7.13396058417856693267822265625"><ele></ele><time>2019-11-18T13:39:47Z</time></trkpt>
<trkpt lat="47.2385265491902828216552734375" lon="7.134152948856353759765625"><ele></ele><time>2019-11-18T13:39:50Z</time></trkpt>
<trkpt lat="47.23861883394420146942138671875" lon="7.13437917642295360565185546875"><ele></ele><time>2019-11-18T13:39:53Z</time></trkpt>
<trkpt lat="47.23870868794620037078857421875" lon="7.1346070803701877593994140625"><ele></ele><time>2019-11-18T13:39:56Z</time></trkpt>
<trkpt lat="47.23876115866005420684814453125" lon="7.13476642034947872161865234375"><ele></ele><time>2019-11-18T13:39:59Z</time></trkpt>
<trkpt lat="47.238862998783588409423828125" lon="7.13508912362158298492431640625"><ele></ele><time>2019-11-18T13:40:2Z</time></trkpt>
<trkpt lat="47.2391022183001041412353515625" lon="7.1358368732035160064697265625"><ele></ele><time>2019-11-18T13:40:5Z</time></trkpt>
<trkpt lat="47.23927580751478672027587890625" lon="7.13633165694773197174072265625"><ele></ele><time>2019-11-18T13:40:8Z</time></trkpt>
<trkpt lat="47.23951670341193675994873046875" lon="7.1369090862572193145751953125"><ele></ele><time>2019-11-18T13:40:11Z</time></trkpt>
<trkpt lat="47.23963052965700626373291015625" lon="7.137156017124652862548828125"><ele></ele><time>2019-11-18T13:40:14Z</time></trkpt>
<trkpt lat="47.239767573773860931396484375" lon="7.1374646387994289398193359375"><ele></ele><time>2019-11-18T13:40:17Z</time></trkpt>
<trkpt lat="47.24004861898720264434814453125" lon="7.138098813593387603759765625"><ele></ele><time>2019-11-18T13:40:20Z</time></trkpt>
<trkpt lat="47.2403631918132305145263671875" lon="7.1388025581836700439453125"><ele></ele><time>2019-11-18T13:40:23Z</time></trkpt>
<trkpt lat="47.24055170081555843353271484375" lon="7.13922441937029361724853515625"><ele></ele><time>2019-11-18T13:40:26Z</time></trkpt>
<trkpt lat="47.24086962640285491943359375" lon="7.13993017561733722686767578125"><ele></ele><time>2019-11-18T13:40:29Z</time></trkpt>
<trkpt lat="47.2412251867353916168212890625" lon="7.14052696712315082550048828125"><ele></ele><time>2019-11-18T13:40:32Z</time></trkpt>
<trkpt lat="47.24132962524890899658203125" lon="7.14075109921395778656005859375"><ele></ele><time>2019-11-18T13:40:35Z</time></trkpt>
<trkpt lat="47.2414709441363811492919921875" lon="7.14119148440659046173095703125"><ele></ele><time>2019-11-18T13:40:38Z</time></trkpt>
<trkpt lat="47.24181116558611392974853515625" lon="7.14191199280321598052978515625"><ele></ele><time>2019-11-18T13:40:41Z</time></trkpt>
<trkpt lat="47.24219371564686298370361328125" lon="7.14258916676044464111328125"><ele></ele><time>2019-11-18T13:40:44Z</time></trkpt>
<trkpt lat="47.2422373853623867034912109375" lon="7.142701484262943267822265625"><ele></ele><time>2019-11-18T13:40:47Z</time></trkpt>
<trkpt lat="47.2423039376735687255859375" lon="7.14308059774339199066162109375"><ele></ele><time>2019-11-18T13:40:50Z</time></trkpt>
<trkpt lat="47.2423768602311611175537109375" lon="7.14399657212197780609130859375"><ele></ele><time>2019-11-18T13:40:53Z</time></trkpt>
<trkpt lat="47.24239580333232879638671875" lon="7.14412783272564411163330078125"><ele></ele><time>2019-11-18T13:40:56Z</time></trkpt>
<trkpt lat="47.24241600371897220611572265625" lon="7.1442581713199615478515625"><ele></ele><time>2019-11-18T13:40:59Z</time></trkpt>
<trkpt lat="47.2424365393817424774169921875" lon="7.144387252628803253173828125"><ele></ele><time>2019-11-18T13:41:2Z</time></trkpt>
<trkpt lat="47.242456488311290740966796875" lon="7.14451524429023265838623046875"><ele></ele><time>2019-11-18T13:41:5Z</time></trkpt>
<trkpt lat="47.24247635342180728912353515625" lon="7.14464231394231319427490234375"><ele></ele><time>2019-11-18T13:41:8Z</time></trkpt>
<trkpt lat="47.24260426126420497894287109375" lon="7.14541696943342685699462890625"><ele></ele><time>2019-11-18T13:41:11Z</time></trkpt>
<trkpt lat="47.24274088628590106964111328125" lon="7.146190702915191650390625"><ele></ele><time>2019-11-18T13:41:14Z</time></trkpt>
<trkpt lat="47.2427848912775516510009765625" lon="7.14643679559230804443359375"><ele></ele><time>2019-11-18T13:41:17Z</time></trkpt>
<trkpt lat="47.24292260594666004180908203125" lon="7.14723768644034862518310546875"><ele></ele><time>2019-11-18T13:41:20Z</time></trkpt>
<trkpt lat="47.24307683296501636505126953125" lon="7.14798099361360073089599609375"><ele></ele><time>2019-11-18T13:41:23Z</time></trkpt>
<trkpt lat="47.243163585662841796875" lon="7.148288190364837646484375"><ele></ele><time>2019-11-18T13:41:26Z</time></trkpt>
<trkpt lat="47.24336584098637104034423828125" lon="7.148990593850612640380859375"><ele></ele><time>2019-11-18T13:41:29Z</time></trkpt>
<trkpt lat="47.24359382875263690948486328125" lon="7.1497079171240329742431640625"><ele></ele><time>2019-11-18T13:41:32Z</time></trkpt>
<trkpt lat="47.24395911209285259246826171875" lon="7.15034879744052886962890625"><ele></ele><time>2019-11-18T13:41:35Z</time></trkpt>
<trkpt lat="47.24422641098499298095703125" lon="7.150752805173397064208984375"><ele></ele><time>2019-11-18T13:41:38Z</time></trkpt>
<trkpt lat="47.24425457417964935302734375" lon="7.1507962234318256378173828125"><ele></ele><time>2019-11-18T13:41:41Z</time></trkpt>
<trkpt lat="47.24433596245944499969482421875" lon="7.15092413127422332763671875"><ele></ele><time>2019-11-18T13:41:44Z</time></trkpt>
<trkpt lat="47.2444465197622776031494140625" lon="7.1511542983353137969970703125"><ele></ele><time>2019-11-18T13:41:47Z</time></trkpt>
<trkpt lat="47.24449337460100650787353515625" lon="7.15149250812828540802001953125"><ele></ele><time>2019-11-18T13:41:50Z</time></trkpt>
<trkpt lat="47.24459194578230381011962890625" lon="7.1523006074130535125732421875"><ele></ele><time>2019-11-18T13:41:53Z</time></trkpt>
<trkpt lat="47.2449977137148380279541015625" lon="7.1524880267679691314697265625"><ele></ele><time>2019-11-18T13:41:56Z</time></trkpt>
<trkpt lat="47.24502881057560443878173828125" lon="7.1524977497756481170654296875"><ele></ele><time>2019-11-18T13:41:59Z</time></trkpt>
<trkpt lat="47.24505932070314884185791015625" lon="7.15251191519200801849365234375"><ele></ele><time>2019-11-18T13:42:2Z</time></trkpt>
<trkpt lat="47.24520918913185596466064453125" lon="7.15272632427513599395751953125"><ele></ele><time>2019-11-18T13:42:5Z</time></trkpt>
<trkpt lat="47.24522628821432590484619140625" lon="7.15281383134424686431884765625"><ele></ele><time>2019-11-18T13:42:8Z</time></trkpt>
<trkpt lat="47.24522821605205535888671875" lon="7.15280913747847080230712890625"><ele></ele><time>2019-11-18T13:42:11Z</time></trkpt>
<trkpt lat="47.24522276781499385833740234375" lon="7.1528075449168682098388671875"><ele></ele><time>2019-11-18T13:42:14Z</time></trkpt>
<trkpt lat="47.24522260017693042755126953125" lon="7.152805365622043609619140625"><ele></ele><time>2019-11-18T13:42:17Z</time></trkpt>
<trkpt lat="47.24522260017693042755126953125" lon="7.152805365622043609619140625"><ele></ele><time>2019-11-18T13:42:20Z</time></trkpt>
<trkpt lat="47.24522260017693042755126953125" lon="7.152805365622043609619140625"><ele></ele><time>2019-11-18T13:42:23Z</time></trkpt>
<trkpt lat="47.2452267073094844818115234375" lon="7.1528224647045135498046875"><ele></ele><time>2019-11-18T13:42:26Z</time></trkpt>
<trkpt lat="47.24523492157459259033203125" lon="7.1528501249849796295166015625"><ele></ele><time>2019-11-18T13:42:29Z</time></trkpt>
<trkpt lat="47.24533257074654102325439453125" lon="7.15338447131216526031494140625"><ele></ele><time>2019-11-18T13:42:32Z</time></trkpt>
<trkpt lat="47.24536375142633914947509765625" lon="7.1535421349108219146728515625"><ele></ele><time>2019-11-18T13:42:35Z</time></trkpt>
<trkpt lat="47.245499454438686370849609375" lon="7.15429491363465785980224609375"><ele></ele><time>2019-11-18T13:42:38Z</time></trkpt>
<trkpt lat="47.24557732231914997100830078125" lon="7.1547603607177734375"><ele></ele><time>2019-11-18T13:42:41Z</time></trkpt>
<trkpt lat="47.24572098813951015472412109375" lon="7.1551989018917083740234375"><ele></ele><time>2019-11-18T13:42:44Z</time></trkpt>
<trkpt lat="47.24596716463565826416015625" lon="7.15596609748899936676025390625"><ele></ele><time>2019-11-18T13:42:47Z</time></trkpt>
<trkpt lat="47.24602625705301761627197265625" lon="7.15618033893406391143798828125"><ele></ele><time>2019-11-18T13:42:50Z</time></trkpt>
<trkpt lat="47.24618568085134029388427734375" lon="7.1569264121353626251220703125"><ele></ele><time>2019-11-18T13:42:53Z</time></trkpt>
<trkpt lat="47.246177382767200469970703125" lon="7.1571979857981204986572265625"><ele></ele><time>2019-11-18T13:42:56Z</time></trkpt>
<trkpt lat="47.24612717516720294952392578125" lon="7.15746662579476833343505859375"><ele></ele><time>2019-11-18T13:42:59Z</time></trkpt>
<trkpt lat="47.2460498102009296417236328125" lon="7.15772830881178379058837890625"><ele></ele><time>2019-11-18T13:43:2Z</time></trkpt>
<trkpt lat="47.24599725566804409027099609375" lon="7.1579937636852264404296875"><ele></ele><time>2019-11-18T13:43:5Z</time></trkpt>
<trkpt lat="47.24599943496286869049072265625" lon="7.15826860629022121429443359375"><ele></ele><time>2019-11-18T13:43:8Z</time></trkpt>
<trkpt lat="47.24605274386703968048095703125" lon="7.15852710418403148651123046875"><ele></ele><time>2019-11-18T13:43:11Z</time></trkpt>
<trkpt lat="47.246165312826633453369140625" lon="7.15877152048051357269287109375"><ele></ele><time>2019-11-18T13:43:14Z</time></trkpt>
<trkpt lat="47.24634007550776004791259765625" lon="7.15918323956429958343505859375"><ele></ele><time>2019-11-18T13:43:17Z</time></trkpt>
<trkpt lat="47.2465523891150951385498046875" lon="7.15972521342337131500244140625"><ele></ele><time>2019-11-18T13:43:20Z</time></trkpt>
<trkpt lat="47.2466020099818706512451171875" lon="7.1598459966480731964111328125"><ele></ele><time>2019-11-18T13:43:23Z</time></trkpt>
<trkpt lat="47.246687673032283782958984375" lon="7.16007205657660961151123046875"><ele></ele><time>2019-11-18T13:43:26Z</time></trkpt>
<trkpt lat="47.24682589061558246612548828125" lon="7.1604632399976253509521484375"><ele></ele><time>2019-11-18T13:43:29Z</time></trkpt>
<trkpt lat="47.24685690365731716156005859375" lon="7.16054546646773815155029296875"><ele></ele><time>2019-11-18T13:43:32Z</time></trkpt>
<trkpt lat="47.2468947060406208038330078125" lon="7.16068427078425884246826171875"><ele></ele><time>2019-11-18T13:43:35Z</time></trkpt>
<trkpt lat="47.24685941822826862335205078125" lon="7.160780914127826690673828125"><ele></ele><time>2019-11-18T13:43:38Z</time></trkpt>
<trkpt lat="47.24685941822826862335205078125" lon="7.160780914127826690673828125"><ele></ele><time>2019-11-18T13:43:41Z</time></trkpt>
<trkpt lat="47.24682069383561611175537109375" lon="7.16080564074218273162841796875"><ele></ele><time>2019-11-18T13:43:44Z</time></trkpt>
<trkpt lat="47.24661466665565967559814453125" lon="7.16083045117557048797607421875"><ele></ele><time>2019-11-18T13:43:47Z</time></trkpt>
<trkpt lat="47.246503271162509918212890625" lon="7.16083598323166370391845703125"><ele></ele><time>2019-11-18T13:43:50Z</time></trkpt>
<trkpt lat="47.2464474476873874664306640625" lon="7.16082818806171417236328125"><ele></ele><time>2019-11-18T13:43:53Z</time></trkpt>
<trkpt lat="47.24621820263564586639404296875" lon="7.16076021082699298858642578125"><ele></ele><time>2019-11-18T13:43:56Z</time></trkpt>
<trkpt lat="47.2460296936333179473876953125" lon="7.16066323220729827880859375"><ele></ele><time>2019-11-18T13:43:59Z</time></trkpt>
<trkpt lat="47.245824672281742095947265625" lon="7.16054764576256275177001953125"><ele></ele><time>2019-11-18T13:44:2Z</time></trkpt>
<trkpt lat="47.24570992402732372283935546875" lon="7.16040330938994884490966796875"><ele></ele><time>2019-11-18T13:44:5Z</time></trkpt>
<trkpt lat="47.24550574086606502532958984375" lon="7.1600709669291973114013671875"><ele></ele><time>2019-11-18T13:44:8Z</time></trkpt>
<trkpt lat="47.24538152106106281280517578125" lon="7.1599274687469005584716796875"><ele></ele><time>2019-11-18T13:44:11Z</time></trkpt>
<trkpt lat="47.2452434711158275604248046875" lon="7.15979126282036304473876953125"><ele></ele><time>2019-11-18T13:44:14Z</time></trkpt>
<trkpt lat="47.24502378143370151519775390625" lon="7.15960183180868625640869140625"><ele></ele><time>2019-11-18T13:44:17Z</time></trkpt>
<trkpt lat="47.2448575682938098907470703125" lon="7.159515582025051116943359375"><ele></ele><time>2019-11-18T13:44:20Z</time></trkpt>
<trkpt lat="47.244521118700504302978515625" lon="7.15935037471354007720947265625"><ele></ele><time>2019-11-18T13:44:23Z</time></trkpt>
<trkpt lat="47.24415801465511322021484375" lon="7.1592357940971851348876953125"><ele></ele><time>2019-11-18T13:44:26Z</time></trkpt>
<trkpt lat="47.24407377652823925018310546875" lon="7.159338556230068206787109375"><ele></ele><time>2019-11-18T13:44:29Z</time></trkpt>
<trkpt lat="47.24372827447950839996337890625" lon="7.1600743196904659271240234375"><ele></ele><time>2019-11-18T13:44:32Z</time></trkpt>
<trkpt lat="47.24366842769086360931396484375" lon="7.1601668559014797210693359375"><ele></ele><time>2019-11-18T13:44:35Z</time></trkpt>
<trkpt lat="47.243524007499217987060546875" lon="7.16026685200631618499755859375"><ele></ele><time>2019-11-18T13:44:38Z</time></trkpt>
<trkpt lat="47.24295848049223423004150390625" lon="7.16036056168377399444580078125"><ele></ele><time>2019-11-18T13:44:41Z</time></trkpt>
<trkpt lat="47.24240007810294628143310546875" lon="7.1605654992163181304931640625"><ele></ele><time>2019-11-18T13:44:44Z</time></trkpt>
<trkpt lat="47.24210637621581554412841796875" lon="7.16069717891514301300048828125"><ele></ele><time>2019-11-18T13:44:47Z</time></trkpt>
<trkpt lat="47.2420036979019641876220703125" lon="7.1607564389705657958984375"><ele></ele><time>2019-11-18T13:44:50Z</time></trkpt>
<trkpt lat="47.2419285960495471954345703125" lon="7.160868756473064422607421875"><ele></ele><time>2019-11-18T13:44:53Z</time></trkpt>
<trkpt lat="47.24189816974103450775146484375" lon="7.16102625243365764617919921875"><ele></ele><time>2019-11-18T13:44:56Z</time></trkpt>
<trkpt lat="47.241843603551387786865234375" lon="7.161797471344470977783203125"><ele></ele><time>2019-11-18T13:44:59Z</time></trkpt>
<trkpt lat="47.24182692356407642364501953125" lon="7.162014059722423553466796875"><ele></ele><time>2019-11-18T13:45:2Z</time></trkpt>
<trkpt lat="47.24181870929896831512451171875" lon="7.16208186931908130645751953125"><ele></ele><time>2019-11-18T13:45:5Z</time></trkpt>
<trkpt lat="47.2418122552335262298583984375" lon="7.16215009801089763641357421875"><ele></ele><time>2019-11-18T13:45:8Z</time></trkpt>
<trkpt lat="47.24179976619780063629150390625" lon="7.16228303499519824981689453125"><ele></ele><time>2019-11-18T13:45:11Z</time></trkpt>
<trkpt lat="47.2417924739420413970947265625" lon="7.162347994744777679443359375"><ele></ele><time>2019-11-18T13:45:14Z</time></trkpt>
<trkpt lat="47.2417234070599079132080078125" lon="7.16319129802286624908447265625"><ele></ele><time>2019-11-18T13:45:17Z</time></trkpt>
<trkpt lat="47.241677306592464447021484375" lon="7.16374064795672893524169921875"><ele></ele><time>2019-11-18T13:45:20Z</time></trkpt>
<trkpt lat="47.24167185835540294647216796875" lon="7.1638052724301815032958984375"><ele></ele><time>2019-11-18T13:45:23Z</time></trkpt>
<trkpt lat="47.24166867323219776153564453125" lon="7.1638709865510463714599609375"><ele></ele><time>2019-11-18T13:45:26Z</time></trkpt>
<trkpt lat="47.2416670806705951690673828125" lon="7.16393762268126010894775390625"><ele></ele><time>2019-11-18T13:45:29Z</time></trkpt>
<trkpt lat="47.24166565574705600738525390625" lon="7.16400501318275928497314453125"><ele></ele><time>2019-11-18T13:45:32Z</time></trkpt>
<trkpt lat="47.24166515283286571502685546875" lon="7.1640744991600513458251953125"><ele></ele><time>2019-11-18T13:45:35Z</time></trkpt>
<trkpt lat="47.2416575253009796142578125" lon="7.1643774211406707763671875"><ele></ele><time>2019-11-18T13:45:38Z</time></trkpt>
<trkpt lat="47.24159038625657558441162109375" lon="7.16523614712059497833251953125"><ele></ele><time>2019-11-18T13:45:41Z</time></trkpt>
<trkpt lat="47.24151159636676311492919921875" lon="7.1661173366010189056396484375"><ele></ele><time>2019-11-18T13:45:44Z</time></trkpt>
<trkpt lat="47.241503298282623291015625" lon="7.166627459228038787841796875"><ele></ele><time>2019-11-18T13:45:47Z</time></trkpt>
<trkpt lat="47.24157630465924739837646484375" lon="7.16714118607342243194580078125"><ele></ele><time>2019-11-18T13:45:50Z</time></trkpt>
<trkpt lat="47.24160748533904552459716796875" lon="7.16727755963802337646484375"><ele></ele><time>2019-11-18T13:45:53Z</time></trkpt>
<trkpt lat="47.2416459582746028900146484375" lon="7.16741695068776607513427734375"><ele></ele><time>2019-11-18T13:45:56Z</time></trkpt>
<trkpt lat="47.2418491356074810028076171875" lon="7.16817098669707775115966796875"><ele></ele><time>2019-11-18T13:45:59Z</time></trkpt>
<trkpt lat="47.241901271045207977294921875" lon="7.168391011655330657958984375"><ele></ele><time>2019-11-18T13:46:2Z</time></trkpt>
<trkpt lat="47.24191895686089992523193359375" lon="7.16843493282794952392578125"><ele></ele><time>2019-11-18T13:46:5Z</time></trkpt>
<trkpt lat="47.2420016862452030181884765625" lon="7.168466784060001373291015625"><ele></ele><time>2019-11-18T13:46:8Z</time></trkpt>
<trkpt lat="47.24205306731164455413818359375" lon="7.168484218418598175048828125"><ele></ele><time>2019-11-18T13:46:11Z</time></trkpt>
<trkpt lat="47.24376515485346317291259765625" lon="7.16980688273906707763671875"><ele></ele><time>2019-11-18T13:46:14Z</time></trkpt>
<trkpt lat="47.24390110932290554046630859375" lon="7.17037207446992397308349609375"><ele></ele><time>2019-11-18T13:46:17Z</time></trkpt>
<trkpt lat="47.24422817118465900421142578125" lon="7.1709996275603771209716796875"><ele></ele><time>2019-11-18T13:46:20Z</time></trkpt>
<trkpt lat="47.24466025829315185546875" lon="7.17160773463547229766845703125"><ele></ele><time>2019-11-18T13:46:23Z</time></trkpt>
<trkpt lat="47.24513324908912181854248046875" lon="7.17220519669353961944580078125"><ele></ele><time>2019-11-18T13:46:26Z</time></trkpt>
<trkpt lat="47.24522947333753108978271484375" lon="7.172328494489192962646484375"><ele></ele><time>2019-11-18T13:46:29Z</time></trkpt>
<trkpt lat="47.24546718411147594451904296875" lon="7.17273996211588382720947265625"><ele></ele><time>2019-11-18T13:46:32Z</time></trkpt>
<trkpt lat="47.24569894373416900634765625" lon="7.1732520125806331634521484375"><ele></ele><time>2019-11-18T13:46:35Z</time></trkpt>
<trkpt lat="47.2457500733435153961181640625" lon="7.1735209040343761444091796875"><ele></ele><time>2019-11-18T13:46:38Z</time></trkpt>
<trkpt lat="47.2458174638450145721435546875" lon="7.17457677237689495086669921875"><ele></ele><time>2019-11-18T13:46:41Z</time></trkpt>
<trkpt lat="47.24606146104633808135986328125" lon="7.17546232044696807861328125"><ele></ele><time>2019-11-18T13:46:44Z</time></trkpt>
<trkpt lat="47.2462521493434906005859375" lon="7.17632926069200038909912109375"><ele></ele><time>2019-11-18T13:46:47Z</time></trkpt>
<trkpt lat="47.246330268681049346923828125" lon="7.17713576741516590118408203125"><ele></ele><time>2019-11-18T13:46:50Z</time></trkpt>
<trkpt lat="47.24636404775083065032958984375" lon="7.17758662998676300048828125"><ele></ele><time>2019-11-18T13:46:53Z</time></trkpt>
<trkpt lat="47.2464759461581707000732421875" lon="7.17772820033133029937744140625"><ele></ele><time>2019-11-18T13:46:56Z</time></trkpt>
<trkpt lat="47.2466167621314525604248046875" lon="7.17779944650828838348388671875"><ele></ele><time>2019-11-18T13:46:59Z</time></trkpt>
<trkpt lat="47.2468008287250995635986328125" lon="7.17770087532699108123779296875"><ele></ele><time>2019-11-18T13:47:2Z</time></trkpt>
<trkpt lat="47.246963270008563995361328125" lon="7.17751764692366123199462890625"><ele></ele><time>2019-11-18T13:47:5Z</time></trkpt>
<trkpt lat="47.24712512455880641937255859375" lon="7.17731798999011516571044921875"><ele></ele><time>2019-11-18T13:47:8Z</time></trkpt>
<trkpt lat="47.2474039904773235321044921875" lon="7.17693619430065155029296875"><ele></ele><time>2019-11-18T13:47:11Z</time></trkpt>
<trkpt lat="47.247602306306362152099609375" lon="7.17686251737177371978759765625"><ele></ele><time>2019-11-18T13:47:14Z</time></trkpt>
<trkpt lat="47.24773532710969448089599609375" lon="7.1769373677670955657958984375"><ele></ele><time>2019-11-18T13:47:17Z</time></trkpt>
<trkpt lat="47.24785284139215946197509765625" lon="7.17707944102585315704345703125"><ele></ele><time>2019-11-18T13:47:20Z</time></trkpt>
<trkpt lat="47.24796599708497524261474609375" lon="7.17720843851566314697265625"><ele></ele><time>2019-11-18T13:47:23Z</time></trkpt>
<trkpt lat="47.2481055557727813720703125" lon="7.1772401221096515655517578125"><ele></ele><time>2019-11-18T13:47:26Z</time></trkpt>
<trkpt lat="47.24824913777410984039306640625" lon="7.1771948598325252532958984375"><ele></ele><time>2019-11-18T13:47:29Z</time></trkpt>
<trkpt lat="47.24832214415073394775390625" lon="7.177163176238536834716796875"><ele></ele><time>2019-11-18T13:47:32Z</time></trkpt>
<trkpt lat="47.24852004088461399078369140625" lon="7.1771050058305263519287109375"><ele></ele><time>2019-11-18T13:47:35Z</time></trkpt>
<trkpt lat="47.24901591427624225616455078125" lon="7.177238278090953826904296875"><ele></ele><time>2019-11-18T13:47:38Z</time></trkpt>
<trkpt lat="47.2491497732698917388916015625" lon="7.177372388541698455810546875"><ele></ele><time>2019-11-18T13:47:41Z</time></trkpt>
<trkpt lat="47.2492285631597042083740234375" lon="7.1775512583553791046142578125"><ele></ele><time>2019-11-18T13:47:44Z</time></trkpt>
<trkpt lat="47.24911850877106189727783203125" lon="7.17775368131697177886962890625"><ele></ele><time>2019-11-18T13:47:47Z</time></trkpt>
<trkpt lat="47.24892832338809967041015625" lon="7.17790522612631320953369140625"><ele></ele><time>2019-11-18T13:47:50Z</time></trkpt>
<trkpt lat="47.24850428290665149688720703125" lon="7.17810655944049358367919921875"><ele></ele><time>2019-11-18T13:47:53Z</time></trkpt>
<trkpt lat="47.24839297123253345489501953125" lon="7.17823706567287445068359375"><ele></ele><time>2019-11-18T13:47:56Z</time></trkpt>
<trkpt lat="47.24832289852201938629150390625" lon="7.17841283418238162994384765625"><ele></ele><time>2019-11-18T13:47:59Z</time></trkpt>
<trkpt lat="47.24830613471567630767822265625" lon="7.1785088069736957550048828125"><ele></ele><time>2019-11-18T13:48:2Z</time></trkpt>
<trkpt lat="47.24829825572669506072998046875" lon="7.17860746197402477264404296875"><ele></ele><time>2019-11-18T13:48:5Z</time></trkpt>
<trkpt lat="47.2483001835644245147705078125" lon="7.1787062846124172210693359375"><ele></ele><time>2019-11-18T13:48:8Z</time></trkpt>
<trkpt lat="47.24829372949898242950439453125" lon="7.1788077056407928466796875"><ele></ele><time>2019-11-18T13:48:11Z</time></trkpt>
<trkpt lat="47.248303033411502838134765625" lon="7.179658971726894378662109375"><ele></ele><time>2019-11-18T13:48:14Z</time></trkpt>
<trkpt lat="47.2482964955270290374755859375" lon="7.18009038828313350677490234375"><ele></ele><time>2019-11-18T13:48:17Z</time></trkpt>
<trkpt lat="47.2483032010495662689208984375" lon="7.1803759597241878509521484375"><ele></ele><time>2019-11-18T13:48:20Z</time></trkpt>
<trkpt lat="47.248369753360748291015625" lon="7.1812190115451812744140625"><ele></ele><time>2019-11-18T13:48:23Z</time></trkpt>
<trkpt lat="47.24843538366258144378662109375" lon="7.1816610731184482574462890625"><ele></ele><time>2019-11-18T13:48:26Z</time></trkpt>
<trkpt lat="47.24852976389229297637939453125" lon="7.1820828504860401153564453125"><ele></ele><time>2019-11-18T13:48:29Z</time></trkpt>
<trkpt lat="47.24861257709562778472900390625" lon="7.1822575293481349945068359375"><ele></ele><time>2019-11-18T13:48:32Z</time></trkpt>
<trkpt lat="47.24883452989161014556884765625" lon="7.18255139887332916259765625"><ele></ele><time>2019-11-18T13:48:35Z</time></trkpt>
<trkpt lat="47.24889571778476238250732421875" lon="7.1827034465968608856201171875"><ele></ele><time>2019-11-18T13:48:38Z</time></trkpt>
<trkpt lat="47.2489338554441928863525390625" lon="7.18285046517848968505859375"><ele></ele><time>2019-11-18T13:48:41Z</time></trkpt>
<trkpt lat="47.2489558160305023193359375" lon="7.18290704302489757537841796875"><ele></ele><time>2019-11-18T13:48:44Z</time></trkpt>
<trkpt lat="47.2490240447223186492919921875" lon="7.18298398889601230621337890625"><ele></ele><time>2019-11-18T13:48:47Z</time></trkpt>
<trkpt lat="47.24920467473566532135009765625" lon="7.1830616891384124755859375"><ele></ele><time>2019-11-18T13:48:50Z</time></trkpt>
<trkpt lat="47.24940986372530460357666015625" lon="7.18315749429166316986083984375"><ele></ele><time>2019-11-18T13:48:53Z</time></trkpt>
<trkpt lat="47.24948513321578502655029296875" lon="7.1831904351711273193359375"><ele></ele><time>2019-11-18T13:48:56Z</time></trkpt>
<trkpt lat="47.2495594806969165802001953125" lon="7.18322387896478176116943359375"><ele></ele><time>2019-11-18T13:48:59Z</time></trkpt>
<trkpt lat="47.249705158174037933349609375" lon="7.1832841448485851287841796875"><ele></ele><time>2019-11-18T13:49:2Z</time></trkpt>
<trkpt lat="47.25009131245315074920654296875" lon="7.18343191780149936676025390625"><ele></ele><time>2019-11-18T13:49:5Z</time></trkpt>
<trkpt lat="47.25041418336331844329833984375" lon="7.18377741985023021697998046875"><ele></ele><time>2019-11-18T13:49:8Z</time></trkpt>
<trkpt lat="47.250072956085205078125" lon="7.18425929546356201171875"><ele></ele><time>2019-11-18T13:49:11Z</time></trkpt>
<trkpt lat="47.24994395859539508819580078125" lon="7.1843781508505344390869140625"><ele></ele><time>2019-11-18T13:49:14Z</time></trkpt>
<trkpt lat="47.24978487007319927215576171875" lon="7.18449524603784084320068359375"><ele></ele><time>2019-11-18T13:49:17Z</time></trkpt>
<trkpt lat="47.2497070021927356719970703125" lon="7.18454788438975811004638671875"><ele></ele><time>2019-11-18T13:49:20Z</time></trkpt>
<trkpt lat="47.24945495836436748504638671875" lon="7.18469808809459209442138671875"><ele></ele><time>2019-11-18T13:49:23Z</time></trkpt>
<trkpt lat="47.2493472509086132049560546875" lon="7.1847529895603656768798828125"><ele></ele><time>2019-11-18T13:49:26Z</time></trkpt>
<trkpt lat="47.2491470910608768463134765625" lon="7.1848260797560214996337890625"><ele></ele><time>2019-11-18T13:49:29Z</time></trkpt>
<trkpt lat="47.24906134419143199920654296875" lon="7.18487326987087726593017578125"><ele></ele><time>2019-11-18T13:49:32Z</time></trkpt>
<trkpt lat="47.24891516380012035369873046875" lon="7.1852572448551654815673828125"><ele></ele><time>2019-11-18T13:49:35Z</time></trkpt>
<trkpt lat="47.24892430007457733154296875" lon="7.1853447519242763519287109375"><ele></ele><time>2019-11-18T13:49:38Z</time></trkpt>
<trkpt lat="47.249000407755374908447265625" lon="7.18614631332457065582275390625"><ele></ele><time>2019-11-18T13:49:41Z</time></trkpt>
<trkpt lat="47.24903468973934650421142578125" lon="7.18656800687313079833984375"><ele></ele><time>2019-11-18T13:49:44Z</time></trkpt>
<trkpt lat="47.249211966991424560546875" lon="7.18696765601634979248046875"><ele></ele><time>2019-11-18T13:49:47Z</time></trkpt>
<trkpt lat="47.24945344962179660797119140625" lon="7.18766612000763416290283203125"><ele></ele><time>2019-11-18T13:49:50Z</time></trkpt>
<trkpt lat="47.2495995461940765380859375" lon="7.1881302259862422943115234375"><ele></ele><time>2019-11-18T13:49:53Z</time></trkpt>
<trkpt lat="47.24985058419406414031982421875" lon="7.18883774243295192718505859375"><ele></ele><time>2019-11-18T13:49:56Z</time></trkpt>
<trkpt lat="47.24991261027753353118896484375" lon="7.18908165581524372100830078125"><ele></ele><time>2019-11-18T13:49:59Z</time></trkpt>
<trkpt lat="47.25010790862143039703369140625" lon="7.1898342669010162353515625"><ele></ele><time>2019-11-18T13:50:2Z</time></trkpt>
<trkpt lat="47.250248305499553680419921875" lon="7.190360985696315765380859375"><ele></ele><time>2019-11-18T13:50:5Z</time></trkpt>
<trkpt lat="47.25029633380472660064697265625" lon="7.19062007032334804534912109375"><ele></ele><time>2019-11-18T13:50:8Z</time></trkpt>
<trkpt lat="47.25032282061874866485595703125" lon="7.19080262817442417144775390625"><ele></ele><time>2019-11-18T13:50:11Z</time></trkpt>
<trkpt lat="47.25032701157033443450927734375" lon="7.19095073640346527099609375"><ele></ele><time>2019-11-18T13:50:14Z</time></trkpt>
<trkpt lat="47.25030429661273956298828125" lon="7.1913713403046131134033203125"><ele></ele><time>2019-11-18T13:50:17Z</time></trkpt>
<trkpt lat="47.25029683671891689300537109375" lon="7.19148810021579265594482421875"><ele></ele><time>2019-11-18T13:50:20Z</time></trkpt>
<trkpt lat="47.25030002184212207794189453125" lon="7.19167518429458141326904296875"><ele></ele><time>2019-11-18T13:50:23Z</time></trkpt>
<trkpt lat="47.25043111480772495269775390625" lon="7.19220156781375408172607421875"><ele></ele><time>2019-11-18T13:50:26Z</time></trkpt>
<trkpt lat="47.2506491281092166900634765625" lon="7.192907072603702545166015625"><ele></ele><time>2019-11-18T13:50:29Z</time></trkpt>
<trkpt lat="47.25063244812190532684326171875" lon="7.19299399293959140777587890625"><ele></ele><time>2019-11-18T13:50:32Z</time></trkpt>
<trkpt lat="47.25064359605312347412109375" lon="7.19305383972823619842529296875"><ele></ele><time>2019-11-18T13:50:35Z</time></trkpt>
<trkpt lat="47.250660359859466552734375" lon="7.1931637264788150787353515625"><ele></ele><time>2019-11-18T13:50:38Z</time></trkpt>
<trkpt lat="47.250642590224742889404296875" lon="7.1931950747966766357421875"><ele></ele><time>2019-11-18T13:50:41Z</time></trkpt>
<trkpt lat="47.25064250640571117401123046875" lon="7.19319482333958148956298828125"><ele></ele><time>2019-11-18T13:50:44Z</time></trkpt>
<trkpt lat="47.25064099766314029693603515625" lon="7.19319281168282032012939453125"><ele></ele><time>2019-11-18T13:50:47Z</time></trkpt>
<trkpt lat="47.25064267404377460479736328125" lon="7.193193733692169189453125"><ele></ele><time>2019-11-18T13:50:50Z</time></trkpt>
<trkpt lat="47.2506414167582988739013671875" lon="7.19319314695894718170166015625"><ele></ele><time>2019-11-18T13:50:53Z</time></trkpt>
<trkpt lat="47.25064133293926715850830078125" lon="7.19319080002605915069580078125"><ele></ele><time>2019-11-18T13:50:56Z</time></trkpt>
<trkpt lat="47.25064367987215518951416015625" lon="7.19320488162338733673095703125"><ele></ele><time>2019-11-18T13:50:59Z</time></trkpt>
<trkpt lat="47.2506380639970302581787109375" lon="7.19320781528949737548828125"><ele></ele><time>2019-11-18T13:51:2Z</time></trkpt>
<trkpt lat="47.2506152652204036712646484375" lon="7.193267159163951873779296875"><ele></ele><time>2019-11-18T13:51:5Z</time></trkpt>
<trkpt lat="47.250598333775997161865234375" lon="7.19331099651753902435302734375"><ele></ele><time>2019-11-18T13:51:8Z</time></trkpt>
<trkpt lat="47.25054929964244365692138671875" lon="7.1934423409402370452880859375"><ele></ele><time>2019-11-18T13:51:11Z</time></trkpt>
<trkpt lat="47.2505133412778377532958984375" lon="7.19356697984039783477783203125"><ele></ele><time>2019-11-18T13:51:14Z</time></trkpt>
<trkpt lat="47.25044888444244861602783203125" lon="7.193723134696483612060546875"><ele></ele><time>2019-11-18T13:51:17Z</time></trkpt>
<trkpt lat="47.2503626346588134765625" lon="7.194077856838703155517578125"><ele></ele><time>2019-11-18T13:51:20Z</time></trkpt>
<trkpt lat="47.2503269277513027191162109375" lon="7.19428606331348419189453125"><ele></ele><time>2019-11-18T13:51:23Z</time></trkpt>
<trkpt lat="47.25030429661273956298828125" lon="7.1946399472653865814208984375"><ele></ele><time>2019-11-18T13:51:26Z</time></trkpt>
<trkpt lat="47.25031879730522632598876953125" lon="7.1946649253368377685546875"><ele></ele><time>2019-11-18T13:51:29Z</time></trkpt>
<trkpt lat="47.25031209178268909454345703125" lon="7.19471178017556667327880859375"><ele></ele><time>2019-11-18T13:51:32Z</time></trkpt>
<trkpt lat="47.25031276233494281768798828125" lon="7.19471077434718608856201171875"><ele></ele><time>2019-11-18T13:51:35Z</time></trkpt>
<trkpt lat="47.2503130137920379638671875" lon="7.19471312128007411956787109375"><ele></ele><time>2019-11-18T13:51:38Z</time></trkpt>
<trkpt lat="47.25031209178268909454345703125" lon="7.1947214193642139434814453125"><ele></ele><time>2019-11-18T13:51:41Z</time></trkpt>
<trkpt lat="47.25030295550823211669921875" lon="7.19475687481462955474853515625"><ele></ele><time>2019-11-18T13:51:44Z</time></trkpt>
<trkpt lat="47.25028778426349163055419921875" lon="7.19487346708774566650390625"><ele></ele><time>2019-11-18T13:51:47Z</time></trkpt>
<trkpt lat="47.25027705542743206024169921875" lon="7.19493507407605648040771484375"><ele></ele><time>2019-11-18T13:51:50Z</time></trkpt>
<trkpt lat="47.2502754628658294677734375" lon="7.19496910460293292999267578125"><ele></ele><time>2019-11-18T13:51:53Z</time></trkpt>
<trkpt lat="47.25027018226683139801025390625" lon="7.19500598497688770294189453125"><ele></ele><time>2019-11-18T13:51:56Z</time></trkpt>
<trkpt lat="47.25027102045714855194091796875" lon="7.19504135660827159881591796875"><ele></ele><time>2019-11-18T13:51:59Z</time></trkpt>
<trkpt lat="47.25027319975197315216064453125" lon="7.1950748004019260406494140625"><ele></ele><time>2019-11-18T13:52:2Z</time></trkpt>
<trkpt lat="47.25027051754295825958251953125" lon="7.19524822197854518890380859375"><ele></ele><time>2019-11-18T13:52:5Z</time></trkpt>
<trkpt lat="47.25026498548686504364013671875" lon="7.19533774070441722869873046875"><ele></ele><time>2019-11-18T13:52:8Z</time></trkpt>
<trkpt lat="47.2502806596457958221435546875" lon="7.1961428225040435791015625"><ele></ele><time>2019-11-18T13:52:11Z</time></trkpt>
<trkpt lat="47.25028526969254016876220703125" lon="7.19652897678315639495849609375"><ele></ele><time>2019-11-18T13:52:14Z</time></trkpt>
<trkpt lat="47.2503084875643253326416015625" lon="7.19672494567930698394775390625"><ele></ele><time>2019-11-18T13:52:17Z</time></trkpt>
<trkpt lat="47.2504037059843540191650390625" lon="7.19719097949564456939697265625"><ele></ele><time>2019-11-18T13:52:20Z</time></trkpt>
<trkpt lat="47.2504898719489574432373046875" lon="7.197461463510990142822265625"><ele></ele><time>2019-11-18T13:52:23Z</time></trkpt>
<trkpt lat="47.25058517418801784515380859375" lon="7.19783789478242397308349609375"><ele></ele><time>2019-11-18T13:52:26Z</time></trkpt>
<trkpt lat="47.25079539231956005096435546875" lon="7.19841306097805500030517578125"><ele></ele><time>2019-11-18T13:52:29Z</time></trkpt>
<trkpt lat="47.2511248849332332611083984375" lon="7.1990451402962207794189453125"><ele></ele><time>2019-11-18T13:52:32Z</time></trkpt>
<trkpt lat="47.251170314848423004150390625" lon="7.19909668900072574615478515625"><ele></ele><time>2019-11-18T13:52:35Z</time></trkpt>
<trkpt lat="47.251170314848423004150390625" lon="7.19909668900072574615478515625"><ele></ele><time>2019-11-18T13:52:38Z</time></trkpt>
<trkpt lat="47.251170314848423004150390625" lon="7.19909668900072574615478515625"><ele></ele><time>2019-11-18T13:52:41Z</time></trkpt>
<trkpt lat="47.251170314848423004150390625" lon="7.19909668900072574615478515625"><ele></ele><time>2019-11-18T13:52:44Z</time></trkpt>
<trkpt lat="47.251170314848423004150390625" lon="7.19909668900072574615478515625"><ele></ele><time>2019-11-18T13:52:47Z</time></trkpt>
<trkpt lat="47.251170314848423004150390625" lon="7.19909668900072574615478515625"><ele></ele><time>2019-11-18T13:52:50Z</time></trkpt>
<trkpt lat="47.251170314848423004150390625" lon="7.19909668900072574615478515625"><ele></ele><time>2019-11-18T13:52:53Z</time></trkpt>
<trkpt lat="47.251170314848423004150390625" lon="7.19909668900072574615478515625"><ele></ele><time>2019-11-18T13:52:56Z</time></trkpt>
<trkpt lat="47.25122337229549884796142578125" lon="7.199161984026432037353515625"><ele></ele><time>2019-11-18T13:52:59Z</time></trkpt>
<trkpt lat="47.25136217661201953887939453125" lon="7.19937597401440143585205078125"><ele></ele><time>2019-11-18T13:53:2Z</time></trkpt>
<trkpt lat="47.25137986242771148681640625" lon="7.199397347867488861083984375"><ele></ele><time>2019-11-18T13:53:5Z</time></trkpt>
<trkpt lat="47.25141800008714199066162109375" lon="7.1994457952678203582763671875"><ele></ele><time>2019-11-18T13:53:8Z</time></trkpt>
<trkpt lat="47.25143627263605594635009765625" lon="7.19947052188217639923095703125"><ele></ele><time>2019-11-18T13:53:11Z</time></trkpt>
<trkpt lat="47.2514769248664379119873046875" lon="7.1995239146053791046142578125"><ele></ele><time>2019-11-18T13:53:14Z</time></trkpt>
<trkpt lat="47.25150081329047679901123046875" lon="7.1995487250387668609619140625"><ele></ele><time>2019-11-18T13:53:17Z</time></trkpt>
<trkpt lat="47.2515228576958179473876953125" lon="7.19956875778734683990478515625"><ele></ele><time>2019-11-18T13:53:20Z</time></trkpt>
<trkpt lat="47.251581363379955291748046875" lon="7.1996308676898479461669921875"><ele></ele><time>2019-11-18T13:53:23Z</time></trkpt>
<trkpt lat="47.251628972589969635009765625" lon="7.19966330565512180328369140625"><ele></ele><time>2019-11-18T13:53:26Z</time></trkpt>
<trkpt lat="47.25166610442101955413818359375" lon="7.19970521517097949981689453125"><ele></ele><time>2019-11-18T13:53:29Z</time></trkpt>
<trkpt lat="47.25173383019864559173583984375" lon="7.199768833816051483154296875"><ele></ele><time>2019-11-18T13:53:32Z</time></trkpt>
<trkpt lat="47.25180222652852535247802734375" lon="7.19981602393090724945068359375"><ele></ele><time>2019-11-18T13:53:35Z</time></trkpt>
<trkpt lat="47.2520271129906177520751953125" lon="7.20001685433089733123779296875"><ele></ele><time>2019-11-18T13:53:38Z</time></trkpt>
<trkpt lat="47.2522229142487049102783203125" lon="7.20016135834157466888427734375"><ele></ele><time>2019-11-18T13:53:41Z</time></trkpt>
<trkpt lat="47.252360545098781585693359375" lon="7.20025775022804737091064453125"><ele></ele><time>2019-11-18T13:53:44Z</time></trkpt>
<trkpt lat="47.25242651067674160003662109375" lon="7.20038004219532012939453125"><ele></ele><time>2019-11-18T13:53:47Z</time></trkpt>
<trkpt lat="47.252441346645355224609375" lon="7.200404517352581024169921875"><ele></ele><time>2019-11-18T13:53:50Z</time></trkpt>
<trkpt lat="47.25245635025203227996826171875" lon="7.20043041743338108062744140625"><ele></ele><time>2019-11-18T13:53:53Z</time></trkpt>
<trkpt lat="47.25251100026071071624755859375" lon="7.200529240071773529052734375"><ele></ele><time>2019-11-18T13:53:56Z</time></trkpt>
<trkpt lat="47.25259087979793548583984375" lon="7.200723700225353240966796875"><ele></ele><time>2019-11-18T13:53:59Z</time></trkpt>
<trkpt lat="47.25264678709208965301513671875" lon="7.20088555477559566497802734375"><ele></ele><time>2019-11-18T13:54:2Z</time></trkpt>
<trkpt lat="47.25280352868139743804931640625" lon="7.201319821178913116455078125"><ele></ele><time>2019-11-18T13:54:5Z</time></trkpt>
<trkpt lat="47.2528423368930816650390625" lon="7.20145703293383121490478515625"><ele></ele><time>2019-11-18T13:54:8Z</time></trkpt>
<trkpt lat="47.25289790891110897064208984375" lon="7.20166884362697601318359375"><ele></ele><time>2019-11-18T13:54:11Z</time></trkpt>
<trkpt lat="47.25313260219991207122802734375" lon="7.20238289795815944671630859375"><ele></ele><time>2019-11-18T13:54:14Z</time></trkpt>
<trkpt lat="47.25342898629605770111083984375" lon="7.2030255384743213653564453125"><ele></ele><time>2019-11-18T13:54:17Z</time></trkpt>
<trkpt lat="47.25352085195481777191162109375" lon="7.203285209834575653076171875"><ele></ele><time>2019-11-18T13:54:20Z</time></trkpt>
<trkpt lat="47.25363283418118953704833984375" lon="7.20354504883289337158203125"><ele></ele><time>2019-11-18T13:54:23Z</time></trkpt>
<trkpt lat="47.2537866421043872833251953125" lon="7.20436639152467250823974609375"><ele></ele><time>2019-11-18T13:54:26Z</time></trkpt>
<trkpt lat="47.253805585205554962158203125" lon="7.20449614338576793670654296875"><ele></ele><time>2019-11-18T13:54:29Z</time></trkpt>
<trkpt lat="47.25399157963693141937255859375" lon="7.20528404228389263153076171875"><ele></ele><time>2019-11-18T13:54:32Z</time></trkpt>
<trkpt lat="47.2540669329464435577392578125" lon="7.20553935505449771881103515625"><ele></ele><time>2019-11-18T13:54:35Z</time></trkpt>
<trkpt lat="47.25416692905128002166748046875" lon="7.2058267705142498016357421875"><ele></ele><time>2019-11-18T13:54:38Z</time></trkpt>
<trkpt lat="47.25422794930636882781982421875" lon="7.2059461288154125213623046875"><ele></ele><time>2019-11-18T13:54:41Z</time></trkpt>
<trkpt lat="47.25447890348732471466064453125" lon="7.20665649510920047760009765625"><ele></ele><time>2019-11-18T13:54:44Z</time></trkpt>
<trkpt lat="47.25449793040752410888671875" lon="7.206692285835742950439453125"><ele></ele><time>2019-11-18T13:54:47Z</time></trkpt>
<trkpt lat="47.25454227067530155181884765625" lon="7.20680317841470241546630859375"><ele></ele><time>2019-11-18T13:54:50Z</time></trkpt>
<trkpt lat="47.25457395426928997039794921875" lon="7.20697249285876750946044921875"><ele></ele><time>2019-11-18T13:54:53Z</time></trkpt>
<trkpt lat="47.25459272973239421844482421875" lon="7.20701046288013458251953125"><ele></ele><time>2019-11-18T13:54:56Z</time></trkpt>
<trkpt lat="47.25460530258715152740478515625" lon="7.20702446065843105316162109375"><ele></ele><time>2019-11-18T13:54:59Z</time></trkpt>
<trkpt lat="47.254625000059604644775390625" lon="7.20706871710717678070068359375"><ele></ele><time>2019-11-18T13:55:2Z</time></trkpt>
<trkpt lat="47.2546395845711231231689453125" lon="7.207097969949245452880859375"><ele></ele><time>2019-11-18T13:55:5Z</time></trkpt>
<trkpt lat="47.2547314502298831939697265625" lon="7.20721472986042499542236328125"><ele></ele><time>2019-11-18T13:55:8Z</time></trkpt>
<trkpt lat="47.25476204417645931243896484375" lon="7.20724557526409626007080078125"><ele></ele><time>2019-11-18T13:55:11Z</time></trkpt>
<trkpt lat="47.25477931089699268341064453125" lon="7.2072624228894710540771484375"><ele></ele><time>2019-11-18T13:55:14Z</time></trkpt>
<trkpt lat="47.25479590706527233123779296875" lon="7.20731363631784915924072265625"><ele></ele><time>2019-11-18T13:55:17Z</time></trkpt>
<trkpt lat="47.2548256628215312957763671875" lon="7.207328639924526214599609375"><ele></ele><time>2019-11-18T13:55:20Z</time></trkpt>
<trkpt lat="47.25484234280884265899658203125" lon="7.2073402069509029388427734375"><ele></ele><time>2019-11-18T13:55:23Z</time></trkpt>
<trkpt lat="47.2548578493297100067138671875" lon="7.20737029798328876495361328125"><ele></ele><time>2019-11-18T13:55:26Z</time></trkpt>
<trkpt lat="47.25484536029398441314697265625" lon="7.20742360688745975494384765625"><ele></ele><time>2019-11-18T13:55:29Z</time></trkpt>
<trkpt lat="47.25485424511134624481201171875" lon="7.207429222762584686279296875"><ele></ele><time>2019-11-18T13:55:32Z</time></trkpt>
<trkpt lat="47.2548625431954860687255859375" lon="7.20743215642869472503662109375"><ele></ele><time>2019-11-18T13:55:35Z</time></trkpt>
<trkpt lat="47.25487352348864078521728515625" lon="7.20743425190448760986328125"><ele></ele><time>2019-11-18T13:55:38Z</time></trkpt>
<trkpt lat="47.25489296950399875640869140625" lon="7.2074354253709316253662109375"><ele></ele><time>2019-11-18T13:55:41Z</time></trkpt>
<trkpt lat="47.2549021057784557342529296875" lon="7.20744858495891094207763671875"><ele></ele><time>2019-11-18T13:55:44Z</time></trkpt>
<trkpt lat="47.2549103200435638427734375" lon="7.207458056509494781494140625"><ele></ele><time>2019-11-18T13:55:47Z</time></trkpt>
<trkpt lat="47.25491979159414768218994140625" lon="7.20746903680264949798583984375"><ele></ele><time>2019-11-18T13:55:50Z</time></trkpt>
<trkpt lat="47.2549285925924777984619140625" lon="7.207480184733867645263671875"><ele></ele><time>2019-11-18T13:55:53Z</time></trkpt>
<trkpt lat="47.25500511936843395233154296875" lon="7.20757967792451381683349609375"><ele></ele><time>2019-11-18T13:55:56Z</time></trkpt>
<trkpt lat="47.25501425564289093017578125" lon="7.207586802542209625244140625"><ele></ele><time>2019-11-18T13:55:59Z</time></trkpt>
<trkpt lat="47.2550712525844573974609375" lon="7.2076017223298549652099609375"><ele></ele><time>2019-11-18T13:56:2Z</time></trkpt>
<trkpt lat="47.25510888732969760894775390625" lon="7.20763265155255794525146484375"><ele></ele><time>2019-11-18T13:56:5Z</time></trkpt>
<trkpt lat="47.25512263365089893341064453125" lon="7.207679338753223419189453125"><ele></ele><time>2019-11-18T13:56:8Z</time></trkpt>
<trkpt lat="47.25513495504856109619140625" lon="7.20772669650614261627197265625"><ele></ele><time>2019-11-18T13:56:11Z</time></trkpt>
<trkpt lat="47.2551401518285274505615234375" lon="7.2077878005802631378173828125"><ele></ele><time>2019-11-18T13:56:14Z</time></trkpt>
<trkpt lat="47.2551190294325351715087890625" lon="7.20782392658293247222900390625"><ele></ele><time>2019-11-18T13:56:17Z</time></trkpt>
<trkpt lat="47.25512422621250152587890625" lon="7.20783926546573638916015625"><ele></ele><time>2019-11-18T13:56:20Z</time></trkpt>
<trkpt lat="47.25513386540114879608154296875" lon="7.20785594545304775238037109375"><ele></ele><time>2019-11-18T13:56:23Z</time></trkpt>
<trkpt lat="47.25514392368495464324951171875" lon="7.20787472091615200042724609375"><ele></ele><time>2019-11-18T13:56:26Z</time></trkpt>
<trkpt lat="47.2551716677844524383544921875" lon="7.20792048610746860504150390625"><ele></ele><time>2019-11-18T13:56:29Z</time></trkpt>
<trkpt lat="47.2551917843520641326904296875" lon="7.2079440392553806304931640625"><ele></ele><time>2019-11-18T13:56:32Z</time></trkpt>
<trkpt lat="47.25520326755940914154052734375" lon="7.2079742141067981719970703125"><ele></ele><time>2019-11-18T13:56:35Z</time></trkpt>
<trkpt lat="47.255219779908657073974609375" lon="7.20799894072115421295166015625"><ele></ele><time>2019-11-18T13:56:38Z</time></trkpt>
<trkpt lat="47.25522338412702083587646484375" lon="7.2080090828239917755126953125"><ele></ele><time>2019-11-18T13:56:41Z</time></trkpt>
<trkpt lat="47.2552380524575710296630859375" lon="7.20803833566606044769287109375"><ele></ele><time>2019-11-18T13:56:44Z</time></trkpt>
<trkpt lat="47.2553959675133228302001953125" lon="7.2082642279565334320068359375"><ele></ele><time>2019-11-18T13:56:47Z</time></trkpt>
<trkpt lat="47.25545355118811130523681640625" lon="7.2083564288914203643798828125"><ele></ele><time>2019-11-18T13:56:50Z</time></trkpt>
<trkpt lat="47.2555766813457012176513671875" lon="7.2086043655872344970703125"><ele></ele><time>2019-11-18T13:56:53Z</time></trkpt>
<trkpt lat="47.255724370479583740234375" lon="7.2087896056473255157470703125"><ele></ele><time>2019-11-18T13:56:56Z</time></trkpt>
<trkpt lat="47.25573719479143619537353515625" lon="7.20881693065166473388671875"><ele></ele><time>2019-11-18T13:56:59Z</time></trkpt>
<trkpt lat="47.2558744065463542938232421875" lon="7.20899797976016998291015625"><ele></ele><time>2019-11-18T13:57:2Z</time></trkpt>
<trkpt lat="47.256080769002437591552734375" lon="7.209267206490039825439453125"><ele></ele><time>2019-11-18T13:57:5Z</time></trkpt>
<trkpt lat="47.25612712092697620391845703125" lon="7.20936435274779796600341796875"><ele></ele><time>2019-11-18T13:57:8Z</time></trkpt>
<trkpt lat="47.25616165436804294586181640625" lon="7.20951925031840801239013671875"><ele></ele><time>2019-11-18T13:57:11Z</time></trkpt>
<trkpt lat="47.256224267184734344482421875" lon="7.2097109444439411163330078125"><ele></ele><time>2019-11-18T13:57:14Z</time></trkpt>
<trkpt lat="47.25629928521811962127685546875" lon="7.20984128303825855255126953125"><ele></ele><time>2019-11-18T13:57:17Z</time></trkpt>
<trkpt lat="47.256457619369029998779296875" lon="7.209967933595180511474609375"><ele></ele><time>2019-11-18T13:57:20Z</time></trkpt>
<trkpt lat="47.25649290718138217926025390625" lon="7.20999307930469512939453125"><ele></ele><time>2019-11-18T13:57:23Z</time></trkpt>
<trkpt lat="47.25653448142111301422119140625" lon="7.20999785698950290679931640625"><ele></ele><time>2019-11-18T13:57:26Z</time></trkpt>
<trkpt lat="47.2565774805843830108642578125" lon="7.209989391267299652099609375"><ele></ele><time>2019-11-18T13:57:29Z</time></trkpt>
<trkpt lat="47.256591729819774627685546875" lon="7.2099883854389190673828125"><ele></ele><time>2019-11-18T13:57:32Z</time></trkpt>
<trkpt lat="47.25661478005349636077880859375" lon="7.210001461207866668701171875"><ele></ele><time>2019-11-18T13:57:35Z</time></trkpt>
<trkpt lat="47.25661478005349636077880859375" lon="7.210001461207866668701171875"><ele></ele><time>2019-11-18T13:57:38Z</time></trkpt>
<trkpt lat="47.25666356272995471954345703125" lon="7.210019566118717193603515625"><ele></ele><time>2019-11-18T13:57:41Z</time></trkpt>
<trkpt lat="47.25667655467987060546875" lon="7.21001512371003627777099609375"><ele></ele><time>2019-11-18T13:57:44Z</time></trkpt>
<trkpt lat="47.2567025385797023773193359375" lon="7.21000741235911846160888671875"><ele></ele><time>2019-11-18T13:57:47Z</time></trkpt>
<trkpt lat="47.25674285553395748138427734375" lon="7.209986038506031036376953125"><ele></ele><time>2019-11-18T13:57:50Z</time></trkpt>
<trkpt lat="47.2567555122077465057373046875" lon="7.2099815122783184051513671875"><ele></ele><time>2019-11-18T13:57:53Z</time></trkpt>
<trkpt lat="47.25676305592060089111328125" lon="7.2099781595170497894287109375"><ele></ele><time>2019-11-18T13:57:56Z</time></trkpt>
<trkpt lat="47.256770767271518707275390625" lon="7.209981344640254974365234375"><ele></ele><time>2019-11-18T13:57:59Z</time></trkpt>
<trkpt lat="47.25683438591659069061279296875" lon="7.20998327247798442840576171875"><ele></ele><time>2019-11-18T13:58:2Z</time></trkpt>
<trkpt lat="47.25686154328286647796630859375" lon="7.209971956908702850341796875"><ele></ele><time>2019-11-18T13:58:5Z</time></trkpt>
<trkpt lat="47.2568763792514801025390625" lon="7.20996332354843616485595703125"><ele></ele><time>2019-11-18T13:58:8Z</time></trkpt>
<trkpt lat="47.25689272396266460418701171875" lon="7.20995075069367885589599609375"><ele></ele><time>2019-11-18T13:58:11Z</time></trkpt>
<trkpt lat="47.2569077275693416595458984375" lon="7.20993700437247753143310546875"><ele></ele><time>2019-11-18T13:58:14Z</time></trkpt>
<trkpt lat="47.2569224797189235687255859375" lon="7.20992309041321277618408203125"><ele></ele><time>2019-11-18T13:58:17Z</time></trkpt>
<trkpt lat="47.25693429820239543914794921875" lon="7.209906242787837982177734375"><ele></ele><time>2019-11-18T13:58:20Z</time></trkpt>
<trkpt lat="47.2569593600928783416748046875" lon="7.20987514592707157135009765625"><ele></ele><time>2019-11-18T13:58:23Z</time></trkpt>
<trkpt lat="47.2570012696087360382080078125" lon="7.20984949730336666107177734375"><ele></ele><time>2019-11-18T13:58:26Z</time></trkpt>
<trkpt lat="47.25714300759136676788330078125" lon="7.20983608625829219818115234375"><ele></ele><time>2019-11-18T13:58:29Z</time></trkpt>
<trkpt lat="47.25739195011556148529052734375" lon="7.21007027663290500640869140625"><ele></ele><time>2019-11-18T13:58:32Z</time></trkpt>
<trkpt lat="47.2575306706130504608154296875" lon="7.2103110887110233306884765625"><ele></ele><time>2019-11-18T13:58:35Z</time></trkpt>
<trkpt lat="47.2576543875038623809814453125" lon="7.21053111366927623748779296875"><ele></ele><time>2019-11-18T13:58:38Z</time></trkpt>
<trkpt lat="47.25771213881671428680419921875" lon="7.210643850266933441162109375"><ele></ele><time>2019-11-18T13:58:41Z</time></trkpt>
<trkpt lat="47.2577918507158756256103515625" lon="7.2108388133347034454345703125"><ele></ele><time>2019-11-18T13:58:44Z</time></trkpt>
<trkpt lat="47.25794850848615169525146484375" lon="7.211646996438503265380859375"><ele></ele><time>2019-11-18T13:58:47Z</time></trkpt>
<trkpt lat="47.2581187449395656585693359375" lon="7.21241653896868228912353515625"><ele></ele><time>2019-11-18T13:58:50Z</time></trkpt>
<trkpt lat="47.258197031915187835693359375" lon="7.21321885474026203155517578125"><ele></ele><time>2019-11-18T13:58:53Z</time></trkpt>
<trkpt lat="47.2582837007939815521240234375" lon="7.2138824500143527984619140625"><ele></ele><time>2019-11-18T13:58:56Z</time></trkpt>
<trkpt lat="47.2583569586277008056640625" lon="7.2141449712216854095458984375"><ele></ele><time>2019-11-18T13:58:59Z</time></trkpt>
<trkpt lat="47.25863666273653507232666015625" lon="7.21459734253585338592529296875"><ele></ele><time>2019-11-18T13:59:2Z</time></trkpt>
<trkpt lat="47.258747555315494537353515625" lon="7.21466674469411373138427734375"><ele></ele><time>2019-11-18T13:59:5Z</time></trkpt>
<trkpt lat="47.2589711844921112060546875" lon="7.21476397477090358734130859375"><ele></ele><time>2019-11-18T13:59:8Z</time></trkpt>
<trkpt lat="47.2590246610343456268310546875" lon="7.21486271359026432037353515625"><ele></ele><time>2019-11-18T13:59:11Z</time></trkpt>
<trkpt lat="47.259030528366565704345703125" lon="7.21499565057456493377685546875"><ele></ele><time>2019-11-18T13:59:14Z</time></trkpt>
<trkpt lat="47.25899457000195980072021484375" lon="7.21558942459523677825927734375"><ele></ele><time>2019-11-18T13:59:17Z</time></trkpt>
<trkpt lat="47.25893606431782245635986328125" lon="7.2160689532756805419921875"><ele></ele><time>2019-11-18T13:59:20Z</time></trkpt>
<trkpt lat="47.25890287198126316070556640625" lon="7.21682868897914886474609375"><ele></ele><time>2019-11-18T13:59:23Z</time></trkpt>
<trkpt lat="47.258895747363567352294921875" lon="7.2176999039947986602783203125"><ele></ele><time>2019-11-18T13:59:26Z</time></trkpt>
<trkpt lat="47.258820645511150360107421875" lon="7.218495346605777740478515625"><ele></ele><time>2019-11-18T13:59:29Z</time></trkpt>
<trkpt lat="47.25880698300898075103759765625" lon="7.21876147203147411346435546875"><ele></ele><time>2019-11-18T13:59:32Z</time></trkpt>
<trkpt lat="47.258824668824672698974609375" lon="7.21878267824649810791015625"><ele></ele><time>2019-11-18T13:59:35Z</time></trkpt>
<trkpt lat="47.25884738378226757049560546875" lon="7.21877136267721652984619140625"><ele></ele><time>2019-11-18T13:59:38Z</time></trkpt>
<trkpt lat="47.25884738378226757049560546875" lon="7.21877136267721652984619140625"><ele></ele><time>2019-11-18T13:59:41Z</time></trkpt>
<trkpt lat="47.25883640348911285400390625" lon="7.2188069857656955718994140625"><ele></ele><time>2019-11-18T13:59:44Z</time></trkpt>
<trkpt lat="47.2587343119084835052490234375" lon="7.21937142312526702880859375"><ele></ele><time>2019-11-18T13:59:47Z</time></trkpt>
<trkpt lat="47.2586236707866191864013671875" lon="7.21990375779569149017333984375"><ele></ele><time>2019-11-18T13:59:50Z</time></trkpt>
<trkpt lat="47.2586266882717609405517578125" lon="7.22013208083808422088623046875"><ele></ele><time>2019-11-18T13:59:53Z</time></trkpt>
<trkpt lat="47.25868443958461284637451171875" lon="7.22033039666712284088134765625"><ele></ele><time>2019-11-18T13:59:56Z</time></trkpt>
<trkpt lat="47.25876322947442531585693359375" lon="7.22049652598798274993896484375"><ele></ele><time>2019-11-18T13:59:59Z</time></trkpt>
<trkpt lat="47.25880564190447330474853515625" lon="7.2206640802323818206787109375"><ele></ele><time>2019-11-18T14:0:2Z</time></trkpt>
<trkpt lat="47.258851490914821624755859375" lon="7.22120697610080242156982421875"><ele></ele><time>2019-11-18T14:0:5Z</time></trkpt>
<trkpt lat="47.25885878317058086395263671875" lon="7.2214130870997905731201171875"><ele></ele><time>2019-11-18T14:0:8Z</time></trkpt>
<trkpt lat="47.2588747926056385040283203125" lon="7.22152364440262317657470703125"><ele></ele><time>2019-11-18T14:0:11Z</time></trkpt>
<trkpt lat="47.2588982619345188140869140625" lon="7.2216357104480266571044921875"><ele></ele><time>2019-11-18T14:0:14Z</time></trkpt>
<trkpt lat="47.25892801769077777862548828125" lon="7.2218566574156284332275390625"><ele></ele><time>2019-11-18T14:0:17Z</time></trkpt>
<trkpt lat="47.25893069989979267120361328125" lon="7.22206025384366512298583984375"><ele></ele><time>2019-11-18T14:0:20Z</time></trkpt>
<trkpt lat="47.25891284644603729248046875" lon="7.222247086465358734130859375"><ele></ele><time>2019-11-18T14:0:23Z</time></trkpt>
<trkpt lat="47.25883497856557369232177734375" lon="7.2225640900433063507080078125"><ele></ele><time>2019-11-18T14:0:26Z</time></trkpt>
<trkpt lat="47.258795835077762603759765625" lon="7.22269929014146327972412109375"><ele></ele><time>2019-11-18T14:0:29Z</time></trkpt>
<trkpt lat="47.2587163746356964111328125" lon="7.222949154675006866455078125"><ele></ele><time>2019-11-18T14:0:32Z</time></trkpt>
<trkpt lat="47.2586667537689208984375" lon="7.2231132723391056060791015625"><ele></ele><time>2019-11-18T14:0:35Z</time></trkpt>
<trkpt lat="47.25857782177627086639404296875" lon="7.223275043070316314697265625"><ele></ele><time>2019-11-18T14:0:38Z</time></trkpt>
<trkpt lat="47.2585391812026500701904296875" lon="7.223290465772151947021484375"><ele></ele><time>2019-11-18T14:0:41Z</time></trkpt>
<trkpt lat="47.2584479860961437225341796875" lon="7.2232815809547901153564453125"><ele></ele><time>2019-11-18T14:0:44Z</time></trkpt>
<trkpt lat="47.2583494149148464202880859375" lon="7.2232376597821712493896484375"><ele></ele><time>2019-11-18T14:0:47Z</time></trkpt>
<trkpt lat="47.25781875662505626678466796875" lon="7.2230016253888607025146484375"><ele></ele><time>2019-11-18T14:0:50Z</time></trkpt>
<trkpt lat="47.2577159106731414794921875" lon="7.22292694263160228729248046875"><ele></ele><time>2019-11-18T14:0:53Z</time></trkpt>
<trkpt lat="47.25763150490820407867431640625" lon="7.222809679806232452392578125"><ele></ele><time>2019-11-18T14:0:56Z</time></trkpt>
<trkpt lat="47.2575873322784900665283203125" lon="7.2226304747164249420166015625"><ele></ele><time>2019-11-18T14:0:59Z</time></trkpt>
<trkpt lat="47.25758171640336513519287109375" lon="7.2224189154803752899169921875"><ele></ele><time>2019-11-18T14:1:2Z</time></trkpt>
<trkpt lat="47.25758657790720462799072265625" lon="7.222196795046329498291015625"><ele></ele><time>2019-11-18T14:1:5Z</time></trkpt>
<trkpt lat="47.25755087099969387054443359375" lon="7.22198791801929473876953125"><ele></ele><time>2019-11-18T14:1:8Z</time></trkpt>
<trkpt lat="47.2574528865516185760498046875" lon="7.22182304598391056060791015625"><ele></ele><time>2019-11-18T14:1:11Z</time></trkpt>
<trkpt lat="47.2573167644441127777099609375" lon="7.221701927483081817626953125"><ele></ele><time>2019-11-18T14:1:14Z</time></trkpt>
<trkpt lat="47.257078550755977630615234375" lon="7.22155901603400707244873046875"><ele></ele><time>2019-11-18T14:1:17Z</time></trkpt>
<trkpt lat="47.25693203508853912353515625" lon="7.22145407460629940032958984375"><ele></ele><time>2019-11-18T14:1:20Z</time></trkpt>
<trkpt lat="47.25676297210156917572021484375" lon="7.22126397304236888885498046875"><ele></ele><time>2019-11-18T14:1:23Z</time></trkpt>
<trkpt lat="47.256626598536968231201171875" lon="7.22100798971951007843017578125"><ele></ele><time>2019-11-18T14:1:26Z</time></trkpt>
<trkpt lat="47.25651335902512073516845703125" lon="7.2207244299352169036865234375"><ele></ele><time>2019-11-18T14:1:29Z</time></trkpt>
<trkpt lat="47.25649223662912845611572265625" lon="7.220413126051425933837890625"><ele></ele><time>2019-11-18T14:1:32Z</time></trkpt>
<trkpt lat="47.256523668766021728515625" lon="7.2202081046998500823974609375"><ele></ele><time>2019-11-18T14:1:35Z</time></trkpt>
<trkpt lat="47.2565357387065887451171875" lon="7.220022194087505340576171875"><ele></ele><time>2019-11-18T14:1:38Z</time></trkpt>
<trkpt lat="47.25649885833263397216796875" lon="7.21987676806747913360595703125"><ele></ele><time>2019-11-18T14:1:41Z</time></trkpt>
<trkpt lat="47.25643037818372249603271484375" lon="7.21983217634260654449462890625"><ele></ele><time>2019-11-18T14:1:44Z</time></trkpt>
<trkpt lat="47.2563089244067668914794921875" lon="7.220031581819057464599609375"><ele></ele><time>2019-11-18T14:1:47Z</time></trkpt>
<trkpt lat="47.25619979202747344970703125" lon="7.22053290344774723052978515625"><ele></ele><time>2019-11-18T14:1:50Z</time></trkpt>
<trkpt lat="47.2560393624007701873779296875" lon="7.22106431610882282257080078125"><ele></ele><time>2019-11-18T14:1:53Z</time></trkpt>
<trkpt lat="47.2559283860027790069580078125" lon="7.22121636383235454559326171875"><ele></ele><time>2019-11-18T14:1:56Z</time></trkpt>
<trkpt lat="47.25577860139310359954833984375" lon="7.2212913818657398223876953125"><ele></ele><time>2019-11-18T14:1:59Z</time></trkpt>
<trkpt lat="47.255572490394115447998046875" lon="7.22129716537892818450927734375"><ele></ele><time>2019-11-18T14:2:2Z</time></trkpt>
<trkpt lat="47.2554824687540531158447265625" lon="7.22119507379829883575439453125"><ele></ele><time>2019-11-18T14:2:5Z</time></trkpt>
<trkpt lat="47.2554563172161579132080078125" lon="7.22101871855556964874267578125"><ele></ele><time>2019-11-18T14:2:8Z</time></trkpt>
<trkpt lat="47.25550116039812564849853515625" lon="7.22068025730550289154052734375"><ele></ele><time>2019-11-18T14:2:11Z</time></trkpt>
<trkpt lat="47.2554724104702472686767578125" lon="7.220433242619037628173828125"><ele></ele><time>2019-11-18T14:2:14Z</time></trkpt>
<trkpt lat="47.2553624399006366729736328125" lon="7.220057733356952667236328125"><ele></ele><time>2019-11-18T14:2:17Z</time></trkpt>
<trkpt lat="47.25527166388928890228271484375" lon="7.21916698850691318511962890625"><ele></ele><time>2019-11-18T14:2:20Z</time></trkpt>
<trkpt lat="47.2552095539867877960205078125" lon="7.21873037517070770263671875"><ele></ele><time>2019-11-18T14:2:23Z</time></trkpt>
<trkpt lat="47.25506798364222049713134765625" lon="7.217858992516994476318359375"><ele></ele><time>2019-11-18T14:2:26Z</time></trkpt>
<trkpt lat="47.25498768500983715057373046875" lon="7.21732087433338165283203125"><ele></ele><time>2019-11-18T14:2:29Z</time></trkpt>
<trkpt lat="47.25491627119481563568115234375" lon="7.2170709259808063507080078125"><ele></ele><time>2019-11-18T14:2:32Z</time></trkpt>
<trkpt lat="47.25466799922287464141845703125" lon="7.21633323468267917633056640625"><ele></ele><time>2019-11-18T14:2:35Z</time></trkpt>
<trkpt lat="47.25450991652905941009521484375" lon="7.21585915423929691314697265625"><ele></ele><time>2019-11-18T14:2:38Z</time></trkpt>
<trkpt lat="47.25435300730168819427490234375" lon="7.21556209959089756011962890625"><ele></ele><time>2019-11-18T14:2:41Z</time></trkpt>
<trkpt lat="47.254127450287342071533203125" lon="7.21524425782263278961181640625"><ele></ele><time>2019-11-18T14:2:44Z</time></trkpt>
<trkpt lat="47.25376778282225131988525390625" lon="7.21501794643700122833251953125"><ele></ele><time>2019-11-18T14:2:47Z</time></trkpt>
<trkpt lat="47.2534895874559879302978515625" lon="7.214826755225658416748046875"><ele></ele><time>2019-11-18T14:2:50Z</time></trkpt>
<trkpt lat="47.25308599881827831268310546875" lon="7.214302718639373779296875"><ele></ele><time>2019-11-18T14:2:53Z</time></trkpt>
<trkpt lat="47.25272691808640956878662109375" lon="7.21367248333990573883056640625"><ele></ele><time>2019-11-18T14:2:56Z</time></trkpt>
<trkpt lat="47.2526027821004390716552734375" lon="7.21345673315227031707763671875"><ele></ele><time>2019-11-18T14:2:59Z</time></trkpt>
<trkpt lat="47.25228703580796718597412109375" lon="7.21279791556298732757568359375"><ele></ele><time>2019-11-18T14:3:2Z</time></trkpt>
<trkpt lat="47.2522017918527126312255859375" lon="7.2125566005706787109375"><ele></ele><time>2019-11-18T14:3:5Z</time></trkpt>
<trkpt lat="47.2519439645111560821533203125" lon="7.21181974746286869049072265625"><ele></ele><time>2019-11-18T14:3:8Z</time></trkpt>
<trkpt lat="47.25164883770048618316650390625" lon="7.2110644541680812835693359375"><ele></ele><time>2019-11-18T14:3:11Z</time></trkpt>
<trkpt lat="47.25137139670550823211669921875" lon="7.2103075683116912841796875"><ele></ele><time>2019-11-18T14:3:14Z</time></trkpt>
<trkpt lat="47.251071073114871978759765625" lon="7.20954422838985919952392578125"><ele></ele><time>2019-11-18T14:3:17Z</time></trkpt>
<trkpt lat="47.25082866847515106201171875" lon="7.20878214575350284576416015625"><ele></ele><time>2019-11-18T14:3:20Z</time></trkpt>
<trkpt lat="47.25063714198768138885498046875" lon="7.20791579224169254302978515625"><ele></ele><time>2019-11-18T14:3:23Z</time></trkpt>
<trkpt lat="47.25051216781139373779296875" lon="7.2071184217929840087890625"><ele></ele><time>2019-11-18T14:3:26Z</time></trkpt>
<trkpt lat="47.2504781372845172882080078125" lon="7.2068567387759685516357421875"><ele></ele><time>2019-11-18T14:3:29Z</time></trkpt>
<trkpt lat="47.250442095100879669189453125" lon="7.20671282149851322174072265625"><ele></ele><time>2019-11-18T14:3:32Z</time></trkpt>
<trkpt lat="47.2503336332738399505615234375" lon="7.206772752106189727783203125"><ele></ele><time>2019-11-18T14:3:35Z</time></trkpt>
<trkpt lat="47.25026364438235759735107421875" lon="7.20695338211953639984130859375"><ele></ele><time>2019-11-18T14:3:38Z</time></trkpt>
<trkpt lat="47.25030119530856609344482421875" lon="7.2073019854724407196044921875"><ele></ele><time>2019-11-18T14:3:41Z</time></trkpt>
<trkpt lat="47.250327430665493011474609375" lon="7.20741773955523967742919921875"><ele></ele><time>2019-11-18T14:3:44Z</time></trkpt>
<trkpt lat="47.25038610398769378662109375" lon="7.20791713334619998931884765625"><ele></ele><time>2019-11-18T14:3:47Z</time></trkpt>
<trkpt lat="47.25030354224145412445068359375" lon="7.20877594314515590667724609375"><ele></ele><time>2019-11-18T14:3:50Z</time></trkpt>
<trkpt lat="47.2501948289573192596435546875" lon="7.20964112319052219390869140625"><ele></ele><time>2019-11-18T14:3:53Z</time></trkpt>
<trkpt lat="47.250095419585704803466796875" lon="7.210590876638889312744140625"><ele></ele><time>2019-11-18T14:3:56Z</time></trkpt>
<trkpt lat="47.250008918344974517822265625" lon="7.21145731396973133087158203125"><ele></ele><time>2019-11-18T14:3:59Z</time></trkpt>
<trkpt lat="47.24990054033696651458740234375" lon="7.21228301525115966796875"><ele></ele><time>2019-11-18T14:4:2Z</time></trkpt>
<trkpt lat="47.2497589699923992156982421875" lon="7.21301031298935413360595703125"><ele></ele><time>2019-11-18T14:4:5Z</time></trkpt>
<trkpt lat="47.249713875353336334228515625" lon="7.21315448172390460968017578125"><ele></ele><time>2019-11-18T14:4:8Z</time></trkpt>
<trkpt lat="47.249437272548675537109375" lon="7.213994599878787994384765625"><ele></ele><time>2019-11-18T14:4:11Z</time></trkpt>
<trkpt lat="47.24914181046187877655029296875" lon="7.214807979762554168701171875"><ele></ele><time>2019-11-18T14:4:14Z</time></trkpt>
<trkpt lat="47.2489087097346782684326171875" lon="7.215539552271366119384765625"><ele></ele><time>2019-11-18T14:4:17Z</time></trkpt>
<trkpt lat="47.24889236502349376678466796875" lon="7.21570157445967197418212890625"><ele></ele><time>2019-11-18T14:4:20Z</time></trkpt>
<trkpt lat="47.2488007508218288421630859375" lon="7.2165281139314174652099609375"><ele></ele><time>2019-11-18T14:4:23Z</time></trkpt>
<trkpt lat="47.24868960678577423095703125" lon="7.2173659689724445343017578125"><ele></ele><time>2019-11-18T14:4:26Z</time></trkpt>
<trkpt lat="47.24859983660280704498291015625" lon="7.2178338468074798583984375"><ele></ele><time>2019-11-18T14:4:29Z</time></trkpt>
<trkpt lat="47.24829666316509246826171875" lon="7.21854857169091701507568359375"><ele></ele><time>2019-11-18T14:4:32Z</time></trkpt>
<trkpt lat="47.2480604611337184906005859375" lon="7.2189649008214473724365234375"><ele></ele><time>2019-11-18T14:4:35Z</time></trkpt>
<trkpt lat="47.24795208312571048736572265625" lon="7.219067998230457305908203125"><ele></ele><time>2019-11-18T14:4:38Z</time></trkpt>
<trkpt lat="47.2476165555417537689208984375" lon="7.2192710079252719879150390625"><ele></ele><time>2019-11-18T14:4:41Z</time></trkpt>
<trkpt lat="47.2475476562976837158203125" lon="7.21930478699505329132080078125"><ele></ele><time>2019-11-18T14:4:44Z</time></trkpt>
<trkpt lat="47.247413881123065948486328125" lon="7.2193611972033977508544921875"><ele></ele><time>2019-11-18T14:4:47Z</time></trkpt>
<trkpt lat="47.24734020419418811798095703125" lon="7.21937050111591815948486328125"><ele></ele><time>2019-11-18T14:4:50Z</time></trkpt>
<trkpt lat="47.2472687065601348876953125" lon="7.2193682380020618438720703125"><ele></ele><time>2019-11-18T14:4:53Z</time></trkpt>
<trkpt lat="47.24705480039119720458984375" lon="7.219361364841461181640625"><ele></ele><time>2019-11-18T14:4:56Z</time></trkpt>
<trkpt lat="47.24677844904363155364990234375" lon="7.21945348195731639862060546875"><ele></ele><time>2019-11-18T14:4:59Z</time></trkpt>
<trkpt lat="47.24662791006267070770263671875" lon="7.21942934207618236541748046875"><ele></ele><time>2019-11-18T14:5:2Z</time></trkpt>
<trkpt lat="47.24636270664632320404052734375" lon="7.2193306870758533477783203125"><ele></ele><time>2019-11-18T14:5:5Z</time></trkpt>
<trkpt lat="47.2463019378483295440673828125" lon="7.21930881030857563018798828125"><ele></ele><time>2019-11-18T14:5:8Z</time></trkpt>
<trkpt lat="47.24624167196452617645263671875" lon="7.21928559243679046630859375"><ele></ele><time>2019-11-18T14:5:11Z</time></trkpt>
<trkpt lat="47.24587521515786647796630859375" lon="7.2191563434898853302001953125"><ele></ele><time>2019-11-18T14:5:14Z</time></trkpt>
<trkpt lat="47.2457410208880901336669921875" lon="7.219113595783710479736328125"><ele></ele><time>2019-11-18T14:5:17Z</time></trkpt>
<trkpt lat="47.24561445415019989013671875" lon="7.21902013756334781646728515625"><ele></ele><time>2019-11-18T14:5:20Z</time></trkpt>
<trkpt lat="47.245433069765567779541015625" lon="7.218831963837146759033203125"><ele></ele><time>2019-11-18T14:5:23Z</time></trkpt>
<trkpt lat="47.24530625157058238983154296875" lon="7.218749821186065673828125"><ele></ele><time>2019-11-18T14:5:26Z</time></trkpt>
<trkpt lat="47.2450798563659191131591796875" lon="7.21868435852229595184326171875"><ele></ele><time>2019-11-18T14:5:29Z</time></trkpt>
<trkpt lat="47.24502327851951122283935546875" lon="7.218571119010448455810546875"><ele></ele><time>2019-11-18T14:5:32Z</time></trkpt>
<trkpt lat="47.245013974606990814208984375" lon="7.2184113599359989166259765625"><ele></ele><time>2019-11-18T14:5:35Z</time></trkpt>
<trkpt lat="47.24503551609814167022705078125" lon="7.21800240688025951385498046875"><ele></ele><time>2019-11-18T14:5:38Z</time></trkpt>
<trkpt lat="47.2450379468500614166259765625" lon="7.21792579628527164459228515625"><ele></ele><time>2019-11-18T14:5:41Z</time></trkpt>
<trkpt lat="47.24503886885941028594970703125" lon="7.217773161828517913818359375"><ele></ele><time>2019-11-18T14:5:44Z</time></trkpt>
<trkpt lat="47.24503484554588794708251953125" lon="7.2176935337483882904052734375"><ele></ele><time>2019-11-18T14:5:47Z</time></trkpt>
<trkpt lat="47.2450288943946361541748046875" lon="7.217615582048892974853515625"><ele></ele><time>2019-11-18T14:5:50Z</time></trkpt>
<trkpt lat="47.24502436816692352294921875" lon="7.2175369597971439361572265625"><ele></ele><time>2019-11-18T14:5:53Z</time></trkpt>
<trkpt lat="47.24501020275056362152099609375" lon="7.21738256514072418212890625"><ele></ele><time>2019-11-18T14:5:56Z</time></trkpt>
<trkpt lat="47.24500022828578948974609375" lon="7.21731140278279781341552734375"><ele></ele><time>2019-11-18T14:5:59Z</time></trkpt>
<trkpt lat="47.24498991854488849639892578125" lon="7.21723864786326885223388671875"><ele></ele><time>2019-11-18T14:6:2Z</time></trkpt>
<trkpt lat="47.2449014894664287567138671875" lon="7.21676699817180633544921875"><ele></ele><time>2019-11-18T14:6:5Z</time></trkpt>
<trkpt lat="47.24491062574088573455810546875" lon="7.216619811952114105224609375"><ele></ele><time>2019-11-18T14:6:8Z</time></trkpt>
<trkpt lat="47.24503501318395137786865234375" lon="7.2160627506673336029052734375"><ele></ele><time>2019-11-18T14:6:11Z</time></trkpt>
<trkpt lat="47.24509217776358127593994140625" lon="7.215723283588886260986328125"><ele></ele><time>2019-11-18T14:6:14Z</time></trkpt>
<trkpt lat="47.24511581473052501678466796875" lon="7.2155135683715343475341796875"><ele></ele><time>2019-11-18T14:6:17Z</time></trkpt>
<trkpt lat="47.24513727240264415740966796875" lon="7.21524660475552082061767578125"><ele></ele><time>2019-11-18T14:6:20Z</time></trkpt>
<trkpt lat="47.24515043199062347412109375" lon="7.21504678018391132354736328125"><ele></ele><time>2019-11-18T14:6:23Z</time></trkpt>
<trkpt lat="47.24515906535089015960693359375" lon="7.21491434611380100250244140625"><ele></ele><time>2019-11-18T14:6:26Z</time></trkpt>
<trkpt lat="47.24516325630247592926025390625" lon="7.21478258259594440460205078125"><ele></ele><time>2019-11-18T14:6:29Z</time></trkpt>
<trkpt lat="47.24514028988778591156005859375" lon="7.21432358957827091217041015625"><ele></ele><time>2019-11-18T14:6:32Z</time></trkpt>
<trkpt lat="47.2450801916420459747314453125" lon="7.21366141922771930694580078125"><ele></ele><time>2019-11-18T14:6:35Z</time></trkpt>
<trkpt lat="47.245000563561916351318359375" lon="7.2128122486174106597900390625"><ele></ele><time>2019-11-18T14:6:38Z</time></trkpt>
<trkpt lat="47.24492386914789676666259765625" lon="7.21201973967254161834716796875"><ele></ele><time>2019-11-18T14:6:41Z</time></trkpt>
<trkpt lat="47.24481859244406223297119140625" lon="7.2113598324358463287353515625"><ele></ele><time>2019-11-18T14:6:44Z</time></trkpt>
<trkpt lat="47.244803421199321746826171875" lon="7.2112931124866008758544921875"><ele></ele><time>2019-11-18T14:6:47Z</time></trkpt>
<trkpt lat="47.24457685835659503936767578125" lon="7.2104968316853046417236328125"><ele></ele><time>2019-11-18T14:6:50Z</time></trkpt>
<trkpt lat="47.244268320500850677490234375" lon="7.20984782092273235321044921875"><ele></ele><time>2019-11-18T14:6:53Z</time></trkpt>
<trkpt lat="47.243851236999034881591796875" lon="7.20932696945965290069580078125"><ele></ele><time>2019-11-18T14:6:56Z</time></trkpt>
<trkpt lat="47.2435994446277618408203125" lon="7.20910065807402133941650390625"><ele></ele><time>2019-11-18T14:6:59Z</time></trkpt>
<trkpt lat="47.24337204359471797943115234375" lon="7.20880276523530483245849609375"><ele></ele><time>2019-11-18T14:7:2Z</time></trkpt>
<trkpt lat="47.24307934753596782684326171875" lon="7.20810480415821075439453125"><ele></ele><time>2019-11-18T14:7:5Z</time></trkpt>
<trkpt lat="47.2429830394685268402099609375" lon="7.20767020247876644134521484375"><ele></ele><time>2019-11-18T14:7:8Z</time></trkpt>
<trkpt lat="47.2429568879306316375732421875" lon="7.2073026560246944427490234375"><ele></ele><time>2019-11-18T14:7:11Z</time></trkpt>
<trkpt lat="47.24291036836802959442138671875" lon="7.2070391289889812469482421875"><ele></ele><time>2019-11-18T14:7:14Z</time></trkpt>
<trkpt lat="47.2427429817616939544677734375" lon="7.20694206655025482177734375"><ele></ele><time>2019-11-18T14:7:17Z</time></trkpt>
<trkpt lat="47.24249043501913547515869140625" lon="7.20691901631653308868408203125"><ele></ele><time>2019-11-18T14:7:20Z</time></trkpt>
<trkpt lat="47.2421807236969470977783203125" lon="7.2066699899733066558837890625"><ele></ele><time>2019-11-18T14:7:23Z</time></trkpt>
<trkpt lat="47.24215901456773281097412109375" lon="7.206641994416713714599609375"><ele></ele><time>2019-11-18T14:7:26Z</time></trkpt>
<trkpt lat="47.242015264928340911865234375" lon="7.20618006773293018341064453125"><ele></ele><time>2019-11-18T14:7:29Z</time></trkpt>
<trkpt lat="47.24200696684420108795166015625" lon="7.20613949932157993316650390625"><ele></ele><time>2019-11-18T14:7:32Z</time></trkpt>
<trkpt lat="47.24195801652967929840087890625" lon="7.2059467993676662445068359375"><ele></ele><time>2019-11-18T14:7:35Z</time></trkpt>
<trkpt lat="47.2417857684195041656494140625" lon="7.20551169477403163909912109375"><ele></ele><time>2019-11-18T14:7:38Z</time></trkpt>
<trkpt lat="47.24161804653704166412353515625" lon="7.2050060145556926727294921875"><ele></ele><time>2019-11-18T14:7:41Z</time></trkpt>
<trkpt lat="47.2415690124034881591796875" lon="7.20489688217639923095703125"><ele></ele><time>2019-11-18T14:7:44Z</time></trkpt>
<trkpt lat="47.24154545925557613372802734375" lon="7.20484114252030849456787109375"><ele></ele><time>2019-11-18T14:7:47Z</time></trkpt>
<trkpt lat="47.24154545925557613372802734375" lon="7.20484114252030849456787109375"><ele></ele><time>2019-11-18T14:7:50Z</time></trkpt>
<trkpt lat="47.2415234148502349853515625" lon="7.2047709859907627105712890625"><ele></ele><time>2019-11-18T14:7:53Z</time></trkpt>
<trkpt lat="47.2414965927600860595703125" lon="7.20470233820378780364990234375"><ele></ele><time>2019-11-18T14:7:56Z</time></trkpt>
<trkpt lat="47.24145761691033840179443359375" lon="7.20457761548459529876708984375"><ele></ele><time>2019-11-18T14:7:59Z</time></trkpt>
<trkpt lat="47.24144906736910343170166015625" lon="7.20452673733234405517578125"><ele></ele><time>2019-11-18T14:8:2Z</time></trkpt>
<trkpt lat="47.24144403822720050811767578125" lon="7.2045000828802585601806640625"><ele></ele><time>2019-11-18T14:8:5Z</time></trkpt>
<trkpt lat="47.241439260542392730712890625" lon="7.204474098980426788330078125"><ele></ele><time>2019-11-18T14:8:8Z</time></trkpt>
<trkpt lat="47.2412915714085102081298828125" lon="7.20411761663854122161865234375"><ele></ele><time>2019-11-18T14:8:11Z</time></trkpt>
<trkpt lat="47.24125645123422145843505859375" lon="7.20395349897444248199462890625"><ele></ele><time>2019-11-18T14:8:14Z</time></trkpt>
<trkpt lat="47.2412214986979961395263671875" lon="7.2038865275681018829345703125"><ele></ele><time>2019-11-18T14:8:17Z</time></trkpt>
<trkpt lat="47.24119559861719608306884765625" lon="7.20384411513805389404296875"><ele></ele><time>2019-11-18T14:8:20Z</time></trkpt>
<trkpt lat="47.24115771241486072540283203125" lon="7.20378250814974308013916015625"><ele></ele><time>2019-11-18T14:8:23Z</time></trkpt>
<trkpt lat="47.2411303035914897918701171875" lon="7.2037433646619319915771484375"><ele></ele><time>2019-11-18T14:8:26Z</time></trkpt>
<trkpt lat="47.24110297858715057373046875" lon="7.2036900557577610015869140625"><ele></ele><time>2019-11-18T14:8:29Z</time></trkpt>
<trkpt lat="47.24108445458114147186279296875" lon="7.2036498226225376129150390625"><ele></ele><time>2019-11-18T14:8:32Z</time></trkpt>
<trkpt lat="47.24105578847229480743408203125" lon="7.2035670094192028045654296875"><ele></ele><time>2019-11-18T14:8:35Z</time></trkpt>
<trkpt lat="47.2410324029624462127685546875" lon="7.203493416309356689453125"><ele></ele><time>2019-11-18T14:8:38Z</time></trkpt>
<trkpt lat="47.24098873324692249298095703125" lon="7.203403897583484649658203125"><ele></ele><time>2019-11-18T14:8:41Z</time></trkpt>
<trkpt lat="47.2408835403621196746826171875" lon="7.20318605192005634307861328125"><ele></ele><time>2019-11-18T14:8:44Z</time></trkpt>
<trkpt lat="47.24084238521754741668701171875" lon="7.20306518487632274627685546875"><ele></ele><time>2019-11-18T14:8:47Z</time></trkpt>
<trkpt lat="47.240677513182163238525390625" lon="7.20266117714345455169677734375"><ele></ele><time>2019-11-18T14:8:50Z</time></trkpt>
<trkpt lat="47.2406652756035327911376953125" lon="7.20263368450105190277099609375"><ele></ele><time>2019-11-18T14:8:53Z</time></trkpt>
<trkpt lat="47.2406535409390926361083984375" lon="7.20260652713477611541748046875"><ele></ele><time>2019-11-18T14:8:56Z</time></trkpt>
<trkpt lat="47.2406408004462718963623046875" lon="7.20258347690105438232421875"><ele></ele><time>2019-11-18T14:8:59Z</time></trkpt>
<trkpt lat="47.24063082598149776458740234375" lon="7.20255791209638118743896484375"><ele></ele><time>2019-11-18T14:9:2Z</time></trkpt>
<trkpt lat="47.24057969637215137481689453125" lon="7.20244467258453369140625"><ele></ele><time>2019-11-18T14:9:5Z</time></trkpt>
<trkpt lat="47.24045430310070514678955078125" lon="7.20215608365833759307861328125"><ele></ele><time>2019-11-18T14:9:8Z</time></trkpt>
<trkpt lat="47.24042010493576526641845703125" lon="7.20207251608371734619140625"><ele></ele><time>2019-11-18T14:9:11Z</time></trkpt>
<trkpt lat="47.2401747666299343109130859375" lon="7.20136030577123165130615234375"><ele></ele><time>2019-11-18T14:9:14Z</time></trkpt>
<trkpt lat="47.24010192789137363433837890625" lon="7.20120959915220737457275390625"><ele></ele><time>2019-11-18T14:9:17Z</time></trkpt>
<trkpt lat="47.23996882326900959014892578125" lon="7.2009733133018016815185546875"><ele></ele><time>2019-11-18T14:9:20Z</time></trkpt>
<trkpt lat="47.23984678275883197784423828125" lon="7.200711630284786224365234375"><ele></ele><time>2019-11-18T14:9:23Z</time></trkpt>
<trkpt lat="47.2398069687187671661376953125" lon="7.200586237013339996337890625"><ele></ele><time>2019-11-18T14:9:26Z</time></trkpt>
<trkpt lat="47.239797748625278472900390625" lon="7.200553715229034423828125"><ele></ele><time>2019-11-18T14:9:29Z</time></trkpt>
<trkpt lat="47.23976916633546352386474609375" lon="7.2004533000290393829345703125"><ele></ele><time>2019-11-18T14:9:32Z</time></trkpt>
<trkpt lat="47.23974234424531459808349609375" lon="7.20035699196159839630126953125"><ele></ele><time>2019-11-18T14:9:35Z</time></trkpt>
<trkpt lat="47.23973044194281101226806640625" lon="7.2003252245485782623291015625"><ele></ele><time>2019-11-18T14:9:38Z</time></trkpt>
<trkpt lat="47.239708565175533294677734375" lon="7.20028926618397235870361328125"><ele></ele><time>2019-11-18T14:9:41Z</time></trkpt>
<trkpt lat="47.2396886162459850311279296875" lon="7.2002544812858104705810546875"><ele></ele><time>2019-11-18T14:9:44Z</time></trkpt>
<trkpt lat="47.23967545665800571441650390625" lon="7.20021986402571201324462890625"><ele></ele><time>2019-11-18T14:9:47Z</time></trkpt>
<trkpt lat="47.23966372199356555938720703125" lon="7.20018616877496242523193359375"><ele></ele><time>2019-11-18T14:9:50Z</time></trkpt>
<trkpt lat="47.23963907919824123382568359375" lon="7.20011894591152667999267578125"><ele></ele><time>2019-11-18T14:9:53Z</time></trkpt>
<trkpt lat="47.239550650119781494140625" lon="7.1997783891856670379638671875"><ele></ele><time>2019-11-18T14:9:56Z</time></trkpt>
<trkpt lat="47.239510752260684967041015625" lon="7.1996137686073780059814453125"><ele></ele><time>2019-11-18T14:9:59Z</time></trkpt>
<trkpt lat="47.2394887916743755340576171875" lon="7.19949281774461269378662109375"><ele></ele><time>2019-11-18T14:10:2Z</time></trkpt>
<trkpt lat="47.2394824214279651641845703125" lon="7.19944939948618412017822265625"><ele></ele><time>2019-11-18T14:10:5Z</time></trkpt>
<trkpt lat="47.23941829986870288848876953125" lon="7.199058718979358673095703125"><ele></ele><time>2019-11-18T14:10:8Z</time></trkpt>
<trkpt lat="47.23941192962229251861572265625" lon="7.19900951720774173736572265625"><ele></ele><time>2019-11-18T14:10:11Z</time></trkpt>
<trkpt lat="47.23940312862396240234375" lon="7.19895972870290279388427734375"><ele></ele><time>2019-11-18T14:10:14Z</time></trkpt>
<trkpt lat="47.23938980139791965484619140625" lon="7.19890859909355640411376953125"><ele></ele><time>2019-11-18T14:10:17Z</time></trkpt>
<trkpt lat="47.23935493268072605133056640625" lon="7.19875236041843891143798828125"><ele></ele><time>2019-11-18T14:10:20Z</time></trkpt>
<trkpt lat="47.23905536346137523651123046875" lon="7.19804593361914157867431640625"><ele></ele><time>2019-11-18T14:10:23Z</time></trkpt>
<trkpt lat="47.23872042261064052581787109375" lon="7.197364233434200286865234375"><ele></ele><time>2019-11-18T14:10:26Z</time></trkpt>
<trkpt lat="47.23868320696055889129638671875" lon="7.19725853763520717620849609375"><ele></ele><time>2019-11-18T14:10:29Z</time></trkpt>
<trkpt lat="47.23852328024804592132568359375" lon="7.19675495289266109466552734375"><ele></ele><time>2019-11-18T14:10:32Z</time></trkpt>
<trkpt lat="47.23820007406175136566162109375" lon="7.1961160004138946533203125"><ele></ele><time>2019-11-18T14:10:35Z</time></trkpt>
<trkpt lat="47.23779120482504367828369140625" lon="7.19552868045866489410400390625"><ele></ele><time>2019-11-18T14:10:38Z</time></trkpt>
<trkpt lat="47.237372361123561859130859375" lon="7.195008583366870880126953125"><ele></ele><time>2019-11-18T14:10:41Z</time></trkpt>
<trkpt lat="47.2372984327375888824462890625" lon="7.1949286200106143951416015625"><ele></ele><time>2019-11-18T14:10:44Z</time></trkpt>
<trkpt lat="47.237222157418727874755859375" lon="7.19485930167138576507568359375"><ele></ele><time>2019-11-18T14:10:47Z</time></trkpt>
<trkpt lat="47.23681974224746227264404296875" lon="7.19443802721798419952392578125"><ele></ele><time>2019-11-18T14:10:50Z</time></trkpt>
<trkpt lat="47.23653140477836132049560546875" lon="7.1942865662276744842529296875"><ele></ele><time>2019-11-18T14:10:53Z</time></trkpt>
<trkpt lat="47.23639360629022121429443359375" lon="7.19422571361064910888671875"><ele></ele><time>2019-11-18T14:10:56Z</time></trkpt>
<trkpt lat="47.23587862215936183929443359375" lon="7.1938580833375453948974609375"><ele></ele><time>2019-11-18T14:10:59Z</time></trkpt>
<trkpt lat="47.23549540154635906219482421875" lon="7.1933320350944995880126953125"><ele></ele><time>2019-11-18T14:11:2Z</time></trkpt>
<trkpt lat="47.23534821532666683197021484375" lon="7.1928155422210693359375"><ele></ele><time>2019-11-18T14:11:5Z</time></trkpt>
<trkpt lat="47.2352703474462032318115234375" lon="7.19197676517069339752197265625"><ele></ele><time>2019-11-18T14:11:8Z</time></trkpt>
<trkpt lat="47.23524763248860836029052734375" lon="7.19137880019843578338623046875"><ele></ele><time>2019-11-18T14:11:11Z</time></trkpt>
<trkpt lat="47.23526355810463428497314453125" lon="7.190806567668914794921875"><ele></ele><time>2019-11-18T14:11:14Z</time></trkpt>
<trkpt lat="47.23525316454470157623291015625" lon="7.19043985940515995025634765625"><ele></ele><time>2019-11-18T14:11:17Z</time></trkpt>
<trkpt lat="47.235245369374752044677734375" lon="7.190288566052913665771484375"><ele></ele><time>2019-11-18T14:11:20Z</time></trkpt>
<trkpt lat="47.2352287732064723968505859375" lon="7.189907692372798919677734375"><ele></ele><time>2019-11-18T14:11:23Z</time></trkpt>
<trkpt lat="47.23520505242049694061279296875" lon="7.18916379846632480621337890625"><ele></ele><time>2019-11-18T14:11:26Z</time></trkpt>
<trkpt lat="47.23494999110698699951171875" lon="7.18847614713013172149658203125"><ele></ele><time>2019-11-18T14:11:29Z</time></trkpt>
<trkpt lat="47.23479417152702808380126953125" lon="7.1881724707782268524169921875"><ele></ele><time>2019-11-18T14:11:32Z</time></trkpt>
<trkpt lat="47.2346916608512401580810546875" lon="7.18808353878557682037353515625"><ele></ele><time>2019-11-18T14:11:35Z</time></trkpt>
<trkpt lat="47.23453835584223270416259765625" lon="7.18804850243031978607177734375"><ele></ele><time>2019-11-18T14:11:38Z</time></trkpt>
<trkpt lat="47.23453835584223270416259765625" lon="7.18804850243031978607177734375"><ele></ele><time>2019-11-18T14:11:41Z</time></trkpt>
<trkpt lat="47.2344888187944889068603515625" lon="7.18807415105402469635009765625"><ele></ele><time>2019-11-18T14:11:44Z</time></trkpt>
<trkpt lat="47.23426024429500102996826171875" lon="7.1882465668022632598876953125"><ele></ele><time>2019-11-18T14:11:47Z</time></trkpt>
<trkpt lat="47.23415865562856197357177734375" lon="7.188263833522796630859375"><ele></ele><time>2019-11-18T14:11:50Z</time></trkpt>
<trkpt lat="47.23406109027564525604248046875" lon="7.1882479079067707061767578125"><ele></ele><time>2019-11-18T14:11:53Z</time></trkpt>
<trkpt lat="47.23397140391170978546142578125" lon="7.18820641748607158660888671875"><ele></ele><time>2019-11-18T14:11:56Z</time></trkpt>
<trkpt lat="47.23377191461622714996337890625" lon="7.1880977042019367218017578125"><ele></ele><time>2019-11-18T14:11:59Z</time></trkpt>
<trkpt lat="47.23364015109837055206298828125" lon="7.18813818879425525665283203125"><ele></ele><time>2019-11-18T14:12:2Z</time></trkpt>
<trkpt lat="47.2335735149681568145751953125" lon="7.18825888819992542266845703125"><ele></ele><time>2019-11-18T14:12:5Z</time></trkpt>
<trkpt lat="47.233483828604221343994140625" lon="7.18845385126769542694091796875"><ele></ele><time>2019-11-18T14:12:8Z</time></trkpt>
<trkpt lat="47.23338366486132144927978515625" lon="7.188635654747486114501953125"><ele></ele><time>2019-11-18T14:12:11Z</time></trkpt>
<trkpt lat="47.2330558486282825469970703125" lon="7.18927661888301372528076171875"><ele></ele><time>2019-11-18T14:12:14Z</time></trkpt>
<trkpt lat="47.23297848366200923919677734375" lon="7.18939949758350849151611328125"><ele></ele><time>2019-11-18T14:12:17Z</time></trkpt>
<trkpt lat="47.23279751837253570556640625" lon="7.1895848214626312255859375"><ele></ele><time>2019-11-18T14:12:20Z</time></trkpt>
<trkpt lat="47.23220466636121273040771484375" lon="7.18974910676479339599609375"><ele></ele><time>2019-11-18T14:12:23Z</time></trkpt>
<trkpt lat="47.23197634331881999969482421875" lon="7.18977592885494232177734375"><ele></ele><time>2019-11-18T14:12:26Z</time></trkpt>
<trkpt lat="47.23182161338627338409423828125" lon="7.1897828020155429840087890625"><ele></ele><time>2019-11-18T14:12:29Z</time></trkpt>
<trkpt lat="47.2315724194049835205078125" lon="7.18979277648031711578369140625"><ele></ele><time>2019-11-18T14:12:32Z</time></trkpt>
<trkpt lat="47.23130143247544765472412109375" lon="7.18981272540986537933349609375"><ele></ele><time>2019-11-18T14:12:35Z</time></trkpt>
<trkpt lat="47.23130143247544765472412109375" lon="7.18981272540986537933349609375"><ele></ele><time>2019-11-18T14:12:38Z</time></trkpt>
<trkpt lat="47.2309814952313899993896484375" lon="7.18991867266595363616943359375"><ele></ele><time>2019-11-18T14:12:41Z</time></trkpt>
<trkpt lat="47.23089641891419887542724609375" lon="7.18994666822254657745361328125"><ele></ele><time>2019-11-18T14:12:44Z</time></trkpt>
<trkpt lat="47.2305424511432647705078125" lon="7.19006988219916820526123046875"><ele></ele><time>2019-11-18T14:12:47Z</time></trkpt>
<trkpt lat="47.2301707975566387176513671875" lon="7.19042896293103694915771484375"><ele></ele><time>2019-11-18T14:12:50Z</time></trkpt>
<trkpt lat="47.23011136986315250396728515625" lon="7.1905264444649219512939453125"><ele></ele><time>2019-11-18T14:12:53Z</time></trkpt>
<trkpt lat="47.230007015168666839599609375" lon="7.1907517500221729278564453125"><ele></ele><time>2019-11-18T14:12:56Z</time></trkpt>
<trkpt lat="47.229938618838787078857421875" lon="7.1910179592669010162353515625"><ele></ele><time>2019-11-18T14:12:59Z</time></trkpt>
<trkpt lat="47.229859493672847747802734375" lon="7.1912831626832485198974609375"><ele></ele><time>2019-11-18T14:13:2Z</time></trkpt>
<trkpt lat="47.22964592278003692626953125" lon="7.19168675132095813751220703125"><ele></ele><time>2019-11-18T14:13:5Z</time></trkpt>
<trkpt lat="47.2295314259827136993408203125" lon="7.1917656250298023223876953125"><ele></ele><time>2019-11-18T14:13:8Z</time></trkpt>
<trkpt lat="47.2293121553957462310791015625" lon="7.191782891750335693359375"><ele></ele><time>2019-11-18T14:13:11Z</time></trkpt>
<trkpt lat="47.22916848957538604736328125" lon="7.19183527864515781402587890625"><ele></ele><time>2019-11-18T14:13:14Z</time></trkpt>
<trkpt lat="47.22916848957538604736328125" lon="7.19183527864515781402587890625"><ele></ele><time>2019-11-18T14:13:17Z</time></trkpt>
<trkpt lat="47.22910772077739238739013671875" lon="7.19188976101577281951904296875"><ele></ele><time>2019-11-18T14:13:20Z</time></trkpt>
<trkpt lat="47.22866959869861602783203125" lon="7.19217625446617603302001953125"><ele></ele><time>2019-11-18T14:13:23Z</time></trkpt>
<trkpt lat="47.2284397669136524200439453125" lon="7.1924492530524730682373046875"><ele></ele><time>2019-11-18T14:13:26Z</time></trkpt>
<trkpt lat="47.2283965162932872772216796875" lon="7.1925035677850246429443359375"><ele></ele><time>2019-11-18T14:13:29Z</time></trkpt>
<trkpt lat="47.22835301421582698822021484375" lon="7.19255310483276844024658203125"><ele></ele><time>2019-11-18T14:13:32Z</time></trkpt>
<trkpt lat="47.22819074057042598724365234375" lon="7.19275376759469509124755859375"><ele></ele><time>2019-11-18T14:13:35Z</time></trkpt>
<trkpt lat="47.22787566483020782470703125" lon="7.193220891058444976806640625"><ele></ele><time>2019-11-18T14:13:38Z</time></trkpt>
<trkpt lat="47.22760216332972049713134765625" lon="7.19376378692686557769775390625"><ele></ele><time>2019-11-18T14:13:41Z</time></trkpt>
<trkpt lat="47.2275361977517604827880859375" lon="7.19393544830381870269775390625"><ele></ele><time>2019-11-18T14:13:44Z</time></trkpt>
<trkpt lat="47.227488420903682708740234375" lon="7.1940394677221775054931640625"><ele></ele><time>2019-11-18T14:13:47Z</time></trkpt>
<trkpt lat="47.22705063410103321075439453125" lon="7.19456710852682590484619140625"><ele></ele><time>2019-11-18T14:13:50Z</time></trkpt>
<trkpt lat="47.226880230009555816650390625" lon="7.19473424367606639862060546875"><ele></ele><time>2019-11-18T14:13:53Z</time></trkpt>
<trkpt lat="47.2268512286245822906494140625" lon="7.19476081430912017822265625"><ele></ele><time>2019-11-18T14:13:56Z</time></trkpt>
<trkpt lat="47.2267955727875232696533203125" lon="7.194813787937164306640625"><ele></ele><time>2019-11-18T14:13:59Z</time></trkpt>
<trkpt lat="47.2267677448689937591552734375" lon="7.19484035857021808624267578125"><ele></ele><time>2019-11-18T14:14:2Z</time></trkpt>
<trkpt lat="47.226739414036273956298828125" lon="7.19486449845135211944580078125"><ele></ele><time>2019-11-18T14:14:5Z</time></trkpt>
<trkpt lat="47.22660161554813385009765625" lon="7.19497807323932647705078125"><ele></ele><time>2019-11-18T14:14:8Z</time></trkpt>
<trkpt lat="47.22625351510941982269287109375" lon="7.19525811262428760528564453125"><ele></ele><time>2019-11-18T14:14:11Z</time></trkpt>
<trkpt lat="47.2262024693191051483154296875" lon="7.19529633410274982452392578125"><ele></ele><time>2019-11-18T14:14:14Z</time></trkpt>
<trkpt lat="47.2261753119528293609619140625" lon="7.19531745649874210357666015625"><ele></ele><time>2019-11-18T14:14:17Z</time></trkpt>
<trkpt lat="47.2261753119528293609619140625" lon="7.19531745649874210357666015625"><ele></ele><time>2019-11-18T14:14:20Z</time></trkpt>
<trkpt lat="47.2261468134820461273193359375" lon="7.19534075818955898284912109375"><ele></ele><time>2019-11-18T14:14:23Z</time></trkpt>
<trkpt lat="47.22611806355416774749755859375" lon="7.1953638084232807159423828125"><ele></ele><time>2019-11-18T14:14:26Z</time></trkpt>
<trkpt lat="47.22609057091176509857177734375" lon="7.1953845955431461334228515625"><ele></ele><time>2019-11-18T14:14:29Z</time></trkpt>
<trkpt lat="47.22606383264064788818359375" lon="7.19540731050074100494384765625"><ele></ele><time>2019-11-18T14:14:32Z</time></trkpt>
<trkpt lat="47.22603726200759410858154296875" lon="7.1954308636486530303955078125"><ele></ele><time>2019-11-18T14:14:35Z</time></trkpt>
<trkpt lat="47.22587901167571544647216796875" lon="7.19557176344096660614013671875"><ele></ele><time>2019-11-18T14:14:38Z</time></trkpt>
<trkpt lat="47.22541607916355133056640625" lon="7.19599052332341670989990234375"><ele></ele><time>2019-11-18T14:14:41Z</time></trkpt>
<trkpt lat="47.22501617856323719024658203125" lon="7.19643359072506427764892578125"><ele></ele><time>2019-11-18T14:14:44Z</time></trkpt>
<trkpt lat="47.22489581443369388580322265625" lon="7.196540795266628265380859375"><ele></ele><time>2019-11-18T14:14:47Z</time></trkpt>
<trkpt lat="47.22455785609781742095947265625" lon="7.1967733092606067657470703125"><ele></ele><time>2019-11-18T14:14:50Z</time></trkpt>
<trkpt lat="47.2244771383702754974365234375" lon="7.19681899063289165496826171875"><ele></ele><time>2019-11-18T14:14:53Z</time></trkpt>
<trkpt lat="47.2242189757525920867919921875" lon="7.19695980660617351531982421875"><ele></ele><time>2019-11-18T14:14:56Z</time></trkpt>
<trkpt lat="47.2238987870514392852783203125" lon="7.19704496674239635467529296875"><ele></ele><time>2019-11-18T14:14:59Z</time></trkpt>
<trkpt lat="47.2235933504998683929443359375" lon="7.19711369834840297698974609375"><ele></ele><time>2019-11-18T14:15:2Z</time></trkpt>
<trkpt lat="47.223526127636432647705078125" lon="7.19712493009865283966064453125"><ele></ele><time>2019-11-18T14:15:5Z</time></trkpt>
<trkpt lat="47.22345898859202861785888671875" lon="7.19713632948696613311767578125"><ele></ele><time>2019-11-18T14:15:8Z</time></trkpt>
<trkpt lat="47.22339143045246601104736328125" lon="7.19714152626693248748779296875"><ele></ele><time>2019-11-18T14:15:11Z</time></trkpt>
<trkpt lat="47.223111055791378021240234375" lon="7.19716130755841732025146484375"><ele></ele><time>2019-11-18T14:15:14Z</time></trkpt>
<trkpt lat="47.22274468280375003814697265625" lon="7.19720539636909961700439453125"><ele></ele><time>2019-11-18T14:15:17Z</time></trkpt>
<trkpt lat="47.222639657557010650634765625" lon="7.1972591243684291839599609375"><ele></ele><time>2019-11-18T14:15:20Z</time></trkpt>
<trkpt lat="47.2225539945065975189208984375" lon="7.19729281961917877197265625"><ele></ele><time>2019-11-18T14:15:23Z</time></trkpt>
<trkpt lat="47.22247512079775333404541015625" lon="7.19734554179012775421142578125"><ele></ele><time>2019-11-18T14:15:26Z</time></trkpt>
<trkpt lat="47.22231888212263584136962890625" lon="7.197568081319332122802734375"><ele></ele><time>2019-11-18T14:15:29Z</time></trkpt>
<trkpt lat="47.2221667505800724029541015625" lon="7.1977442689239978790283203125"><ele></ele><time>2019-11-18T14:15:32Z</time></trkpt>
<trkpt lat="47.221928201615810394287109375" lon="7.197906710207462310791015625"><ele></ele><time>2019-11-18T14:15:35Z</time></trkpt>
<trkpt lat="47.2217422910034656524658203125" lon="7.1979514695703983306884765625"><ele></ele><time>2019-11-18T14:15:38Z</time></trkpt>
<trkpt lat="47.22153416834771633148193359375" lon="7.19800972379744052886962890625"><ele></ele><time>2019-11-18T14:15:41Z</time></trkpt>
<trkpt lat="47.2213697992265224456787109375" lon="7.19805297441780567169189453125"><ele></ele><time>2019-11-18T14:15:44Z</time></trkpt>
<trkpt lat="47.22128623165190219879150390625" lon="7.1980941295623779296875"><ele></ele><time>2019-11-18T14:15:47Z</time></trkpt>
<trkpt lat="47.22080410458147525787353515625" lon="7.19850459136068820953369140625"><ele></ele><time>2019-11-18T14:15:50Z</time></trkpt>
<trkpt lat="47.22073704935610294342041015625" lon="7.19856242649257183074951171875"><ele></ele><time>2019-11-18T14:15:53Z</time></trkpt>
<trkpt lat="47.220632694661617279052734375" lon="7.19867139123380184173583984375"><ele></ele><time>2019-11-18T14:15:56Z</time></trkpt>
<trkpt lat="47.22058835439383983612060546875" lon="7.1987205930054187774658203125"><ele></ele><time>2019-11-18T14:15:59Z</time></trkpt>
<trkpt lat="47.22054108045995235443115234375" lon="7.19875386916100978851318359375"><ele></ele><time>2019-11-18T14:16:2Z</time></trkpt>
<trkpt lat="47.22044058144092559814453125" lon="7.19874381087720394134521484375"><ele></ele><time>2019-11-18T14:16:5Z</time></trkpt>
<trkpt lat="47.2203773818910121917724609375" lon="7.19865026883780956268310546875"><ele></ele><time>2019-11-18T14:16:8Z</time></trkpt>
<trkpt lat="47.22036606632173061370849609375" lon="7.19850341789424419403076171875"><ele></ele><time>2019-11-18T14:16:11Z</time></trkpt>
<trkpt lat="47.22046262584626674652099609375" lon="7.19831943511962890625"><ele></ele><time>2019-11-18T14:16:14Z</time></trkpt>
<trkpt lat="47.22048559226095676422119140625" lon="7.19827987253665924072265625"><ele></ele><time>2019-11-18T14:16:17Z</time></trkpt>
<trkpt lat="47.2205083072185516357421875" lon="7.1982451714575290679931640625"><ele></ele><time>2019-11-18T14:16:20Z</time></trkpt>
<trkpt lat="47.22052498720586299896240234375" lon="7.19821281731128692626953125"><ele></ele><time>2019-11-18T14:16:23Z</time></trkpt>
<trkpt lat="47.22057561390101909637451171875" lon="7.1981425769627094268798828125"><ele></ele><time>2019-11-18T14:16:26Z</time></trkpt>
<trkpt lat="47.2206033580005168914794921875" lon="7.1981496177613735198974609375"><ele></ele><time>2019-11-18T14:16:29Z</time></trkpt>
<trkpt lat="47.22061869688332080841064453125" lon="7.19814182259142398834228515625"><ele></ele><time>2019-11-18T14:16:32Z</time></trkpt>
<trkpt lat="47.2206187807023525238037109375" lon="7.19810561276972293853759765625"><ele></ele><time>2019-11-18T14:16:35Z</time></trkpt>
<trkpt lat="47.22059053368866443634033203125" lon="7.198077701032161712646484375"><ele></ele><time>2019-11-18T14:16:38Z</time></trkpt>
<trkpt lat="47.2205151803791522979736328125" lon="7.1981911920011043548583984375"><ele></ele><time>2019-11-18T14:16:41Z</time></trkpt>
<trkpt lat="47.22044653259217739105224609375" lon="7.19838741235435009002685546875"><ele></ele><time>2019-11-18T14:16:44Z</time></trkpt>
<trkpt lat="47.220335640013217926025390625" lon="7.1985422261059284210205078125"><ele></ele><time>2019-11-18T14:16:47Z</time></trkpt>
<trkpt lat="47.22026824951171875" lon="7.19855085946619510650634765625"><ele></ele><time>2019-11-18T14:16:50Z</time></trkpt>
<trkpt lat="47.2202586941421031951904296875" lon="7.1985536254942417144775390625"><ele></ele><time>2019-11-18T14:16:53Z</time></trkpt>
<trkpt lat="47.22024871967732906341552734375" lon="7.198552452027797698974609375"><ele></ele><time>2019-11-18T14:16:56Z</time></trkpt>
<trkpt lat="47.2202251665294170379638671875" lon="7.19854767434298992156982421875"><ele></ele><time>2019-11-18T14:16:59Z</time></trkpt>
<trkpt lat="47.220195494592189788818359375" lon="7.19863216392695903778076171875"><ele></ele><time>2019-11-18T14:17:2Z</time></trkpt>
<trkpt lat="47.22013724036514759063720703125" lon="7.1988976188004016876220703125"><ele></ele><time>2019-11-18T14:17:5Z</time></trkpt>
<trkpt lat="47.22012097947299480438232421875" lon="7.1989713795483112335205078125"><ele></ele><time>2019-11-18T14:17:8Z</time></trkpt>
<trkpt lat="47.2200417704880237579345703125" lon="7.1993851102888584136962890625"><ele></ele><time>2019-11-18T14:17:11Z</time></trkpt>
<trkpt lat="47.22000229172408580780029296875" lon="7.19950321130454540252685546875"><ele></ele><time>2019-11-18T14:17:14Z</time></trkpt>
<trkpt lat="47.2199683450162410736083984375" lon="7.1996928937733173370361328125"><ele></ele><time>2019-11-18T14:17:17Z</time></trkpt>
<trkpt lat="47.22000413574278354644775390625" lon="7.199823819100856781005859375"><ele></ele><time>2019-11-18T14:17:20Z</time></trkpt>
<trkpt lat="47.2201073169708251953125" lon="7.20023578964173793792724609375"><ele></ele><time>2019-11-18T14:17:23Z</time></trkpt>
<trkpt lat="47.22015635110437870025634765625" lon="7.200427316129207611083984375"><ele></ele><time>2019-11-18T14:17:26Z</time></trkpt>
<trkpt lat="47.22017043270170688629150390625" lon="7.2004965506494045257568359375"><ele></ele><time>2019-11-18T14:17:29Z</time></trkpt>
<trkpt lat="47.22018552012741565704345703125" lon="7.2005723230540752410888671875"><ele></ele><time>2019-11-18T14:17:32Z</time></trkpt>
<trkpt lat="47.22020043991506099700927734375" lon="7.200655303895473480224609375"><ele></ele><time>2019-11-18T14:17:35Z</time></trkpt>
<trkpt lat="47.22024100832641124725341796875" lon="7.20081363804638385772705078125"><ele></ele><time>2019-11-18T14:17:38Z</time></trkpt>
<trkpt lat="47.2203244082629680633544921875" lon="7.20102067105472087860107421875"><ele></ele><time>2019-11-18T14:17:41Z</time></trkpt>
<trkpt lat="47.2206432558596134185791015625" lon="7.20151620917022228240966796875"><ele></ele><time>2019-11-18T14:17:44Z</time></trkpt>
<trkpt lat="47.2207538969814777374267578125" lon="7.20161712728440761566162109375"><ele></ele><time>2019-11-18T14:17:47Z</time></trkpt>
<trkpt lat="47.22079488448798656463623046875" lon="7.20165870152413845062255859375"><ele></ele><time>2019-11-18T14:17:50Z</time></trkpt>
<trkpt lat="47.2208323515951633453369140625" lon="7.2017048858106136322021484375"><ele></ele><time>2019-11-18T14:17:53Z</time></trkpt>
<trkpt lat="47.22090728580951690673828125" lon="7.2018165327608585357666015625"><ele></ele><time>2019-11-18T14:17:56Z</time></trkpt>
<trkpt lat="47.2209379635751247406005859375" lon="7.20188065432012081146240234375"><ele></ele><time>2019-11-18T14:17:59Z</time></trkpt>
<trkpt lat="47.2209922783076763153076171875" lon="7.202018536627292633056640625"><ele></ele><time>2019-11-18T14:18:2Z</time></trkpt>
<trkpt lat="47.22126577980816364288330078125" lon="7.202762849628925323486328125"><ele></ele><time>2019-11-18T14:18:5Z</time></trkpt>
<trkpt lat="47.22133970819413661956787109375" lon="7.2029568068683147430419921875"><ele></ele><time>2019-11-18T14:18:8Z</time></trkpt>
<trkpt lat="47.22134674899280071258544921875" lon="7.20309116877615451812744140625"><ele></ele><time>2019-11-18T14:18:11Z</time></trkpt>
<trkpt lat="47.2212759219110012054443359375" lon="7.203305661678314208984375"><ele></ele><time>2019-11-18T14:18:14Z</time></trkpt>
<trkpt lat="47.22126142121851444244384765625" lon="7.2033660113811492919921875"><ele></ele><time>2019-11-18T14:18:17Z</time></trkpt>
<trkpt lat="47.22110870294272899627685546875" lon="7.203743197023868560791015625"><ele></ele><time>2019-11-18T14:18:20Z</time></trkpt>
<trkpt lat="47.22071207128465175628662109375" lon="7.20378720201551914215087890625"><ele></ele><time>2019-11-18T14:18:23Z</time></trkpt>
<trkpt lat="47.220630347728729248046875" lon="7.20372400246560573577880859375"><ele></ele><time>2019-11-18T14:18:26Z</time></trkpt>
<trkpt lat="47.22057209350168704986572265625" lon="7.20363163389265537261962890625"><ele></ele><time>2019-11-18T14:18:29Z</time></trkpt>
<trkpt lat="47.22053269855678081512451171875" lon="7.20352300442755222320556640625"><ele></ele><time>2019-11-18T14:18:32Z</time></trkpt>
<trkpt lat="47.22040831111371517181396484375" lon="7.20321991480886936187744140625"><ele></ele><time>2019-11-18T14:18:35Z</time></trkpt>
<trkpt lat="47.220208235085010528564453125" lon="7.2028468362987041473388671875"><ele></ele><time>2019-11-18T14:18:38Z</time></trkpt>
<trkpt lat="47.22001737914979457855224609375" lon="7.20254751853644847869873046875"><ele></ele><time>2019-11-18T14:18:41Z</time></trkpt>
<trkpt lat="47.2199515812098979949951171875" lon="7.20252036117017269134521484375"><ele></ele><time>2019-11-18T14:18:44Z</time></trkpt>
<trkpt lat="47.21991713158786296844482421875" lon="7.20252706669270992279052734375"><ele></ele><time>2019-11-18T14:18:47Z</time></trkpt>
<trkpt lat="47.21985518932342529296875" lon="7.2025685571134090423583984375"><ele></ele><time>2019-11-18T14:18:50Z</time></trkpt>
<trkpt lat="47.21982660703361034393310546875" lon="7.20259747467935085296630859375"><ele></ele><time>2019-11-18T14:18:53Z</time></trkpt>
<trkpt lat="47.2197199054062366485595703125" lon="7.20272555015981197357177734375"><ele></ele><time>2019-11-18T14:18:56Z</time></trkpt>
<trkpt lat="47.21967338584363460540771484375" lon="7.20279327593743801116943359375"><ele></ele><time>2019-11-18T14:18:59Z</time></trkpt>
<trkpt lat="47.2195730544626712799072265625" lon="7.2029341757297515869140625"><ele></ele><time>2019-11-18T14:19:2Z</time></trkpt>
<trkpt lat="47.21948697231709957122802734375" lon="7.20309234224259853363037109375"><ele></ele><time>2019-11-18T14:19:5Z</time></trkpt>
<trkpt lat="47.21943651326000690460205078125" lon="7.20316375605762004852294921875"><ele></ele><time>2019-11-18T14:19:8Z</time></trkpt>
<trkpt lat="47.21942075528204441070556640625" lon="7.20318789593875408172607421875"><ele></ele><time>2019-11-18T14:19:11Z</time></trkpt>
<trkpt lat="47.21940457820892333984375" lon="7.20321287401020526885986328125"><ele></ele><time>2019-11-18T14:19:14Z</time></trkpt>
<trkpt lat="47.21937012858688831329345703125" lon="7.20325478352606296539306640625"><ele></ele><time>2019-11-18T14:19:17Z</time></trkpt>
<trkpt lat="47.2193334996700286865234375" lon="7.2032909095287322998046875"><ele></ele><time>2019-11-18T14:19:20Z</time></trkpt>
<trkpt lat="47.219313718378543853759765625" lon="7.2033070027828216552734375"><ele></ele><time>2019-11-18T14:19:23Z</time></trkpt>
<trkpt lat="47.219293601810932159423828125" lon="7.20332502387464046478271484375"><ele></ele><time>2019-11-18T14:19:26Z</time></trkpt>
<trkpt lat="47.219273149967193603515625" lon="7.2033413685858249664306640625"><ele></ele><time>2019-11-18T14:19:29Z</time></trkpt>
<trkpt lat="47.21919595263898372650146484375" lon="7.20336408354341983795166015625"><ele></ele><time>2019-11-18T14:19:32Z</time></trkpt>
<trkpt lat="47.2190760076045989990234375" lon="7.20328294672071933746337890625"><ele></ele><time>2019-11-18T14:19:35Z</time></trkpt>
<trkpt lat="47.21898741088807582855224609375" lon="7.2029886581003665924072265625"><ele></ele><time>2019-11-18T14:19:38Z</time></trkpt>
<trkpt lat="47.218984477221965789794921875" lon="7.20297248102724552154541015625"><ele></ele><time>2019-11-18T14:19:41Z</time></trkpt>
</trkseg></trk></gpx>